<?xml version="1.0" encoding="UTF-8" standalone="no" ?>
<gpx xmlns="http://www.topografix.com/GPX/1/1" xmlns:xsi="http://www.w3.org/2001/XMLSchema-instance" xsi:schemaLocation="http://www.topografix.com/GPX/1/1 http://www.topografix.com/GPX/1/1/gpx.xsd" version="1.1" creator="VisuGPX - https://www.visugpx.com">
  <metadata>
    <name>64 - PEDESTRE - Boucle vallon Sousouéou</name>
    <desc><![CDATA[Journée ensoleillée et chaude]]></desc>
  </metadata>
  <wpt lat="42.90704" lon="-0.41436">
    <ele>1131.5888671875</ele>
    <name><![CDATA[001]]></name>
    <desc><![CDATA[04-JUN-15 10:38:39]]></desc>
    <cmt><![CDATA[04-JUN-15 10:38:39]]></cmt>
  </wpt>
  <wpt lat="42.90948" lon="-0.40497">
    <ele>1370.2346191406</ele>
    <name><![CDATA[002]]></name>
    <desc><![CDATA[04-JUN-15 11:14:18]]></desc>
    <cmt><![CDATA[04-JUN-15 11:14:18]]></cmt>
  </wpt>
  <wpt lat="42.91312" lon="-0.37905">
    <ele>1659.3488769531</ele>
    <name><![CDATA[003]]></name>
    <desc><![CDATA[04-JUN-15 12:28:09]]></desc>
    <cmt><![CDATA[04-JUN-15 12:28:09]]></cmt>
  </wpt>
  <wpt lat="42.90853" lon="-0.36787">
    <ele>1462.5205078125</ele>
    <name><![CDATA[004]]></name>
    <desc><![CDATA[04-JUN-15 13:33:04]]></desc>
    <cmt><![CDATA[04-JUN-15 13:33:04]]></cmt>
  </wpt>
  <wpt lat="42.90555" lon="-0.42265">
    <ele>1113.8046875</ele>
    <name><![CDATA[005]]></name>
    <desc><![CDATA[04-JUN-15 15:49:52]]></desc>
    <cmt><![CDATA[04-JUN-15 15:49:52]]></cmt>
  </wpt>
  <wpt lat="42.90906" lon="-0.41968">
    <ele>990.2763671875</ele>
    <name><![CDATA[006]]></name>
    <desc><![CDATA[04-JUN-15 16:08:09]]></desc>
    <cmt><![CDATA[04-JUN-15 16:08:09]]></cmt>
  </wpt>
  <trk>
    <name><![CDATA[ACTIVE LOG 001]]></name>
    <trkseg>
      <trkpt lat="42.90936" lon="-0.42036">
        <ele>975.87548828125</ele>
        <time>2015-06-04T08:11:36Z</time>
      </trkpt>
      <trkpt lat="42.90936" lon="-0.42036">
        <ele>975.87548828125</ele>
        <time>2015-06-04T08:11:37Z</time>
      </trkpt>
      <trkpt lat="42.90936" lon="-0.42036">
        <ele>975.87548828125</ele>
        <time>2015-06-04T08:11:38Z</time>
      </trkpt>
      <trkpt lat="42.90945" lon="-0.42027">
        <ele>976.8369140625</ele>
        <time>2015-06-04T08:12:24Z</time>
      </trkpt>
      <trkpt lat="42.90948" lon="-0.42025">
        <ele>975.39477539062</ele>
        <time>2015-06-04T08:12:51Z</time>
      </trkpt>
      <trkpt lat="42.90956" lon="-0.42015">
        <ele>974.43359375</ele>
        <time>2015-06-04T08:13:08Z</time>
      </trkpt>
      <trkpt lat="42.90963" lon="-0.42007">
        <ele>974.91430664062</ele>
        <time>2015-06-04T08:13:24Z</time>
      </trkpt>
      <trkpt lat="42.90963" lon="-0.42001">
        <ele>975.39477539062</ele>
        <time>2015-06-04T08:13:37Z</time>
      </trkpt>
      <trkpt lat="42.9096" lon="-0.41991">
        <ele>976.8369140625</ele>
        <time>2015-06-04T08:13:48Z</time>
      </trkpt>
      <trkpt lat="42.9094" lon="-0.41985">
        <ele>977.31762695312</ele>
        <time>2015-06-04T08:14:00Z</time>
      </trkpt>
      <trkpt lat="42.90942" lon="-0.41976">
        <ele>978.75952148438</ele>
        <time>2015-06-04T08:14:12Z</time>
      </trkpt>
      <trkpt lat="42.90932" lon="-0.41969">
        <ele>981.16284179688</ele>
        <time>2015-06-04T08:14:30Z</time>
      </trkpt>
      <trkpt lat="42.90918" lon="-0.41965">
        <ele>983.08520507812</ele>
        <time>2015-06-04T08:14:42Z</time>
      </trkpt>
      <trkpt lat="42.90908" lon="-0.41964">
        <ele>984.52734375</ele>
        <time>2015-06-04T08:14:53Z</time>
      </trkpt>
      <trkpt lat="42.90902" lon="-0.41963">
        <ele>985.00805664062</ele>
        <time>2015-06-04T08:15:06Z</time>
      </trkpt>
      <trkpt lat="42.90897" lon="-0.41958">
        <ele>985.00805664062</ele>
        <time>2015-06-04T08:15:20Z</time>
      </trkpt>
      <trkpt lat="42.90889" lon="-0.41945">
        <ele>985.48852539062</ele>
        <time>2015-06-04T08:15:36Z</time>
      </trkpt>
      <trkpt lat="42.90889" lon="-0.41932">
        <ele>985.96923828125</ele>
        <time>2015-06-04T08:15:52Z</time>
      </trkpt>
      <trkpt lat="42.9089" lon="-0.41919">
        <ele>988.853515625</ele>
        <time>2015-06-04T08:16:09Z</time>
      </trkpt>
      <trkpt lat="42.90872" lon="-0.41911">
        <ele>989.81469726562</ele>
        <time>2015-06-04T08:16:26Z</time>
      </trkpt>
      <trkpt lat="42.90861" lon="-0.41915">
        <ele>991.25659179688</ele>
        <time>2015-06-04T08:16:38Z</time>
      </trkpt>
      <trkpt lat="42.90854" lon="-0.41917">
        <ele>991.7373046875</ele>
        <time>2015-06-04T08:16:48Z</time>
      </trkpt>
      <trkpt lat="42.90848" lon="-0.41919">
        <ele>993.65991210938</ele>
        <time>2015-06-04T08:16:59Z</time>
      </trkpt>
      <trkpt lat="42.90845" lon="-0.41915">
        <ele>996.06323242188</ele>
        <time>2015-06-04T08:17:16Z</time>
      </trkpt>
      <trkpt lat="42.90836" lon="-0.41912">
        <ele>997.50512695312</ele>
        <time>2015-06-04T08:17:25Z</time>
      </trkpt>
      <trkpt lat="42.90829" lon="-0.41916">
        <ele>997.50512695312</ele>
        <time>2015-06-04T08:17:36Z</time>
      </trkpt>
      <trkpt lat="42.90817" lon="-0.41915">
        <ele>999.90844726562</ele>
        <time>2015-06-04T08:17:49Z</time>
      </trkpt>
      <trkpt lat="42.90816" lon="-0.41916">
        <ele>1001.3503417969</ele>
        <time>2015-06-04T08:18:03Z</time>
      </trkpt>
      <trkpt lat="42.90817" lon="-0.41907">
        <ele>1002.7922363281</ele>
        <time>2015-06-04T08:18:21Z</time>
      </trkpt>
      <trkpt lat="42.9082" lon="-0.41899">
        <ele>1005.6765136719</ele>
        <time>2015-06-04T08:18:37Z</time>
      </trkpt>
      <trkpt lat="42.90815" lon="-0.41886">
        <ele>1008.0798339844</ele>
        <time>2015-06-04T08:18:54Z</time>
      </trkpt>
      <trkpt lat="42.90813" lon="-0.41878">
        <ele>1010.0021972656</ele>
        <time>2015-06-04T08:19:17Z</time>
      </trkpt>
      <trkpt lat="42.90812" lon="-0.41867">
        <ele>1013.3669433594</ele>
        <time>2015-06-04T08:19:36Z</time>
      </trkpt>
      <trkpt lat="42.90799" lon="-0.41857">
        <ele>1016.7314453125</ele>
        <time>2015-06-04T08:20:00Z</time>
      </trkpt>
      <trkpt lat="42.90801" lon="-0.41857">
        <ele>1017.6926269531</ele>
        <time>2015-06-04T08:20:02Z</time>
      </trkpt>
      <trkpt lat="42.90814" lon="-0.4185">
        <ele>1020.0961914062</ele>
        <time>2015-06-04T08:20:23Z</time>
      </trkpt>
      <trkpt lat="42.90801" lon="-0.41844">
        <ele>1021.5380859375</ele>
        <time>2015-06-04T08:20:45Z</time>
      </trkpt>
      <trkpt lat="42.90793" lon="-0.41843">
        <ele>1024.4221191406</ele>
        <time>2015-06-04T08:20:56Z</time>
      </trkpt>
      <trkpt lat="42.90771" lon="-0.41834">
        <ele>1027.7866210938</ele>
        <time>2015-06-04T08:21:16Z</time>
      </trkpt>
      <trkpt lat="42.90771" lon="-0.41835">
        <ele>1030.1899414062</ele>
        <time>2015-06-04T08:21:37Z</time>
      </trkpt>
      <trkpt lat="42.90761" lon="-0.41836">
        <ele>1033.0737304688</ele>
        <time>2015-06-04T08:22:02Z</time>
      </trkpt>
      <trkpt lat="42.90735" lon="-0.41827">
        <ele>1035.9577636719</ele>
        <time>2015-06-04T08:22:26Z</time>
      </trkpt>
      <trkpt lat="42.90724" lon="-0.41825">
        <ele>1039.8032226562</ele>
        <time>2015-06-04T08:22:46Z</time>
      </trkpt>
      <trkpt lat="42.90735" lon="-0.41814">
        <ele>1042.6872558594</ele>
        <time>2015-06-04T08:23:07Z</time>
      </trkpt>
      <trkpt lat="42.90739" lon="-0.41808">
        <ele>1046.5324707031</ele>
        <time>2015-06-04T08:23:25Z</time>
      </trkpt>
      <trkpt lat="42.90742" lon="-0.41804">
        <ele>1047.9743652344</ele>
        <time>2015-06-04T08:23:38Z</time>
      </trkpt>
      <trkpt lat="42.90745" lon="-0.41797">
        <ele>1049.4162597656</ele>
        <time>2015-06-04T08:23:55Z</time>
      </trkpt>
      <trkpt lat="42.90753" lon="-0.41789">
        <ele>1051.8195800781</ele>
        <time>2015-06-04T08:24:08Z</time>
      </trkpt>
      <trkpt lat="42.90757" lon="-0.41784">
        <ele>1052.3002929688</ele>
        <time>2015-06-04T08:24:16Z</time>
      </trkpt>
      <trkpt lat="42.90761" lon="-0.41779">
        <ele>1053.26171875</ele>
        <time>2015-06-04T08:24:26Z</time>
      </trkpt>
      <trkpt lat="42.9077" lon="-0.41771">
        <ele>1054.2231445312</ele>
        <time>2015-06-04T08:24:40Z</time>
      </trkpt>
      <trkpt lat="42.90782" lon="-0.41761">
        <ele>1055.6650390625</ele>
        <time>2015-06-04T08:24:54Z</time>
      </trkpt>
      <trkpt lat="42.90785" lon="-0.41759">
        <ele>1055.6650390625</ele>
        <time>2015-06-04T08:24:58Z</time>
      </trkpt>
      <trkpt lat="42.90792" lon="-0.41751">
        <ele>1056.1455078125</ele>
        <time>2015-06-04T08:25:10Z</time>
      </trkpt>
      <trkpt lat="42.90799" lon="-0.41744">
        <ele>1057.1069335938</ele>
        <time>2015-06-04T08:25:19Z</time>
      </trkpt>
      <trkpt lat="42.90805" lon="-0.41732">
        <ele>1059.0295410156</ele>
        <time>2015-06-04T08:25:32Z</time>
      </trkpt>
      <trkpt lat="42.9081" lon="-0.41723">
        <ele>1059.9907226562</ele>
        <time>2015-06-04T08:25:43Z</time>
      </trkpt>
      <trkpt lat="42.9082" lon="-0.41716">
        <ele>1061.4328613281</ele>
        <time>2015-06-04T08:25:56Z</time>
      </trkpt>
      <trkpt lat="42.90825" lon="-0.41711">
        <ele>1062.8747558594</ele>
        <time>2015-06-04T08:26:06Z</time>
      </trkpt>
      <trkpt lat="42.90832" lon="-0.41693">
        <ele>1065.7587890625</ele>
        <time>2015-06-04T08:26:26Z</time>
      </trkpt>
      <trkpt lat="42.90835" lon="-0.41683">
        <ele>1067.2006835938</ele>
        <time>2015-06-04T08:26:39Z</time>
      </trkpt>
      <trkpt lat="42.90838" lon="-0.41676">
        <ele>1068.6428222656</ele>
        <time>2015-06-04T08:26:50Z</time>
      </trkpt>
      <trkpt lat="42.90841" lon="-0.41668">
        <ele>1070.5654296875</ele>
        <time>2015-06-04T08:27:03Z</time>
      </trkpt>
      <trkpt lat="42.90845" lon="-0.41662">
        <ele>1072.4880371094</ele>
        <time>2015-06-04T08:27:15Z</time>
      </trkpt>
      <trkpt lat="42.90844" lon="-0.41655">
        <ele>1072.96875</ele>
        <time>2015-06-04T08:27:27Z</time>
      </trkpt>
      <trkpt lat="42.90847" lon="-0.41646">
        <ele>1074.8913574219</ele>
        <time>2015-06-04T08:27:42Z</time>
      </trkpt>
      <trkpt lat="42.90856" lon="-0.41637">
        <ele>1075.8525390625</ele>
        <time>2015-06-04T08:27:58Z</time>
      </trkpt>
      <trkpt lat="42.90865" lon="-0.41621">
        <ele>1076.3332519531</ele>
        <time>2015-06-04T08:28:16Z</time>
      </trkpt>
      <trkpt lat="42.90875" lon="-0.41609">
        <ele>1077.2946777344</ele>
        <time>2015-06-04T08:28:32Z</time>
      </trkpt>
      <trkpt lat="42.90878" lon="-0.41606">
        <ele>1077.7751464844</ele>
        <time>2015-06-04T08:28:36Z</time>
      </trkpt>
      <trkpt lat="42.90887" lon="-0.41595">
        <ele>1079.6977539062</ele>
        <time>2015-06-04T08:28:50Z</time>
      </trkpt>
      <trkpt lat="42.90894" lon="-0.41588">
        <ele>1081.6203613281</ele>
        <time>2015-06-04T08:29:03Z</time>
      </trkpt>
      <trkpt lat="42.90894" lon="-0.41576">
        <ele>1084.5046386719</ele>
        <time>2015-06-04T08:29:19Z</time>
      </trkpt>
      <trkpt lat="42.90893" lon="-0.41575">
        <ele>1085.4658203125</ele>
        <time>2015-06-04T08:29:21Z</time>
      </trkpt>
      <trkpt lat="42.90886" lon="-0.41571">
        <ele>1086.9077148438</ele>
        <time>2015-06-04T08:29:35Z</time>
      </trkpt>
      <trkpt lat="42.90879" lon="-0.41568">
        <ele>1089.7917480469</ele>
        <time>2015-06-04T08:29:49Z</time>
      </trkpt>
      <trkpt lat="42.90867" lon="-0.4157">
        <ele>1091.2336425781</ele>
        <time>2015-06-04T08:30:03Z</time>
      </trkpt>
      <trkpt lat="42.9086" lon="-0.41568">
        <ele>1092.1950683594</ele>
        <time>2015-06-04T08:30:15Z</time>
      </trkpt>
      <trkpt lat="42.90851" lon="-0.41567">
        <ele>1093.6369628906</ele>
        <time>2015-06-04T08:30:31Z</time>
      </trkpt>
      <trkpt lat="42.90841" lon="-0.41566">
        <ele>1096.0402832031</ele>
        <time>2015-06-04T08:30:43Z</time>
      </trkpt>
      <trkpt lat="42.9083" lon="-0.41567">
        <ele>1097.4821777344</ele>
        <time>2015-06-04T08:30:59Z</time>
      </trkpt>
      <trkpt lat="42.90826" lon="-0.41564">
        <ele>1098.443359375</ele>
        <time>2015-06-04T08:31:12Z</time>
      </trkpt>
      <trkpt lat="42.90813" lon="-0.41559">
        <ele>1101.3276367188</ele>
        <time>2015-06-04T08:31:28Z</time>
      </trkpt>
      <trkpt lat="42.90806" lon="-0.41561">
        <ele>1101.8083496094</ele>
        <time>2015-06-04T08:31:42Z</time>
      </trkpt>
      <trkpt lat="42.90798" lon="-0.41565">
        <ele>1100.3664550781</ele>
        <time>2015-06-04T08:31:49Z</time>
      </trkpt>
      <trkpt lat="42.90782" lon="-0.41571">
        <ele>1101.3276367188</ele>
        <time>2015-06-04T08:32:07Z</time>
      </trkpt>
      <trkpt lat="42.90775" lon="-0.41563">
        <ele>1104.6921386719</ele>
        <time>2015-06-04T08:32:23Z</time>
      </trkpt>
      <trkpt lat="42.90772" lon="-0.41559">
        <ele>1105.6535644531</ele>
        <time>2015-06-04T08:32:37Z</time>
      </trkpt>
      <trkpt lat="42.90773" lon="-0.41547">
        <ele>1109.0180664062</ele>
        <time>2015-06-04T08:32:51Z</time>
      </trkpt>
      <trkpt lat="42.90763" lon="-0.41542">
        <ele>1110.4599609375</ele>
        <time>2015-06-04T08:33:06Z</time>
      </trkpt>
      <trkpt lat="42.90756" lon="-0.41535">
        <ele>1112.86328125</ele>
        <time>2015-06-04T08:33:21Z</time>
      </trkpt>
      <trkpt lat="42.90746" lon="-0.41532">
        <ele>1113.3439941406</ele>
        <time>2015-06-04T08:33:34Z</time>
      </trkpt>
      <trkpt lat="42.90736" lon="-0.41531">
        <ele>1113.3439941406</ele>
        <time>2015-06-04T08:33:50Z</time>
      </trkpt>
      <trkpt lat="42.90727" lon="-0.4153">
        <ele>1114.3051757812</ele>
        <time>2015-06-04T08:34:04Z</time>
      </trkpt>
      <trkpt lat="42.90716" lon="-0.4153">
        <ele>1115.7473144531</ele>
        <time>2015-06-04T08:34:19Z</time>
      </trkpt>
      <trkpt lat="42.90705" lon="-0.41531">
        <ele>1117.669921875</ele>
        <time>2015-06-04T08:34:35Z</time>
      </trkpt>
      <trkpt lat="42.90697" lon="-0.41528">
        <ele>1120.0732421875</ele>
        <time>2015-06-04T08:34:49Z</time>
      </trkpt>
      <trkpt lat="42.90694" lon="-0.41516">
        <ele>1122.9572753906</ele>
        <time>2015-06-04T08:35:04Z</time>
      </trkpt>
      <trkpt lat="42.90691" lon="-0.41507">
        <ele>1123.9184570312</ele>
        <time>2015-06-04T08:35:16Z</time>
      </trkpt>
      <trkpt lat="42.90689" lon="-0.415">
        <ele>1124.8798828125</ele>
        <time>2015-06-04T08:35:29Z</time>
      </trkpt>
      <trkpt lat="42.90691" lon="-0.4149">
        <ele>1125.3603515625</ele>
        <time>2015-06-04T08:35:44Z</time>
      </trkpt>
      <trkpt lat="42.9069" lon="-0.41473">
        <ele>1126.3217773438</ele>
        <time>2015-06-04T08:36:00Z</time>
      </trkpt>
      <trkpt lat="42.90689" lon="-0.41465">
        <ele>1128.2443847656</ele>
        <time>2015-06-04T08:36:11Z</time>
      </trkpt>
      <trkpt lat="42.90692" lon="-0.41454">
        <ele>1130.1669921875</ele>
        <time>2015-06-04T08:36:28Z</time>
      </trkpt>
      <trkpt lat="42.90695" lon="-0.41447">
        <ele>1131.6088867188</ele>
        <time>2015-06-04T08:36:48Z</time>
      </trkpt>
      <trkpt lat="42.90703" lon="-0.41445">
        <ele>1131.6088867188</ele>
        <time>2015-06-04T08:37:07Z</time>
      </trkpt>
      <trkpt lat="42.90705" lon="-0.41442">
        <ele>1131.6088867188</ele>
        <time>2015-06-04T08:37:45Z</time>
      </trkpt>
      <trkpt lat="42.90697" lon="-0.41431">
        <ele>1131.6088867188</ele>
        <time>2015-06-04T08:38:06Z</time>
      </trkpt>
      <trkpt lat="42.90704" lon="-0.41436">
        <ele>1132.08984375</ele>
        <time>2015-06-04T08:38:39Z</time>
      </trkpt>
      <trkpt lat="42.90712" lon="-0.41446">
        <ele>1132.08984375</ele>
        <time>2015-06-04T08:38:57Z</time>
      </trkpt>
      <trkpt lat="42.90721" lon="-0.41452">
        <ele>1132.08984375</ele>
        <time>2015-06-04T08:39:11Z</time>
      </trkpt>
      <trkpt lat="42.90729" lon="-0.41456">
        <ele>1134.0124511719</ele>
        <time>2015-06-04T08:39:21Z</time>
      </trkpt>
      <trkpt lat="42.90746" lon="-0.41463">
        <ele>1134.4931640625</ele>
        <time>2015-06-04T08:39:39Z</time>
      </trkpt>
      <trkpt lat="42.9076" lon="-0.41458">
        <ele>1135.9350585938</ele>
        <time>2015-06-04T08:39:50Z</time>
      </trkpt>
      <trkpt lat="42.90776" lon="-0.41458">
        <ele>1138.8190917969</ele>
        <time>2015-06-04T08:40:01Z</time>
      </trkpt>
      <trkpt lat="42.90787" lon="-0.41453">
        <ele>1140.2609863281</ele>
        <time>2015-06-04T08:40:16Z</time>
      </trkpt>
      <trkpt lat="42.9079" lon="-0.41439">
        <ele>1141.2221679688</ele>
        <time>2015-06-04T08:40:29Z</time>
      </trkpt>
      <trkpt lat="42.90794" lon="-0.41434">
        <ele>1142.6643066406</ele>
        <time>2015-06-04T08:40:36Z</time>
      </trkpt>
      <trkpt lat="42.908" lon="-0.41426">
        <ele>1146.0288085938</ele>
        <time>2015-06-04T08:40:52Z</time>
      </trkpt>
      <trkpt lat="42.90808" lon="-0.41415">
        <ele>1146.9899902344</ele>
        <time>2015-06-04T08:41:06Z</time>
      </trkpt>
      <trkpt lat="42.90811" lon="-0.41408">
        <ele>1147.470703125</ele>
        <time>2015-06-04T08:41:12Z</time>
      </trkpt>
      <trkpt lat="42.90815" lon="-0.41399">
        <ele>1147.470703125</ele>
        <time>2015-06-04T08:41:20Z</time>
      </trkpt>
      <trkpt lat="42.9082" lon="-0.41388">
        <ele>1146.9899902344</ele>
        <time>2015-06-04T08:41:28Z</time>
      </trkpt>
      <trkpt lat="42.90835" lon="-0.4137">
        <ele>1146.9899902344</ele>
        <time>2015-06-04T08:41:44Z</time>
      </trkpt>
      <trkpt lat="42.90839" lon="-0.41367">
        <ele>1147.470703125</ele>
        <time>2015-06-04T08:41:49Z</time>
      </trkpt>
      <trkpt lat="42.90849" lon="-0.41355">
        <ele>1147.9514160156</ele>
        <time>2015-06-04T08:42:04Z</time>
      </trkpt>
      <trkpt lat="42.90859" lon="-0.41347">
        <ele>1149.3935546875</ele>
        <time>2015-06-04T08:42:18Z</time>
      </trkpt>
      <trkpt lat="42.90867" lon="-0.41337">
        <ele>1149.8742675781</ele>
        <time>2015-06-04T08:42:32Z</time>
      </trkpt>
      <trkpt lat="42.90882" lon="-0.41334">
        <ele>1150.3549804688</ele>
        <time>2015-06-04T08:42:45Z</time>
      </trkpt>
      <trkpt lat="42.90893" lon="-0.41326">
        <ele>1150.8354492188</ele>
        <time>2015-06-04T08:42:56Z</time>
      </trkpt>
      <trkpt lat="42.90901" lon="-0.41306">
        <ele>1151.3161621094</ele>
        <time>2015-06-04T08:43:11Z</time>
      </trkpt>
      <trkpt lat="42.90905" lon="-0.413">
        <ele>1151.796875</ele>
        <time>2015-06-04T08:43:16Z</time>
      </trkpt>
      <trkpt lat="42.90907" lon="-0.41298">
        <ele>1151.796875</ele>
        <time>2015-06-04T08:43:18Z</time>
      </trkpt>
      <trkpt lat="42.90919" lon="-0.41284">
        <ele>1153.7194824219</ele>
        <time>2015-06-04T08:43:33Z</time>
      </trkpt>
      <trkpt lat="42.90924" lon="-0.41279">
        <ele>1153.7194824219</ele>
        <time>2015-06-04T08:43:45Z</time>
      </trkpt>
      <trkpt lat="42.90931" lon="-0.41268">
        <ele>1154.2001953125</ele>
        <time>2015-06-04T08:43:58Z</time>
      </trkpt>
      <trkpt lat="42.90936" lon="-0.41262">
        <ele>1155.1613769531</ele>
        <time>2015-06-04T08:44:10Z</time>
      </trkpt>
      <trkpt lat="42.90946" lon="-0.41256">
        <ele>1156.1225585938</ele>
        <time>2015-06-04T08:44:32Z</time>
      </trkpt>
      <trkpt lat="42.90953" lon="-0.41258">
        <ele>1157.083984375</ele>
        <time>2015-06-04T08:44:44Z</time>
      </trkpt>
      <trkpt lat="42.90957" lon="-0.41256">
        <ele>1159.0065917969</ele>
        <time>2015-06-04T08:45:01Z</time>
      </trkpt>
      <trkpt lat="42.90952" lon="-0.41252">
        <ele>1160.4484863281</ele>
        <time>2015-06-04T08:45:13Z</time>
      </trkpt>
      <trkpt lat="42.90949" lon="-0.41239">
        <ele>1163.3325195312</ele>
        <time>2015-06-04T08:45:27Z</time>
      </trkpt>
      <trkpt lat="42.90941" lon="-0.41234">
        <ele>1166.2165527344</ele>
        <time>2015-06-04T08:45:47Z</time>
      </trkpt>
      <trkpt lat="42.90937" lon="-0.41225">
        <ele>1167.6584472656</ele>
        <time>2015-06-04T08:46:06Z</time>
      </trkpt>
      <trkpt lat="42.90936" lon="-0.41214">
        <ele>1168.6198730469</ele>
        <time>2015-06-04T08:46:21Z</time>
      </trkpt>
      <trkpt lat="42.9093" lon="-0.41205">
        <ele>1169.1005859375</ele>
        <time>2015-06-04T08:46:37Z</time>
      </trkpt>
      <trkpt lat="42.90933" lon="-0.41201">
        <ele>1171.984375</ele>
        <time>2015-06-04T08:46:57Z</time>
      </trkpt>
      <trkpt lat="42.90938" lon="-0.41194">
        <ele>1173.4265136719</ele>
        <time>2015-06-04T08:47:08Z</time>
      </trkpt>
      <trkpt lat="42.90941" lon="-0.4118">
        <ele>1176.3103027344</ele>
        <time>2015-06-04T08:47:21Z</time>
      </trkpt>
      <trkpt lat="42.90947" lon="-0.41182">
        <ele>1179.6748046875</ele>
        <time>2015-06-04T08:47:47Z</time>
      </trkpt>
      <trkpt lat="42.90951" lon="-0.41177">
        <ele>1182.0783691406</ele>
        <time>2015-06-04T08:48:04Z</time>
      </trkpt>
      <trkpt lat="42.90957" lon="-0.41157">
        <ele>1185.4428710938</ele>
        <time>2015-06-04T08:48:31Z</time>
      </trkpt>
      <trkpt lat="42.9095" lon="-0.41143">
        <ele>1188.3269042969</ele>
        <time>2015-06-04T08:48:51Z</time>
      </trkpt>
      <trkpt lat="42.90947" lon="-0.4113">
        <ele>1191.69140625</ele>
        <time>2015-06-04T08:49:14Z</time>
      </trkpt>
      <trkpt lat="42.90942" lon="-0.41122">
        <ele>1191.69140625</ele>
        <time>2015-06-04T08:49:26Z</time>
      </trkpt>
      <trkpt lat="42.90942" lon="-0.41111">
        <ele>1194.5751953125</ele>
        <time>2015-06-04T08:49:46Z</time>
      </trkpt>
      <trkpt lat="42.90942" lon="-0.41104">
        <ele>1195.5366210938</ele>
        <time>2015-06-04T08:50:02Z</time>
      </trkpt>
      <trkpt lat="42.90947" lon="-0.41101">
        <ele>1198.9013671875</ele>
        <time>2015-06-04T08:50:18Z</time>
      </trkpt>
      <trkpt lat="42.9094" lon="-0.41098">
        <ele>1201.7854003906</ele>
        <time>2015-06-04T08:50:45Z</time>
      </trkpt>
      <trkpt lat="42.90938" lon="-0.41098">
        <ele>1203.2272949219</ele>
        <time>2015-06-04T08:50:47Z</time>
      </trkpt>
      <trkpt lat="42.90938" lon="-0.41088">
        <ele>1204.1887207031</ele>
        <time>2015-06-04T08:51:02Z</time>
      </trkpt>
      <trkpt lat="42.90942" lon="-0.41091">
        <ele>1207.5532226562</ele>
        <time>2015-06-04T08:51:18Z</time>
      </trkpt>
      <trkpt lat="42.90945" lon="-0.41077">
        <ele>1210.4370117188</ele>
        <time>2015-06-04T08:51:48Z</time>
      </trkpt>
      <trkpt lat="42.90948" lon="-0.41082">
        <ele>1213.8017578125</ele>
        <time>2015-06-04T08:52:04Z</time>
      </trkpt>
      <trkpt lat="42.90943" lon="-0.41069">
        <ele>1216.6857910156</ele>
        <time>2015-06-04T08:52:27Z</time>
      </trkpt>
      <trkpt lat="42.90952" lon="-0.41062">
        <ele>1219.0891113281</ele>
        <time>2015-06-04T08:52:55Z</time>
      </trkpt>
      <trkpt lat="42.90938" lon="-0.41057">
        <ele>1221.01171875</ele>
        <time>2015-06-04T08:53:12Z</time>
      </trkpt>
      <trkpt lat="42.90952" lon="-0.4104">
        <ele>1223.8955078125</ele>
        <time>2015-06-04T08:53:35Z</time>
      </trkpt>
      <trkpt lat="42.90955" lon="-0.41041">
        <ele>1226.298828125</ele>
        <time>2015-06-04T08:53:53Z</time>
      </trkpt>
      <trkpt lat="42.90955" lon="-0.41032">
        <ele>1229.1828613281</ele>
        <time>2015-06-04T08:54:19Z</time>
      </trkpt>
      <trkpt lat="42.90957" lon="-0.41022">
        <ele>1232.5476074219</ele>
        <time>2015-06-04T08:54:47Z</time>
      </trkpt>
      <trkpt lat="42.90948" lon="-0.41015">
        <ele>1235.912109375</ele>
        <time>2015-06-04T08:55:16Z</time>
      </trkpt>
      <trkpt lat="42.90945" lon="-0.41016">
        <ele>1239.2766113281</ele>
        <time>2015-06-04T08:55:35Z</time>
      </trkpt>
      <trkpt lat="42.90951" lon="-0.41001">
        <ele>1242.6413574219</ele>
        <time>2015-06-04T08:56:03Z</time>
      </trkpt>
      <trkpt lat="42.90952" lon="-0.4098">
        <ele>1246.0061035156</ele>
        <time>2015-06-04T08:56:39Z</time>
      </trkpt>
      <trkpt lat="42.90957" lon="-0.40974">
        <ele>1247.9287109375</ele>
        <time>2015-06-04T08:57:14Z</time>
      </trkpt>
      <trkpt lat="42.9095" lon="-0.40967">
        <ele>1251.2932128906</ele>
        <time>2015-06-04T08:57:43Z</time>
      </trkpt>
      <trkpt lat="42.90946" lon="-0.40961">
        <ele>1254.6577148438</ele>
        <time>2015-06-04T08:58:03Z</time>
      </trkpt>
      <trkpt lat="42.90952" lon="-0.40952">
        <ele>1255.619140625</ele>
        <time>2015-06-04T08:58:20Z</time>
      </trkpt>
      <trkpt lat="42.9096" lon="-0.4094">
        <ele>1258.0224609375</ele>
        <time>2015-06-04T08:58:42Z</time>
      </trkpt>
      <trkpt lat="42.90961" lon="-0.40939">
        <ele>1258.0224609375</ele>
        <time>2015-06-04T08:58:43Z</time>
      </trkpt>
      <trkpt lat="42.90966" lon="-0.40933">
        <ele>1261.3872070312</ele>
        <time>2015-06-04T08:59:09Z</time>
      </trkpt>
      <trkpt lat="42.90973" lon="-0.40921">
        <ele>1263.3098144531</ele>
        <time>2015-06-04T08:59:24Z</time>
      </trkpt>
      <trkpt lat="42.90976" lon="-0.40904">
        <ele>1264.2709960938</ele>
        <time>2015-06-04T08:59:41Z</time>
      </trkpt>
      <trkpt lat="42.90967" lon="-0.40891">
        <ele>1267.6354980469</ele>
        <time>2015-06-04T09:00:02Z</time>
      </trkpt>
      <trkpt lat="42.90964" lon="-0.40884">
        <ele>1268.5969238281</ele>
        <time>2015-06-04T09:00:20Z</time>
      </trkpt>
      <trkpt lat="42.90961" lon="-0.40876">
        <ele>1269.5583496094</ele>
        <time>2015-06-04T09:00:35Z</time>
      </trkpt>
      <trkpt lat="42.9095" lon="-0.40877">
        <ele>1270.0388183594</ele>
        <time>2015-06-04T09:00:46Z</time>
      </trkpt>
      <trkpt lat="42.90939" lon="-0.40863">
        <ele>1272.9228515625</ele>
        <time>2015-06-04T09:01:10Z</time>
      </trkpt>
      <trkpt lat="42.90936" lon="-0.40859">
        <ele>1273.8840332031</ele>
        <time>2015-06-04T09:01:15Z</time>
      </trkpt>
      <trkpt lat="42.90928" lon="-0.40855">
        <ele>1276.2875976562</ele>
        <time>2015-06-04T09:01:34Z</time>
      </trkpt>
      <trkpt lat="42.90934" lon="-0.40835">
        <ele>1279.6520996094</ele>
        <time>2015-06-04T09:02:01Z</time>
      </trkpt>
      <trkpt lat="42.90935" lon="-0.40824">
        <ele>1283.0166015625</ele>
        <time>2015-06-04T09:02:25Z</time>
      </trkpt>
      <trkpt lat="42.90935" lon="-0.40824">
        <ele>1282.5361328125</ele>
        <time>2015-06-04T09:02:26Z</time>
      </trkpt>
      <trkpt lat="42.90933" lon="-0.40825">
        <ele>1283.9780273438</ele>
        <time>2015-06-04T09:02:32Z</time>
      </trkpt>
      <trkpt lat="42.90938" lon="-0.40819">
        <ele>1286.8618164062</ele>
        <time>2015-06-04T09:02:51Z</time>
      </trkpt>
      <trkpt lat="42.90934" lon="-0.40803">
        <ele>1289.7458496094</ele>
        <time>2015-06-04T09:03:30Z</time>
      </trkpt>
      <trkpt lat="42.90933" lon="-0.40802">
        <ele>1289.7458496094</ele>
        <time>2015-06-04T09:03:31Z</time>
      </trkpt>
      <trkpt lat="42.90952" lon="-0.40777">
        <ele>1293.1105957031</ele>
        <time>2015-06-04T09:03:57Z</time>
      </trkpt>
      <trkpt lat="42.90948" lon="-0.40772">
        <ele>1294.0720214844</ele>
        <time>2015-06-04T09:04:13Z</time>
      </trkpt>
      <trkpt lat="42.90948" lon="-0.40768">
        <ele>1297.4365234375</ele>
        <time>2015-06-04T09:04:30Z</time>
      </trkpt>
      <trkpt lat="42.9095" lon="-0.4075">
        <ele>1300.8010253906</ele>
        <time>2015-06-04T09:04:49Z</time>
      </trkpt>
      <trkpt lat="42.90952" lon="-0.40727">
        <ele>1301.7624511719</ele>
        <time>2015-06-04T09:05:07Z</time>
      </trkpt>
      <trkpt lat="42.9095" lon="-0.4071">
        <ele>1301.7624511719</ele>
        <time>2015-06-04T09:05:21Z</time>
      </trkpt>
      <trkpt lat="42.90955" lon="-0.40692">
        <ele>1301.7624511719</ele>
        <time>2015-06-04T09:05:35Z</time>
      </trkpt>
      <trkpt lat="42.90958" lon="-0.40674">
        <ele>1305.126953125</ele>
        <time>2015-06-04T09:05:50Z</time>
      </trkpt>
      <trkpt lat="42.90954" lon="-0.40667">
        <ele>1305.126953125</ele>
        <time>2015-06-04T09:05:58Z</time>
      </trkpt>
      <trkpt lat="42.90955" lon="-0.40652">
        <ele>1305.6076660156</ele>
        <time>2015-06-04T09:06:11Z</time>
      </trkpt>
      <trkpt lat="42.90947" lon="-0.40648">
        <ele>1305.6076660156</ele>
        <time>2015-06-04T09:06:26Z</time>
      </trkpt>
      <trkpt lat="42.90929" lon="-0.40647">
        <ele>1306.5688476562</ele>
        <time>2015-06-04T09:06:48Z</time>
      </trkpt>
      <trkpt lat="42.9092" lon="-0.40645">
        <ele>1309.93359375</ele>
        <time>2015-06-04T09:07:07Z</time>
      </trkpt>
      <trkpt lat="42.90921" lon="-0.40654">
        <ele>1312.8176269531</ele>
        <time>2015-06-04T09:07:30Z</time>
      </trkpt>
      <trkpt lat="42.90926" lon="-0.40635">
        <ele>1316.1821289062</ele>
        <time>2015-06-04T09:07:46Z</time>
      </trkpt>
      <trkpt lat="42.9093" lon="-0.40618">
        <ele>1319.0661621094</ele>
        <time>2015-06-04T09:08:05Z</time>
      </trkpt>
      <trkpt lat="42.90931" lon="-0.40597">
        <ele>1321.9499511719</ele>
        <time>2015-06-04T09:08:28Z</time>
      </trkpt>
      <trkpt lat="42.9092" lon="-0.40593">
        <ele>1323.3920898438</ele>
        <time>2015-06-04T09:08:44Z</time>
      </trkpt>
      <trkpt lat="42.90929" lon="-0.40584">
        <ele>1326.2761230469</ele>
        <time>2015-06-04T09:08:54Z</time>
      </trkpt>
      <trkpt lat="42.90933" lon="-0.40587">
        <ele>1329.1599121094</ele>
        <time>2015-06-04T09:09:16Z</time>
      </trkpt>
      <trkpt lat="42.9093" lon="-0.40577">
        <ele>1332.5246582031</ele>
        <time>2015-06-04T09:09:34Z</time>
      </trkpt>
      <trkpt lat="42.90929" lon="-0.40565">
        <ele>1336.3698730469</ele>
        <time>2015-06-04T09:09:54Z</time>
      </trkpt>
      <trkpt lat="42.90935" lon="-0.40565">
        <ele>1339.734375</ele>
        <time>2015-06-04T09:10:13Z</time>
      </trkpt>
      <trkpt lat="42.90931" lon="-0.4056">
        <ele>1340.6958007812</ele>
        <time>2015-06-04T09:10:22Z</time>
      </trkpt>
      <trkpt lat="42.90943" lon="-0.40553">
        <ele>1342.6186523438</ele>
        <time>2015-06-04T09:10:40Z</time>
      </trkpt>
      <trkpt lat="42.90946" lon="-0.40548">
        <ele>1345.0217285156</ele>
        <time>2015-06-04T09:10:57Z</time>
      </trkpt>
      <trkpt lat="42.90942" lon="-0.40528">
        <ele>1347.9057617188</ele>
        <time>2015-06-04T09:11:18Z</time>
      </trkpt>
      <trkpt lat="42.90945" lon="-0.40521">
        <ele>1349.34765625</ele>
        <time>2015-06-04T09:11:41Z</time>
      </trkpt>
      <trkpt lat="42.90936" lon="-0.40519">
        <ele>1352.7121582031</ele>
        <time>2015-06-04T09:11:54Z</time>
      </trkpt>
      <trkpt lat="42.90931" lon="-0.40511">
        <ele>1355.5961914062</ele>
        <time>2015-06-04T09:12:12Z</time>
      </trkpt>
      <trkpt lat="42.90938" lon="-0.40495">
        <ele>1358.9609375</ele>
        <time>2015-06-04T09:12:30Z</time>
      </trkpt>
      <trkpt lat="42.90937" lon="-0.4049">
        <ele>1361.8449707031</ele>
        <time>2015-06-04T09:12:46Z</time>
      </trkpt>
      <trkpt lat="42.90938" lon="-0.40495">
        <ele>1365.2094726562</ele>
        <time>2015-06-04T09:13:26Z</time>
      </trkpt>
      <trkpt lat="42.90942" lon="-0.40491">
        <ele>1366.1706542969</ele>
        <time>2015-06-04T09:13:42Z</time>
      </trkpt>
      <trkpt lat="42.90949" lon="-0.40497">
        <ele>1368.0932617188</ele>
        <time>2015-06-04T09:14:00Z</time>
      </trkpt>
      <trkpt lat="42.90948" lon="-0.40498">
        <ele>1370.4965820312</ele>
        <time>2015-06-04T09:14:21Z</time>
      </trkpt>
      <trkpt lat="42.90946" lon="-0.40501">
        <ele>1370.4965820312</ele>
        <time>2015-06-04T09:14:52Z</time>
      </trkpt>
      <trkpt lat="42.90952" lon="-0.40504">
        <ele>1372.9001464844</ele>
        <time>2015-06-04T09:15:07Z</time>
      </trkpt>
      <trkpt lat="42.90958" lon="-0.40506">
        <ele>1375.3032226562</ele>
        <time>2015-06-04T09:15:24Z</time>
      </trkpt>
      <trkpt lat="42.90971" lon="-0.405">
        <ele>1378.66796875</ele>
        <time>2015-06-04T09:15:37Z</time>
      </trkpt>
      <trkpt lat="42.90982" lon="-0.40501">
        <ele>1382.0324707031</ele>
        <time>2015-06-04T09:15:50Z</time>
      </trkpt>
      <trkpt lat="42.90992" lon="-0.40501">
        <ele>1383.955078125</ele>
        <time>2015-06-04T09:16:07Z</time>
      </trkpt>
      <trkpt lat="42.90995" lon="-0.40507">
        <ele>1384.9165039062</ele>
        <time>2015-06-04T09:16:22Z</time>
      </trkpt>
      <trkpt lat="42.90993" lon="-0.40517">
        <ele>1386.8388671875</ele>
        <time>2015-06-04T09:16:36Z</time>
      </trkpt>
      <trkpt lat="42.90984" lon="-0.40511">
        <ele>1388.7619628906</ele>
        <time>2015-06-04T09:16:51Z</time>
      </trkpt>
      <trkpt lat="42.90982" lon="-0.40501">
        <ele>1392.1264648438</ele>
        <time>2015-06-04T09:17:03Z</time>
      </trkpt>
      <trkpt lat="42.90977" lon="-0.40494">
        <ele>1393.0876464844</ele>
        <time>2015-06-04T09:17:13Z</time>
      </trkpt>
      <trkpt lat="42.90985" lon="-0.40481">
        <ele>1396.4523925781</ele>
        <time>2015-06-04T09:17:28Z</time>
      </trkpt>
      <trkpt lat="42.90986" lon="-0.40468">
        <ele>1399.8168945312</ele>
        <time>2015-06-04T09:17:43Z</time>
      </trkpt>
      <trkpt lat="42.90985" lon="-0.40448">
        <ele>1403.1813964844</ele>
        <time>2015-06-04T09:18:08Z</time>
      </trkpt>
      <trkpt lat="42.90983" lon="-0.40439">
        <ele>1406.0654296875</ele>
        <time>2015-06-04T09:18:26Z</time>
      </trkpt>
      <trkpt lat="42.90981" lon="-0.40425">
        <ele>1409.9106445312</ele>
        <time>2015-06-04T09:18:46Z</time>
      </trkpt>
      <trkpt lat="42.9099" lon="-0.40432">
        <ele>1412.7946777344</ele>
        <time>2015-06-04T09:19:10Z</time>
      </trkpt>
      <trkpt lat="42.90996" lon="-0.40441">
        <ele>1416.1591796875</ele>
        <time>2015-06-04T09:19:30Z</time>
      </trkpt>
      <trkpt lat="42.90998" lon="-0.40451">
        <ele>1417.6010742188</ele>
        <time>2015-06-04T09:19:39Z</time>
      </trkpt>
      <trkpt lat="42.91002" lon="-0.40458">
        <ele>1420.9660644531</ele>
        <time>2015-06-04T09:19:59Z</time>
      </trkpt>
      <trkpt lat="42.91002" lon="-0.4045">
        <ele>1423.3693847656</ele>
        <time>2015-06-04T09:20:10Z</time>
      </trkpt>
      <trkpt lat="42.91003" lon="-0.40433">
        <ele>1426.2531738281</ele>
        <time>2015-06-04T09:20:31Z</time>
      </trkpt>
      <trkpt lat="42.91006" lon="-0.40422">
        <ele>1428.6564941406</ele>
        <time>2015-06-04T09:20:46Z</time>
      </trkpt>
      <trkpt lat="42.91008" lon="-0.40411">
        <ele>1432.0209960938</ele>
        <time>2015-06-04T09:21:04Z</time>
      </trkpt>
      <trkpt lat="42.91007" lon="-0.4041">
        <ele>1432.0209960938</ele>
        <time>2015-06-04T09:21:05Z</time>
      </trkpt>
      <trkpt lat="42.91012" lon="-0.40415">
        <ele>1434.4243164062</ele>
        <time>2015-06-04T09:21:25Z</time>
      </trkpt>
      <trkpt lat="42.91011" lon="-0.40417">
        <ele>1436.3471679688</ele>
        <time>2015-06-04T09:21:33Z</time>
      </trkpt>
      <trkpt lat="42.91017" lon="-0.40423">
        <ele>1438.2697753906</ele>
        <time>2015-06-04T09:21:46Z</time>
      </trkpt>
      <trkpt lat="42.91022" lon="-0.40432">
        <ele>1441.1535644531</ele>
        <time>2015-06-04T09:22:01Z</time>
      </trkpt>
      <trkpt lat="42.91026" lon="-0.40441">
        <ele>1443.5568847656</ele>
        <time>2015-06-04T09:22:15Z</time>
      </trkpt>
      <trkpt lat="42.91028" lon="-0.40453">
        <ele>1445.9602050781</ele>
        <time>2015-06-04T09:22:31Z</time>
      </trkpt>
      <trkpt lat="42.91031" lon="-0.4046">
        <ele>1449.3247070312</ele>
        <time>2015-06-04T09:22:49Z</time>
      </trkpt>
      <trkpt lat="42.91031" lon="-0.40458">
        <ele>1450.2861328125</ele>
        <time>2015-06-04T09:22:51Z</time>
      </trkpt>
      <trkpt lat="42.91036" lon="-0.40443">
        <ele>1452.2087402344</ele>
        <time>2015-06-04T09:23:16Z</time>
      </trkpt>
      <trkpt lat="42.91037" lon="-0.40439">
        <ele>1455.0927734375</ele>
        <time>2015-06-04T09:23:27Z</time>
      </trkpt>
      <trkpt lat="42.91047" lon="-0.40425">
        <ele>1458.4572753906</ele>
        <time>2015-06-04T09:23:45Z</time>
      </trkpt>
      <trkpt lat="42.91048" lon="-0.40413">
        <ele>1460.8605957031</ele>
        <time>2015-06-04T09:24:00Z</time>
      </trkpt>
      <trkpt lat="42.91056" lon="-0.40401">
        <ele>1464.2250976562</ele>
        <time>2015-06-04T09:24:17Z</time>
      </trkpt>
      <trkpt lat="42.91052" lon="-0.40398">
        <ele>1465.1865234375</ele>
        <time>2015-06-04T09:24:24Z</time>
      </trkpt>
      <trkpt lat="42.91046" lon="-0.40405">
        <ele>1467.5895996094</ele>
        <time>2015-06-04T09:24:51Z</time>
      </trkpt>
      <trkpt lat="42.91044" lon="-0.40421">
        <ele>1470.9545898438</ele>
        <time>2015-06-04T09:25:09Z</time>
      </trkpt>
      <trkpt lat="42.9105" lon="-0.40426">
        <ele>1472.8771972656</ele>
        <time>2015-06-04T09:25:26Z</time>
      </trkpt>
      <trkpt lat="42.91052" lon="-0.40412">
        <ele>1475.7609863281</ele>
        <time>2015-06-04T09:25:43Z</time>
      </trkpt>
      <trkpt lat="42.91061" lon="-0.40405">
        <ele>1479.1254882812</ele>
        <time>2015-06-04T09:26:08Z</time>
      </trkpt>
      <trkpt lat="42.91068" lon="-0.40412">
        <ele>1480.5676269531</ele>
        <time>2015-06-04T09:26:27Z</time>
      </trkpt>
      <trkpt lat="42.91069" lon="-0.40416">
        <ele>1481.5288085938</ele>
        <time>2015-06-04T09:26:33Z</time>
      </trkpt>
      <trkpt lat="42.91066" lon="-0.40426">
        <ele>1483.4514160156</ele>
        <time>2015-06-04T09:26:52Z</time>
      </trkpt>
      <trkpt lat="42.91065" lon="-0.40418">
        <ele>1487.296875</ele>
        <time>2015-06-04T09:27:14Z</time>
      </trkpt>
      <trkpt lat="42.91067" lon="-0.40402">
        <ele>1490.6613769531</ele>
        <time>2015-06-04T09:27:34Z</time>
      </trkpt>
      <trkpt lat="42.91068" lon="-0.40403">
        <ele>1491.1420898438</ele>
        <time>2015-06-04T09:27:55Z</time>
      </trkpt>
      <trkpt lat="42.9107" lon="-0.40394">
        <ele>1492.103515625</ele>
        <time>2015-06-04T09:28:41Z</time>
      </trkpt>
      <trkpt lat="42.91059" lon="-0.40403">
        <ele>1491.1420898438</ele>
        <time>2015-06-04T09:29:07Z</time>
      </trkpt>
      <trkpt lat="42.91061" lon="-0.40396">
        <ele>1491.6228027344</ele>
        <time>2015-06-04T09:29:34Z</time>
      </trkpt>
      <trkpt lat="42.91065" lon="-0.4041">
        <ele>1493.0646972656</ele>
        <time>2015-06-04T09:29:56Z</time>
      </trkpt>
      <trkpt lat="42.91066" lon="-0.40401">
        <ele>1492.5842285156</ele>
        <time>2015-06-04T09:30:33Z</time>
      </trkpt>
      <trkpt lat="42.91077" lon="-0.4039">
        <ele>1492.5842285156</ele>
        <time>2015-06-04T09:30:46Z</time>
      </trkpt>
      <trkpt lat="42.91075" lon="-0.40403">
        <ele>1493.0646972656</ele>
        <time>2015-06-04T09:31:03Z</time>
      </trkpt>
      <trkpt lat="42.91076" lon="-0.40417">
        <ele>1496.4294433594</ele>
        <time>2015-06-04T09:31:19Z</time>
      </trkpt>
      <trkpt lat="42.91073" lon="-0.40431">
        <ele>1498.8325195312</ele>
        <time>2015-06-04T09:31:32Z</time>
      </trkpt>
      <trkpt lat="42.91078" lon="-0.40437">
        <ele>1500.2749023438</ele>
        <time>2015-06-04T09:31:46Z</time>
      </trkpt>
      <trkpt lat="42.91083" lon="-0.40431">
        <ele>1503.1586914062</ele>
        <time>2015-06-04T09:31:55Z</time>
      </trkpt>
      <trkpt lat="42.9109" lon="-0.40418">
        <ele>1504.1201171875</ele>
        <time>2015-06-04T09:32:06Z</time>
      </trkpt>
      <trkpt lat="42.91092" lon="-0.40401">
        <ele>1507.4846191406</ele>
        <time>2015-06-04T09:32:29Z</time>
      </trkpt>
      <trkpt lat="42.91079" lon="-0.4041">
        <ele>1509.8876953125</ele>
        <time>2015-06-04T09:32:46Z</time>
      </trkpt>
      <trkpt lat="42.91065" lon="-0.40406">
        <ele>1512.291015625</ele>
        <time>2015-06-04T09:32:57Z</time>
      </trkpt>
      <trkpt lat="42.91058" lon="-0.40406">
        <ele>1513.2524414062</ele>
        <time>2015-06-04T09:33:11Z</time>
      </trkpt>
      <trkpt lat="42.91057" lon="-0.40385">
        <ele>1514.6943359375</ele>
        <time>2015-06-04T09:33:28Z</time>
      </trkpt>
      <trkpt lat="42.91065" lon="-0.40386">
        <ele>1516.6171875</ele>
        <time>2015-06-04T09:33:37Z</time>
      </trkpt>
      <trkpt lat="42.91075" lon="-0.40388">
        <ele>1517.0979003906</ele>
        <time>2015-06-04T09:33:52Z</time>
      </trkpt>
      <trkpt lat="42.91066" lon="-0.40374">
        <ele>1519.5012207031</ele>
        <time>2015-06-04T09:34:12Z</time>
      </trkpt>
      <trkpt lat="42.91064" lon="-0.40374">
        <ele>1520.4624023438</ele>
        <time>2015-06-04T09:34:25Z</time>
      </trkpt>
      <trkpt lat="42.91073" lon="-0.40372">
        <ele>1521.4235839844</ele>
        <time>2015-06-04T09:34:41Z</time>
      </trkpt>
      <trkpt lat="42.91085" lon="-0.40345">
        <ele>1522.8657226562</ele>
        <time>2015-06-04T09:35:11Z</time>
      </trkpt>
      <trkpt lat="42.91088" lon="-0.40324">
        <ele>1523.3464355469</ele>
        <time>2015-06-04T09:35:32Z</time>
      </trkpt>
      <trkpt lat="42.91081" lon="-0.40315">
        <ele>1522.3850097656</ele>
        <time>2015-06-04T09:35:40Z</time>
      </trkpt>
      <trkpt lat="42.9107" lon="-0.40302">
        <ele>1524.7883300781</ele>
        <time>2015-06-04T09:35:53Z</time>
      </trkpt>
      <trkpt lat="42.91072" lon="-0.40284">
        <ele>1524.3076171875</ele>
        <time>2015-06-04T09:36:09Z</time>
      </trkpt>
      <trkpt lat="42.91068" lon="-0.40273">
        <ele>1526.2302246094</ele>
        <time>2015-06-04T09:36:19Z</time>
      </trkpt>
      <trkpt lat="42.91068" lon="-0.40265">
        <ele>1528.6335449219</ele>
        <time>2015-06-04T09:36:25Z</time>
      </trkpt>
      <trkpt lat="42.91066" lon="-0.40255">
        <ele>1531.0368652344</ele>
        <time>2015-06-04T09:36:41Z</time>
      </trkpt>
      <trkpt lat="42.91064" lon="-0.40244">
        <ele>1531.0368652344</ele>
        <time>2015-06-04T09:36:53Z</time>
      </trkpt>
      <trkpt lat="42.91059" lon="-0.40233">
        <ele>1531.5173339844</ele>
        <time>2015-06-04T09:37:03Z</time>
      </trkpt>
      <trkpt lat="42.91058" lon="-0.40231">
        <ele>1531.998046875</ele>
        <time>2015-06-04T09:37:05Z</time>
      </trkpt>
      <trkpt lat="42.9105" lon="-0.40219">
        <ele>1532.9594726562</ele>
        <time>2015-06-04T09:37:18Z</time>
      </trkpt>
      <trkpt lat="42.9105" lon="-0.40218">
        <ele>1532.9594726562</ele>
        <time>2015-06-04T09:37:19Z</time>
      </trkpt>
      <trkpt lat="42.91048" lon="-0.40208">
        <ele>1532.9594726562</ele>
        <time>2015-06-04T09:37:30Z</time>
      </trkpt>
      <trkpt lat="42.91053" lon="-0.40196">
        <ele>1534.4016113281</ele>
        <time>2015-06-04T09:37:39Z</time>
      </trkpt>
      <trkpt lat="42.91055" lon="-0.40177">
        <ele>1534.4016113281</ele>
        <time>2015-06-04T09:37:50Z</time>
      </trkpt>
      <trkpt lat="42.91061" lon="-0.40171">
        <ele>1536.8046875</ele>
        <time>2015-06-04T09:38:01Z</time>
      </trkpt>
      <trkpt lat="42.9106" lon="-0.40161">
        <ele>1540.1694335938</ele>
        <time>2015-06-04T09:38:15Z</time>
      </trkpt>
      <trkpt lat="42.91072" lon="-0.40144">
        <ele>1543.5339355469</ele>
        <time>2015-06-04T09:38:31Z</time>
      </trkpt>
      <trkpt lat="42.91075" lon="-0.40133">
        <ele>1544.0146484375</ele>
        <time>2015-06-04T09:38:40Z</time>
      </trkpt>
      <trkpt lat="42.91079" lon="-0.40123">
        <ele>1547.3791503906</ele>
        <time>2015-06-04T09:39:05Z</time>
      </trkpt>
      <trkpt lat="42.91079" lon="-0.40124">
        <ele>1547.8598632812</ele>
        <time>2015-06-04T09:39:07Z</time>
      </trkpt>
      <trkpt lat="42.91078" lon="-0.40129">
        <ele>1547.8598632812</ele>
        <time>2015-06-04T09:39:25Z</time>
      </trkpt>
      <trkpt lat="42.9108" lon="-0.40137">
        <ele>1547.8598632812</ele>
        <time>2015-06-04T09:39:46Z</time>
      </trkpt>
      <trkpt lat="42.91079" lon="-0.4015">
        <ele>1547.8598632812</ele>
        <time>2015-06-04T09:40:03Z</time>
      </trkpt>
      <trkpt lat="42.91078" lon="-0.40156">
        <ele>1547.3791503906</ele>
        <time>2015-06-04T09:40:27Z</time>
      </trkpt>
      <trkpt lat="42.91077" lon="-0.40164">
        <ele>1547.3791503906</ele>
        <time>2015-06-04T09:40:45Z</time>
      </trkpt>
      <trkpt lat="42.91077" lon="-0.40165">
        <ele>1547.3791503906</ele>
        <time>2015-06-04T09:40:46Z</time>
      </trkpt>
      <trkpt lat="42.91074" lon="-0.4018">
        <ele>1548.8212890625</ele>
        <time>2015-06-04T09:40:58Z</time>
      </trkpt>
      <trkpt lat="42.91074" lon="-0.40182">
        <ele>1549.7827148438</ele>
        <time>2015-06-04T09:41:00Z</time>
      </trkpt>
      <trkpt lat="42.91076" lon="-0.40194">
        <ele>1551.224609375</ele>
        <time>2015-06-04T09:41:14Z</time>
      </trkpt>
      <trkpt lat="42.91078" lon="-0.40203">
        <ele>1552.6665039062</ele>
        <time>2015-06-04T09:41:29Z</time>
      </trkpt>
      <trkpt lat="42.91077" lon="-0.4021">
        <ele>1554.5891113281</ele>
        <time>2015-06-04T09:41:43Z</time>
      </trkpt>
      <trkpt lat="42.91076" lon="-0.40216">
        <ele>1555.5505371094</ele>
        <time>2015-06-04T09:42:06Z</time>
      </trkpt>
      <trkpt lat="42.91075" lon="-0.40232">
        <ele>1556.9924316406</ele>
        <time>2015-06-04T09:42:22Z</time>
      </trkpt>
      <trkpt lat="42.91077" lon="-0.40242">
        <ele>1557.4731445312</ele>
        <time>2015-06-04T09:42:41Z</time>
      </trkpt>
      <trkpt lat="42.91079" lon="-0.40247">
        <ele>1557.9538574219</ele>
        <time>2015-06-04T09:43:00Z</time>
      </trkpt>
      <trkpt lat="42.91082" lon="-0.40239">
        <ele>1558.9150390625</ele>
        <time>2015-06-04T09:43:17Z</time>
      </trkpt>
      <trkpt lat="42.91083" lon="-0.40241">
        <ele>1560.8376464844</ele>
        <time>2015-06-04T09:43:30Z</time>
      </trkpt>
      <trkpt lat="42.91084" lon="-0.40248">
        <ele>1563.2409667969</ele>
        <time>2015-06-04T09:43:43Z</time>
      </trkpt>
      <trkpt lat="42.91088" lon="-0.40256">
        <ele>1565.64453125</ele>
        <time>2015-06-04T09:43:59Z</time>
      </trkpt>
      <trkpt lat="42.91095" lon="-0.40256">
        <ele>1567.0864257812</ele>
        <time>2015-06-04T09:44:22Z</time>
      </trkpt>
      <trkpt lat="42.91099" lon="-0.40252">
        <ele>1569.0090332031</ele>
        <time>2015-06-04T09:44:31Z</time>
      </trkpt>
      <trkpt lat="42.91099" lon="-0.40235">
        <ele>1569.9702148438</ele>
        <time>2015-06-04T09:44:45Z</time>
      </trkpt>
      <trkpt lat="42.911" lon="-0.40222">
        <ele>1570.931640625</ele>
        <time>2015-06-04T09:45:00Z</time>
      </trkpt>
      <trkpt lat="42.91101" lon="-0.40217">
        <ele>1570.931640625</ele>
        <time>2015-06-04T09:45:03Z</time>
      </trkpt>
      <trkpt lat="42.91101" lon="-0.40207">
        <ele>1571.412109375</ele>
        <time>2015-06-04T09:45:13Z</time>
      </trkpt>
      <trkpt lat="42.91103" lon="-0.40191">
        <ele>1570.4509277344</ele>
        <time>2015-06-04T09:45:24Z</time>
      </trkpt>
      <trkpt lat="42.91105" lon="-0.40177">
        <ele>1571.412109375</ele>
        <time>2015-06-04T09:45:33Z</time>
      </trkpt>
      <trkpt lat="42.91107" lon="-0.40163">
        <ele>1570.4509277344</ele>
        <time>2015-06-04T09:45:45Z</time>
      </trkpt>
      <trkpt lat="42.91111" lon="-0.40146">
        <ele>1570.4509277344</ele>
        <time>2015-06-04T09:45:57Z</time>
      </trkpt>
      <trkpt lat="42.91116" lon="-0.40126">
        <ele>1571.8928222656</ele>
        <time>2015-06-04T09:46:12Z</time>
      </trkpt>
      <trkpt lat="42.91123" lon="-0.4011">
        <ele>1572.8542480469</ele>
        <time>2015-06-04T09:46:28Z</time>
      </trkpt>
      <trkpt lat="42.91126" lon="-0.40094">
        <ele>1573.8154296875</ele>
        <time>2015-06-04T09:46:41Z</time>
      </trkpt>
      <trkpt lat="42.91126" lon="-0.40079">
        <ele>1575.2573242188</ele>
        <time>2015-06-04T09:46:52Z</time>
      </trkpt>
      <trkpt lat="42.91129" lon="-0.40067">
        <ele>1575.7380371094</ele>
        <time>2015-06-04T09:47:02Z</time>
      </trkpt>
      <trkpt lat="42.91131" lon="-0.40052">
        <ele>1576.21875</ele>
        <time>2015-06-04T09:47:14Z</time>
      </trkpt>
      <trkpt lat="42.91134" lon="-0.4004">
        <ele>1578.1413574219</ele>
        <time>2015-06-04T09:47:27Z</time>
      </trkpt>
      <trkpt lat="42.91138" lon="-0.40023">
        <ele>1579.5832519531</ele>
        <time>2015-06-04T09:47:42Z</time>
      </trkpt>
      <trkpt lat="42.91142" lon="-0.40005">
        <ele>1579.5832519531</ele>
        <time>2015-06-04T09:47:58Z</time>
      </trkpt>
      <trkpt lat="42.91143" lon="-0.39988">
        <ele>1580.544921875</ele>
        <time>2015-06-04T09:48:12Z</time>
      </trkpt>
      <trkpt lat="42.91146" lon="-0.39979">
        <ele>1581.5061035156</ele>
        <time>2015-06-04T09:48:26Z</time>
      </trkpt>
      <trkpt lat="42.91147" lon="-0.39965">
        <ele>1583.4287109375</ele>
        <time>2015-06-04T09:48:39Z</time>
      </trkpt>
      <trkpt lat="42.91152" lon="-0.39949">
        <ele>1583.9094238281</ele>
        <time>2015-06-04T09:48:53Z</time>
      </trkpt>
      <trkpt lat="42.91152" lon="-0.39933">
        <ele>1585.3513183594</ele>
        <time>2015-06-04T09:49:06Z</time>
      </trkpt>
      <trkpt lat="42.91145" lon="-0.3992">
        <ele>1584.8708496094</ele>
        <time>2015-06-04T09:49:18Z</time>
      </trkpt>
      <trkpt lat="42.91143" lon="-0.39915">
        <ele>1586.7932128906</ele>
        <time>2015-06-04T09:49:22Z</time>
      </trkpt>
      <trkpt lat="42.91141" lon="-0.39892">
        <ele>1586.3127441406</ele>
        <time>2015-06-04T09:49:39Z</time>
      </trkpt>
      <trkpt lat="42.9114" lon="-0.39891">
        <ele>1586.7932128906</ele>
        <time>2015-06-04T09:49:40Z</time>
      </trkpt>
      <trkpt lat="42.91136" lon="-0.39871">
        <ele>1587.7546386719</ele>
        <time>2015-06-04T09:49:55Z</time>
      </trkpt>
      <trkpt lat="42.91135" lon="-0.39847">
        <ele>1587.7546386719</ele>
        <time>2015-06-04T09:50:10Z</time>
      </trkpt>
      <trkpt lat="42.91136" lon="-0.39839">
        <ele>1587.7546386719</ele>
        <time>2015-06-04T09:50:15Z</time>
      </trkpt>
      <trkpt lat="42.91135" lon="-0.39835">
        <ele>1587.7546386719</ele>
        <time>2015-06-04T09:50:18Z</time>
      </trkpt>
      <trkpt lat="42.91137" lon="-0.39822">
        <ele>1588.7160644531</ele>
        <time>2015-06-04T09:50:27Z</time>
      </trkpt>
      <trkpt lat="42.91136" lon="-0.39812">
        <ele>1588.7160644531</ele>
        <time>2015-06-04T09:50:33Z</time>
      </trkpt>
      <trkpt lat="42.9113" lon="-0.39792">
        <ele>1590.6384277344</ele>
        <time>2015-06-04T09:50:50Z</time>
      </trkpt>
      <trkpt lat="42.91126" lon="-0.39773">
        <ele>1591.5998535156</ele>
        <time>2015-06-04T09:51:06Z</time>
      </trkpt>
      <trkpt lat="42.91124" lon="-0.39764">
        <ele>1594.4836425781</ele>
        <time>2015-06-04T09:51:18Z</time>
      </trkpt>
      <trkpt lat="42.91123" lon="-0.39751">
        <ele>1596.8872070312</ele>
        <time>2015-06-04T09:51:32Z</time>
      </trkpt>
      <trkpt lat="42.91119" lon="-0.39736">
        <ele>1599.7712402344</ele>
        <time>2015-06-04T09:51:45Z</time>
      </trkpt>
      <trkpt lat="42.91115" lon="-0.39714">
        <ele>1598.3291015625</ele>
        <time>2015-06-04T09:52:04Z</time>
      </trkpt>
      <trkpt lat="42.91115" lon="-0.39709">
        <ele>1598.8098144531</ele>
        <time>2015-06-04T09:52:08Z</time>
      </trkpt>
      <trkpt lat="42.91115" lon="-0.39685">
        <ele>1602.1743164062</ele>
        <time>2015-06-04T09:52:24Z</time>
      </trkpt>
      <trkpt lat="42.91119" lon="-0.3966">
        <ele>1603.1357421875</ele>
        <time>2015-06-04T09:52:42Z</time>
      </trkpt>
      <trkpt lat="42.9112" lon="-0.39641">
        <ele>1602.1743164062</ele>
        <time>2015-06-04T09:52:57Z</time>
      </trkpt>
      <trkpt lat="42.91121" lon="-0.39629">
        <ele>1603.6164550781</ele>
        <time>2015-06-04T09:53:05Z</time>
      </trkpt>
      <trkpt lat="42.91122" lon="-0.39609">
        <ele>1604.5776367188</ele>
        <time>2015-06-04T09:53:23Z</time>
      </trkpt>
      <trkpt lat="42.91121" lon="-0.39608">
        <ele>1605.0583496094</ele>
        <time>2015-06-04T09:53:45Z</time>
      </trkpt>
      <trkpt lat="42.91122" lon="-0.39595">
        <ele>1605.5390625</ele>
        <time>2015-06-04T09:54:06Z</time>
      </trkpt>
      <trkpt lat="42.91118" lon="-0.39578">
        <ele>1607.9423828125</ele>
        <time>2015-06-04T09:54:19Z</time>
      </trkpt>
      <trkpt lat="42.91113" lon="-0.39553">
        <ele>1608.4228515625</ele>
        <time>2015-06-04T09:54:36Z</time>
      </trkpt>
      <trkpt lat="42.91112" lon="-0.39536">
        <ele>1608.4228515625</ele>
        <time>2015-06-04T09:54:47Z</time>
      </trkpt>
      <trkpt lat="42.91113" lon="-0.39528">
        <ele>1608.9035644531</ele>
        <time>2015-06-04T09:54:53Z</time>
      </trkpt>
      <trkpt lat="42.9111" lon="-0.39504">
        <ele>1610.3454589844</ele>
        <time>2015-06-04T09:55:10Z</time>
      </trkpt>
      <trkpt lat="42.91108" lon="-0.39485">
        <ele>1611.7875976562</ele>
        <time>2015-06-04T09:55:26Z</time>
      </trkpt>
      <trkpt lat="42.91107" lon="-0.39477">
        <ele>1612.2683105469</ele>
        <time>2015-06-04T09:55:34Z</time>
      </trkpt>
      <trkpt lat="42.911" lon="-0.39449">
        <ele>1614.1909179688</ele>
        <time>2015-06-04T09:55:55Z</time>
      </trkpt>
      <trkpt lat="42.91096" lon="-0.39424">
        <ele>1616.5942382812</ele>
        <time>2015-06-04T09:56:14Z</time>
      </trkpt>
      <trkpt lat="42.91095" lon="-0.39395">
        <ele>1616.1135253906</ele>
        <time>2015-06-04T09:56:34Z</time>
      </trkpt>
      <trkpt lat="42.91096" lon="-0.39382">
        <ele>1616.5942382812</ele>
        <time>2015-06-04T09:56:50Z</time>
      </trkpt>
      <trkpt lat="42.91097" lon="-0.39353">
        <ele>1616.1135253906</ele>
        <time>2015-06-04T09:57:09Z</time>
      </trkpt>
      <trkpt lat="42.91097" lon="-0.39327">
        <ele>1616.1135253906</ele>
        <time>2015-06-04T09:57:26Z</time>
      </trkpt>
      <trkpt lat="42.91097" lon="-0.39311">
        <ele>1616.1135253906</ele>
        <time>2015-06-04T09:57:44Z</time>
      </trkpt>
      <trkpt lat="42.911" lon="-0.39291">
        <ele>1617.0749511719</ele>
        <time>2015-06-04T09:57:59Z</time>
      </trkpt>
      <trkpt lat="42.91107" lon="-0.39274">
        <ele>1617.0749511719</ele>
        <time>2015-06-04T09:58:16Z</time>
      </trkpt>
      <trkpt lat="42.91112" lon="-0.39269">
        <ele>1616.5942382812</ele>
        <time>2015-06-04T09:58:33Z</time>
      </trkpt>
      <trkpt lat="42.91113" lon="-0.39269">
        <ele>1617.0749511719</ele>
        <time>2015-06-04T09:58:35Z</time>
      </trkpt>
      <trkpt lat="42.91119" lon="-0.3927">
        <ele>1617.0749511719</ele>
        <time>2015-06-04T09:58:52Z</time>
      </trkpt>
      <trkpt lat="42.91124" lon="-0.39278">
        <ele>1616.1135253906</ele>
        <time>2015-06-04T09:59:08Z</time>
      </trkpt>
      <trkpt lat="42.91124" lon="-0.39278">
        <ele>1616.1135253906</ele>
        <time>2015-06-04T09:59:30Z</time>
      </trkpt>
      <trkpt lat="42.91128" lon="-0.39277">
        <ele>1616.5942382812</ele>
        <time>2015-06-04T09:59:43Z</time>
      </trkpt>
      <trkpt lat="42.91133" lon="-0.39285">
        <ele>1616.1135253906</ele>
        <time>2015-06-04T10:00:04Z</time>
      </trkpt>
      <trkpt lat="42.91136" lon="-0.39287">
        <ele>1617.0749511719</ele>
        <time>2015-06-04T10:00:27Z</time>
      </trkpt>
      <trkpt lat="42.91146" lon="-0.39292">
        <ele>1616.5942382812</ele>
        <time>2015-06-04T10:00:44Z</time>
      </trkpt>
      <trkpt lat="42.91149" lon="-0.39294">
        <ele>1616.5942382812</ele>
        <time>2015-06-04T10:00:54Z</time>
      </trkpt>
      <trkpt lat="42.91153" lon="-0.39301">
        <ele>1617.0749511719</ele>
        <time>2015-06-04T10:01:13Z</time>
      </trkpt>
      <trkpt lat="42.91159" lon="-0.39306">
        <ele>1616.5942382812</ele>
        <time>2015-06-04T10:01:47Z</time>
      </trkpt>
      <trkpt lat="42.91165" lon="-0.39319">
        <ele>1617.0749511719</ele>
        <time>2015-06-04T10:02:04Z</time>
      </trkpt>
      <trkpt lat="42.91168" lon="-0.39325">
        <ele>1616.1135253906</ele>
        <time>2015-06-04T10:02:18Z</time>
      </trkpt>
      <trkpt lat="42.91177" lon="-0.39333">
        <ele>1616.5942382812</ele>
        <time>2015-06-04T10:02:30Z</time>
      </trkpt>
      <trkpt lat="42.91185" lon="-0.39313">
        <ele>1616.1135253906</ele>
        <time>2015-06-04T10:02:49Z</time>
      </trkpt>
      <trkpt lat="42.91193" lon="-0.39314">
        <ele>1616.5942382812</ele>
        <time>2015-06-04T10:03:07Z</time>
      </trkpt>
      <trkpt lat="42.91192" lon="-0.39313">
        <ele>1616.5942382812</ele>
        <time>2015-06-04T10:03:23Z</time>
      </trkpt>
      <trkpt lat="42.9119" lon="-0.39313">
        <ele>1615.6330566406</ele>
        <time>2015-06-04T10:03:36Z</time>
      </trkpt>
      <trkpt lat="42.91187" lon="-0.39308">
        <ele>1616.5942382812</ele>
        <time>2015-06-04T10:03:41Z</time>
      </trkpt>
      <trkpt lat="42.91188" lon="-0.39301">
        <ele>1615.15234375</ele>
        <time>2015-06-04T10:03:45Z</time>
      </trkpt>
      <trkpt lat="42.9119" lon="-0.39282">
        <ele>1615.15234375</ele>
        <time>2015-06-04T10:04:03Z</time>
      </trkpt>
      <trkpt lat="42.91189" lon="-0.39272">
        <ele>1615.15234375</ele>
        <time>2015-06-04T10:04:18Z</time>
      </trkpt>
      <trkpt lat="42.91186" lon="-0.39246">
        <ele>1614.1909179688</ele>
        <time>2015-06-04T10:04:34Z</time>
      </trkpt>
      <trkpt lat="42.91173" lon="-0.39226">
        <ele>1614.1909179688</ele>
        <time>2015-06-04T10:04:51Z</time>
      </trkpt>
      <trkpt lat="42.91169" lon="-0.39223">
        <ele>1613.7102050781</ele>
        <time>2015-06-04T10:04:55Z</time>
      </trkpt>
      <trkpt lat="42.91165" lon="-0.39193">
        <ele>1613.2297363281</ele>
        <time>2015-06-04T10:05:16Z</time>
      </trkpt>
      <trkpt lat="42.91158" lon="-0.39164">
        <ele>1612.2683105469</ele>
        <time>2015-06-04T10:05:35Z</time>
      </trkpt>
      <trkpt lat="42.91157" lon="-0.39162">
        <ele>1612.2683105469</ele>
        <time>2015-06-04T10:05:37Z</time>
      </trkpt>
      <trkpt lat="42.91157" lon="-0.3914">
        <ele>1610.3454589844</ele>
        <time>2015-06-04T10:05:53Z</time>
      </trkpt>
      <trkpt lat="42.91158" lon="-0.3913">
        <ele>1609.3842773438</ele>
        <time>2015-06-04T10:06:00Z</time>
      </trkpt>
      <trkpt lat="42.9116" lon="-0.39119">
        <ele>1609.3842773438</ele>
        <time>2015-06-04T10:06:09Z</time>
      </trkpt>
      <trkpt lat="42.91163" lon="-0.3911">
        <ele>1609.8647460938</ele>
        <time>2015-06-04T10:06:23Z</time>
      </trkpt>
      <trkpt lat="42.91167" lon="-0.39096">
        <ele>1608.4228515625</ele>
        <time>2015-06-04T10:06:43Z</time>
      </trkpt>
      <trkpt lat="42.9117" lon="-0.39078">
        <ele>1607.9423828125</ele>
        <time>2015-06-04T10:06:59Z</time>
      </trkpt>
      <trkpt lat="42.91171" lon="-0.3907">
        <ele>1606.9809570312</ele>
        <time>2015-06-04T10:07:05Z</time>
      </trkpt>
      <trkpt lat="42.91172" lon="-0.39065">
        <ele>1607.9423828125</ele>
        <time>2015-06-04T10:07:11Z</time>
      </trkpt>
      <trkpt lat="42.91178" lon="-0.3905">
        <ele>1606.9809570312</ele>
        <time>2015-06-04T10:07:25Z</time>
      </trkpt>
      <trkpt lat="42.91185" lon="-0.3903">
        <ele>1606.01953125</ele>
        <time>2015-06-04T10:07:40Z</time>
      </trkpt>
      <trkpt lat="42.91191" lon="-0.39006">
        <ele>1605.0583496094</ele>
        <time>2015-06-04T10:07:57Z</time>
      </trkpt>
      <trkpt lat="42.91196" lon="-0.38996">
        <ele>1604.5776367188</ele>
        <time>2015-06-04T10:08:16Z</time>
      </trkpt>
      <trkpt lat="42.91197" lon="-0.38991">
        <ele>1605.0583496094</ele>
        <time>2015-06-04T10:08:22Z</time>
      </trkpt>
      <trkpt lat="42.91202" lon="-0.38973">
        <ele>1604.0971679688</ele>
        <time>2015-06-04T10:08:38Z</time>
      </trkpt>
      <trkpt lat="42.91206" lon="-0.38958">
        <ele>1603.6164550781</ele>
        <time>2015-06-04T10:08:54Z</time>
      </trkpt>
      <trkpt lat="42.9121" lon="-0.38947">
        <ele>1602.6550292969</ele>
        <time>2015-06-04T10:09:11Z</time>
      </trkpt>
      <trkpt lat="42.91216" lon="-0.38926">
        <ele>1602.6550292969</ele>
        <time>2015-06-04T10:09:28Z</time>
      </trkpt>
      <trkpt lat="42.91221" lon="-0.38911">
        <ele>1602.1743164062</ele>
        <time>2015-06-04T10:09:41Z</time>
      </trkpt>
      <trkpt lat="42.91227" lon="-0.38893">
        <ele>1601.6938476562</ele>
        <time>2015-06-04T10:09:56Z</time>
      </trkpt>
      <trkpt lat="42.91237" lon="-0.38869">
        <ele>1601.2131347656</ele>
        <time>2015-06-04T10:10:14Z</time>
      </trkpt>
      <trkpt lat="42.91247" lon="-0.38849">
        <ele>1600.251953125</ele>
        <time>2015-06-04T10:10:33Z</time>
      </trkpt>
      <trkpt lat="42.91253" lon="-0.38832">
        <ele>1599.7712402344</ele>
        <time>2015-06-04T10:10:50Z</time>
      </trkpt>
      <trkpt lat="42.91255" lon="-0.38806">
        <ele>1599.2905273438</ele>
        <time>2015-06-04T10:11:09Z</time>
      </trkpt>
      <trkpt lat="42.9126" lon="-0.38788">
        <ele>1597.8486328125</ele>
        <time>2015-06-04T10:11:27Z</time>
      </trkpt>
      <trkpt lat="42.91261" lon="-0.38779">
        <ele>1597.3679199219</ele>
        <time>2015-06-04T10:11:43Z</time>
      </trkpt>
      <trkpt lat="42.91263" lon="-0.38764">
        <ele>1596.8872070312</ele>
        <time>2015-06-04T10:11:54Z</time>
      </trkpt>
      <trkpt lat="42.91271" lon="-0.38731">
        <ele>1596.4067382812</ele>
        <time>2015-06-04T10:12:14Z</time>
      </trkpt>
      <trkpt lat="42.91278" lon="-0.38709">
        <ele>1597.8486328125</ele>
        <time>2015-06-04T10:12:29Z</time>
      </trkpt>
      <trkpt lat="42.91285" lon="-0.38695">
        <ele>1598.8098144531</ele>
        <time>2015-06-04T10:12:40Z</time>
      </trkpt>
      <trkpt lat="42.91296" lon="-0.38669">
        <ele>1601.2131347656</ele>
        <time>2015-06-04T10:12:59Z</time>
      </trkpt>
      <trkpt lat="42.913" lon="-0.38652">
        <ele>1602.1743164062</ele>
        <time>2015-06-04T10:13:12Z</time>
      </trkpt>
      <trkpt lat="42.91299" lon="-0.38629">
        <ele>1603.6164550781</ele>
        <time>2015-06-04T10:13:27Z</time>
      </trkpt>
      <trkpt lat="42.91299" lon="-0.38622">
        <ele>1603.6164550781</ele>
        <time>2015-06-04T10:13:36Z</time>
      </trkpt>
      <trkpt lat="42.91305" lon="-0.38603">
        <ele>1605.0583496094</ele>
        <time>2015-06-04T10:13:48Z</time>
      </trkpt>
      <trkpt lat="42.91313" lon="-0.38592">
        <ele>1606.01953125</ele>
        <time>2015-06-04T10:13:54Z</time>
      </trkpt>
      <trkpt lat="42.91309" lon="-0.38581">
        <ele>1607.4616699219</ele>
        <time>2015-06-04T10:14:07Z</time>
      </trkpt>
      <trkpt lat="42.91301" lon="-0.38565">
        <ele>1608.9035644531</ele>
        <time>2015-06-04T10:14:24Z</time>
      </trkpt>
      <trkpt lat="42.91299" lon="-0.38547">
        <ele>1611.3068847656</ele>
        <time>2015-06-04T10:14:41Z</time>
      </trkpt>
      <trkpt lat="42.91301" lon="-0.3853">
        <ele>1613.7102050781</ele>
        <time>2015-06-04T10:14:57Z</time>
      </trkpt>
      <trkpt lat="42.91302" lon="-0.38514">
        <ele>1617.0749511719</ele>
        <time>2015-06-04T10:15:09Z</time>
      </trkpt>
      <trkpt lat="42.91305" lon="-0.38489">
        <ele>1617.0749511719</ele>
        <time>2015-06-04T10:15:29Z</time>
      </trkpt>
      <trkpt lat="42.91305" lon="-0.38488">
        <ele>1617.0749511719</ele>
        <time>2015-06-04T10:15:30Z</time>
      </trkpt>
      <trkpt lat="42.91307" lon="-0.3846">
        <ele>1618.5168457031</ele>
        <time>2015-06-04T10:15:51Z</time>
      </trkpt>
      <trkpt lat="42.91309" lon="-0.38444">
        <ele>1620.9201660156</ele>
        <time>2015-06-04T10:16:06Z</time>
      </trkpt>
      <trkpt lat="42.91314" lon="-0.38427">
        <ele>1622.3620605469</ele>
        <time>2015-06-04T10:16:21Z</time>
      </trkpt>
      <trkpt lat="42.91322" lon="-0.38417">
        <ele>1622.8427734375</ele>
        <time>2015-06-04T10:16:36Z</time>
      </trkpt>
      <trkpt lat="42.91326" lon="-0.38405">
        <ele>1624.7653808594</ele>
        <time>2015-06-04T10:16:50Z</time>
      </trkpt>
      <trkpt lat="42.9133" lon="-0.38395">
        <ele>1624.2846679688</ele>
        <time>2015-06-04T10:17:08Z</time>
      </trkpt>
      <trkpt lat="42.91333" lon="-0.38388">
        <ele>1624.7653808594</ele>
        <time>2015-06-04T10:17:24Z</time>
      </trkpt>
      <trkpt lat="42.91338" lon="-0.38364">
        <ele>1623.8039550781</ele>
        <time>2015-06-04T10:17:41Z</time>
      </trkpt>
      <trkpt lat="42.91339" lon="-0.38351">
        <ele>1623.8039550781</ele>
        <time>2015-06-04T10:17:52Z</time>
      </trkpt>
      <trkpt lat="42.91338" lon="-0.3835">
        <ele>1623.8039550781</ele>
        <time>2015-06-04T10:17:53Z</time>
      </trkpt>
      <trkpt lat="42.91335" lon="-0.38328">
        <ele>1625.7265625</ele>
        <time>2015-06-04T10:18:10Z</time>
      </trkpt>
      <trkpt lat="42.91336" lon="-0.38313">
        <ele>1627.6491699219</ele>
        <time>2015-06-04T10:18:28Z</time>
      </trkpt>
      <trkpt lat="42.91335" lon="-0.38302">
        <ele>1630.5334472656</ele>
        <time>2015-06-04T10:18:37Z</time>
      </trkpt>
      <trkpt lat="42.91335" lon="-0.38292">
        <ele>1631.4946289062</ele>
        <time>2015-06-04T10:18:46Z</time>
      </trkpt>
      <trkpt lat="42.91329" lon="-0.38282">
        <ele>1634.3786621094</ele>
        <time>2015-06-04T10:18:59Z</time>
      </trkpt>
      <trkpt lat="42.91325" lon="-0.38271">
        <ele>1637.2624511719</ele>
        <time>2015-06-04T10:19:12Z</time>
      </trkpt>
      <trkpt lat="42.91328" lon="-0.3826">
        <ele>1639.6657714844</ele>
        <time>2015-06-04T10:19:29Z</time>
      </trkpt>
      <trkpt lat="42.91329" lon="-0.3825">
        <ele>1640.146484375</ele>
        <time>2015-06-04T10:19:43Z</time>
      </trkpt>
      <trkpt lat="42.9133" lon="-0.38234">
        <ele>1643.0302734375</ele>
        <time>2015-06-04T10:20:00Z</time>
      </trkpt>
      <trkpt lat="42.9133" lon="-0.38219">
        <ele>1645.4338378906</ele>
        <time>2015-06-04T10:20:18Z</time>
      </trkpt>
      <trkpt lat="42.91332" lon="-0.38197">
        <ele>1648.3176269531</ele>
        <time>2015-06-04T10:20:36Z</time>
      </trkpt>
      <trkpt lat="42.91332" lon="-0.38196">
        <ele>1648.3176269531</ele>
        <time>2015-06-04T10:20:37Z</time>
      </trkpt>
      <trkpt lat="42.91336" lon="-0.38184">
        <ele>1648.3176269531</ele>
        <time>2015-06-04T10:20:47Z</time>
      </trkpt>
      <trkpt lat="42.91349" lon="-0.38166">
        <ele>1650.7209472656</ele>
        <time>2015-06-04T10:21:06Z</time>
      </trkpt>
      <trkpt lat="42.91352" lon="-0.38163">
        <ele>1649.2790527344</ele>
        <time>2015-06-04T10:21:19Z</time>
      </trkpt>
      <trkpt lat="42.91351" lon="-0.38161">
        <ele>1651.2016601562</ele>
        <time>2015-06-04T10:21:41Z</time>
      </trkpt>
      <trkpt lat="42.91351" lon="-0.38148">
        <ele>1651.6823730469</ele>
        <time>2015-06-04T10:21:55Z</time>
      </trkpt>
      <trkpt lat="42.91355" lon="-0.38135">
        <ele>1653.1242675781</ele>
        <time>2015-06-04T10:22:08Z</time>
      </trkpt>
      <trkpt lat="42.91363" lon="-0.3812">
        <ele>1654.0856933594</ele>
        <time>2015-06-04T10:22:23Z</time>
      </trkpt>
      <trkpt lat="42.91365" lon="-0.38114">
        <ele>1655.046875</ele>
        <time>2015-06-04T10:22:36Z</time>
      </trkpt>
      <trkpt lat="42.91367" lon="-0.38109">
        <ele>1651.2016601562</ele>
        <time>2015-06-04T10:23:10Z</time>
      </trkpt>
      <trkpt lat="42.91366" lon="-0.38109">
        <ele>1653.6049804688</ele>
        <time>2015-06-04T10:23:11Z</time>
      </trkpt>
      <trkpt lat="42.91361" lon="-0.38102">
        <ele>1655.5275878906</ele>
        <time>2015-06-04T10:23:44Z</time>
      </trkpt>
      <trkpt lat="42.91357" lon="-0.38096">
        <ele>1656.0080566406</ele>
        <time>2015-06-04T10:23:58Z</time>
      </trkpt>
      <trkpt lat="42.91358" lon="-0.38083">
        <ele>1656.4887695312</ele>
        <time>2015-06-04T10:24:12Z</time>
      </trkpt>
      <trkpt lat="42.91355" lon="-0.3807">
        <ele>1657.9309082031</ele>
        <time>2015-06-04T10:24:25Z</time>
      </trkpt>
      <trkpt lat="42.91353" lon="-0.38061">
        <ele>1657.9309082031</ele>
        <time>2015-06-04T10:24:37Z</time>
      </trkpt>
      <trkpt lat="42.91353" lon="-0.38058">
        <ele>1658.4113769531</ele>
        <time>2015-06-04T10:24:48Z</time>
      </trkpt>
      <trkpt lat="42.91348" lon="-0.38039">
        <ele>1658.4113769531</ele>
        <time>2015-06-04T10:25:05Z</time>
      </trkpt>
      <trkpt lat="42.91348" lon="-0.38036">
        <ele>1658.8920898438</ele>
        <time>2015-06-04T10:25:07Z</time>
      </trkpt>
      <trkpt lat="42.91338" lon="-0.38015">
        <ele>1660.3342285156</ele>
        <time>2015-06-04T10:25:24Z</time>
      </trkpt>
      <trkpt lat="42.91329" lon="-0.37998">
        <ele>1662.7375488281</ele>
        <time>2015-06-04T10:25:39Z</time>
      </trkpt>
      <trkpt lat="42.91316" lon="-0.37974">
        <ele>1665.1408691406</ele>
        <time>2015-06-04T10:25:59Z</time>
      </trkpt>
      <trkpt lat="42.91311" lon="-0.3796">
        <ele>1665.1408691406</ele>
        <time>2015-06-04T10:26:13Z</time>
      </trkpt>
      <trkpt lat="42.9131" lon="-0.37957">
        <ele>1664.66015625</ele>
        <time>2015-06-04T10:26:16Z</time>
      </trkpt>
      <trkpt lat="42.91307" lon="-0.37949">
        <ele>1665.6215820312</ele>
        <time>2015-06-04T10:26:23Z</time>
      </trkpt>
      <trkpt lat="42.91308" lon="-0.37927">
        <ele>1665.1408691406</ele>
        <time>2015-06-04T10:26:44Z</time>
      </trkpt>
      <trkpt lat="42.91308" lon="-0.37926">
        <ele>1664.66015625</ele>
        <time>2015-06-04T10:27:02Z</time>
      </trkpt>
      <trkpt lat="42.91308" lon="-0.37922">
        <ele>1662.7375488281</ele>
        <time>2015-06-04T10:27:19Z</time>
      </trkpt>
      <trkpt lat="42.91309" lon="-0.37916">
        <ele>1661.2956542969</ele>
        <time>2015-06-04T10:27:33Z</time>
      </trkpt>
      <trkpt lat="42.91312" lon="-0.37905">
        <ele>1659.8532714844</ele>
        <time>2015-06-04T10:27:50Z</time>
      </trkpt>
      <trkpt lat="42.91312" lon="-0.37905">
        <ele>1659.8532714844</ele>
        <time>2015-06-04T10:28:22Z</time>
      </trkpt>
      <trkpt lat="42.91313" lon="-0.37899">
        <ele>1659.8532714844</ele>
        <time>2015-06-04T10:28:36Z</time>
      </trkpt>
      <trkpt lat="42.91315" lon="-0.379">
        <ele>1659.3728027344</ele>
        <time>2015-06-04T10:29:15Z</time>
      </trkpt>
      <trkpt lat="42.91312" lon="-0.37898">
        <ele>1658.8920898438</ele>
        <time>2015-06-04T10:29:32Z</time>
      </trkpt>
      <trkpt lat="42.91313" lon="-0.379">
        <ele>1659.3728027344</ele>
        <time>2015-06-04T10:30:25Z</time>
      </trkpt>
      <trkpt lat="42.91312" lon="-0.37899">
        <ele>1658.8920898438</ele>
        <time>2015-06-04T10:30:59Z</time>
      </trkpt>
      <trkpt lat="42.91314" lon="-0.37898">
        <ele>1658.4113769531</ele>
        <time>2015-06-04T10:31:58Z</time>
      </trkpt>
      <trkpt lat="42.91312" lon="-0.37897">
        <ele>1658.4113769531</ele>
        <time>2015-06-04T10:34:03Z</time>
      </trkpt>
      <trkpt lat="42.91311" lon="-0.37897">
        <ele>1658.4113769531</ele>
        <time>2015-06-04T10:40:45Z</time>
      </trkpt>
      <trkpt lat="42.91311" lon="-0.37897">
        <ele>1658.4113769531</ele>
        <time>2015-06-04T10:41:03Z</time>
      </trkpt>
      <trkpt lat="42.91312" lon="-0.37899">
        <ele>1657.4501953125</ele>
        <time>2015-06-04T10:53:06Z</time>
      </trkpt>
      <trkpt lat="42.91305" lon="-0.379">
        <ele>1658.8920898438</ele>
        <time>2015-06-04T10:58:57Z</time>
      </trkpt>
      <trkpt lat="42.91312" lon="-0.37901">
        <ele>1662.2568359375</ele>
        <time>2015-06-04T11:01:04Z</time>
      </trkpt>
      <trkpt lat="42.91311" lon="-0.37902">
        <ele>1662.2568359375</ele>
        <time>2015-06-04T11:02:31Z</time>
      </trkpt>
      <trkpt lat="42.91311" lon="-0.37901">
        <ele>1662.2568359375</ele>
        <time>2015-06-04T11:03:26Z</time>
      </trkpt>
      <trkpt lat="42.91305" lon="-0.37902">
        <ele>1661.7763671875</ele>
        <time>2015-06-04T11:04:02Z</time>
      </trkpt>
      <trkpt lat="42.91303" lon="-0.37897">
        <ele>1661.7763671875</ele>
        <time>2015-06-04T11:04:17Z</time>
      </trkpt>
      <trkpt lat="42.91299" lon="-0.37885">
        <ele>1660.3342285156</ele>
        <time>2015-06-04T11:04:39Z</time>
      </trkpt>
      <trkpt lat="42.91302" lon="-0.37891">
        <ele>1659.8532714844</ele>
        <time>2015-06-04T11:05:11Z</time>
      </trkpt>
      <trkpt lat="42.91298" lon="-0.37877">
        <ele>1658.4113769531</ele>
        <time>2015-06-04T11:05:30Z</time>
      </trkpt>
      <trkpt lat="42.9129" lon="-0.37868">
        <ele>1655.046875</ele>
        <time>2015-06-04T11:05:45Z</time>
      </trkpt>
      <trkpt lat="42.91282" lon="-0.37858">
        <ele>1652.6435546875</ele>
        <time>2015-06-04T11:06:02Z</time>
      </trkpt>
      <trkpt lat="42.91278" lon="-0.37855">
        <ele>1649.2790527344</ele>
        <time>2015-06-04T11:06:18Z</time>
      </trkpt>
      <trkpt lat="42.91277" lon="-0.37855">
        <ele>1649.759765625</ele>
        <time>2015-06-04T11:06:19Z</time>
      </trkpt>
      <trkpt lat="42.91276" lon="-0.37853">
        <ele>1648.7983398438</ele>
        <time>2015-06-04T11:06:24Z</time>
      </trkpt>
      <trkpt lat="42.91272" lon="-0.37837">
        <ele>1647.8371582031</ele>
        <time>2015-06-04T11:06:41Z</time>
      </trkpt>
      <trkpt lat="42.91271" lon="-0.37822">
        <ele>1646.3952636719</ele>
        <time>2015-06-04T11:06:59Z</time>
      </trkpt>
      <trkpt lat="42.91266" lon="-0.37816">
        <ele>1644.953125</ele>
        <time>2015-06-04T11:07:08Z</time>
      </trkpt>
      <trkpt lat="42.91261" lon="-0.37809">
        <ele>1643.0302734375</ele>
        <time>2015-06-04T11:07:21Z</time>
      </trkpt>
      <trkpt lat="42.91253" lon="-0.37801">
        <ele>1642.0690917969</ele>
        <time>2015-06-04T11:07:36Z</time>
      </trkpt>
      <trkpt lat="42.9125" lon="-0.37794">
        <ele>1641.1076660156</ele>
        <time>2015-06-04T11:07:44Z</time>
      </trkpt>
      <trkpt lat="42.91243" lon="-0.37781">
        <ele>1641.5883789062</ele>
        <time>2015-06-04T11:07:59Z</time>
      </trkpt>
      <trkpt lat="42.91238" lon="-0.37773">
        <ele>1641.1076660156</ele>
        <time>2015-06-04T11:08:16Z</time>
      </trkpt>
      <trkpt lat="42.91232" lon="-0.37771">
        <ele>1638.7045898438</ele>
        <time>2015-06-04T11:08:30Z</time>
      </trkpt>
      <trkpt lat="42.91226" lon="-0.37764">
        <ele>1636.7817382812</ele>
        <time>2015-06-04T11:08:46Z</time>
      </trkpt>
      <trkpt lat="42.9122" lon="-0.37759">
        <ele>1636.3012695312</ele>
        <time>2015-06-04T11:09:06Z</time>
      </trkpt>
      <trkpt lat="42.91219" lon="-0.37757">
        <ele>1635.8205566406</ele>
        <time>2015-06-04T11:09:08Z</time>
      </trkpt>
      <trkpt lat="42.91217" lon="-0.37746">
        <ele>1634.859375</ele>
        <time>2015-06-04T11:09:20Z</time>
      </trkpt>
      <trkpt lat="42.91215" lon="-0.37737">
        <ele>1632.9365234375</ele>
        <time>2015-06-04T11:09:33Z</time>
      </trkpt>
      <trkpt lat="42.91212" lon="-0.37729">
        <ele>1631.0141601562</ele>
        <time>2015-06-04T11:09:44Z</time>
      </trkpt>
      <trkpt lat="42.9121" lon="-0.37723">
        <ele>1630.5334472656</ele>
        <time>2015-06-04T11:09:54Z</time>
      </trkpt>
      <trkpt lat="42.91203" lon="-0.37712">
        <ele>1629.5720214844</ele>
        <time>2015-06-04T11:10:08Z</time>
      </trkpt>
      <trkpt lat="42.91204" lon="-0.37703">
        <ele>1628.6108398438</ele>
        <time>2015-06-04T11:10:18Z</time>
      </trkpt>
      <trkpt lat="42.91205" lon="-0.37698">
        <ele>1626.6879882812</ele>
        <time>2015-06-04T11:10:35Z</time>
      </trkpt>
      <trkpt lat="42.91204" lon="-0.37696">
        <ele>1626.2072753906</ele>
        <time>2015-06-04T11:10:38Z</time>
      </trkpt>
      <trkpt lat="42.91203" lon="-0.37688">
        <ele>1624.7653808594</ele>
        <time>2015-06-04T11:10:48Z</time>
      </trkpt>
      <trkpt lat="42.91199" lon="-0.37679">
        <ele>1620.9201660156</ele>
        <time>2015-06-04T11:11:01Z</time>
      </trkpt>
      <trkpt lat="42.91195" lon="-0.37671">
        <ele>1619.9587402344</ele>
        <time>2015-06-04T11:11:15Z</time>
      </trkpt>
      <trkpt lat="42.91191" lon="-0.37664">
        <ele>1617.0749511719</ele>
        <time>2015-06-04T11:11:30Z</time>
      </trkpt>
      <trkpt lat="42.91189" lon="-0.37663">
        <ele>1616.1135253906</ele>
        <time>2015-06-04T11:11:53Z</time>
      </trkpt>
      <trkpt lat="42.91186" lon="-0.37648">
        <ele>1614.1909179688</ele>
        <time>2015-06-04T11:12:24Z</time>
      </trkpt>
      <trkpt lat="42.9118" lon="-0.3764">
        <ele>1610.3454589844</ele>
        <time>2015-06-04T11:12:38Z</time>
      </trkpt>
      <trkpt lat="42.91178" lon="-0.37631">
        <ele>1606.9809570312</ele>
        <time>2015-06-04T11:13:00Z</time>
      </trkpt>
      <trkpt lat="42.91173" lon="-0.37627">
        <ele>1604.0971679688</ele>
        <time>2015-06-04T11:13:17Z</time>
      </trkpt>
      <trkpt lat="42.91169" lon="-0.37614">
        <ele>1601.6938476562</ele>
        <time>2015-06-04T11:13:37Z</time>
      </trkpt>
      <trkpt lat="42.91164" lon="-0.37603">
        <ele>1598.3291015625</ele>
        <time>2015-06-04T11:13:50Z</time>
      </trkpt>
      <trkpt lat="42.91164" lon="-0.37603">
        <ele>1597.8486328125</ele>
        <time>2015-06-04T11:13:51Z</time>
      </trkpt>
      <trkpt lat="42.9116" lon="-0.37594">
        <ele>1597.3679199219</ele>
        <time>2015-06-04T11:14:02Z</time>
      </trkpt>
      <trkpt lat="42.91157" lon="-0.37587">
        <ele>1594.4836425781</ele>
        <time>2015-06-04T11:14:12Z</time>
      </trkpt>
      <trkpt lat="42.91156" lon="-0.37579">
        <ele>1593.5224609375</ele>
        <time>2015-06-04T11:14:26Z</time>
      </trkpt>
      <trkpt lat="42.91153" lon="-0.3757">
        <ele>1592.5612792969</ele>
        <time>2015-06-04T11:14:36Z</time>
      </trkpt>
      <trkpt lat="42.91153" lon="-0.37568">
        <ele>1591.5998535156</ele>
        <time>2015-06-04T11:14:38Z</time>
      </trkpt>
      <trkpt lat="42.91153" lon="-0.37564">
        <ele>1591.5998535156</ele>
        <time>2015-06-04T11:14:43Z</time>
      </trkpt>
      <trkpt lat="42.91148" lon="-0.37552">
        <ele>1589.6772460938</ele>
        <time>2015-06-04T11:15:05Z</time>
      </trkpt>
      <trkpt lat="42.91145" lon="-0.37541">
        <ele>1589.1965332031</ele>
        <time>2015-06-04T11:15:22Z</time>
      </trkpt>
      <trkpt lat="42.91141" lon="-0.37532">
        <ele>1587.7546386719</ele>
        <time>2015-06-04T11:15:33Z</time>
      </trkpt>
      <trkpt lat="42.91137" lon="-0.37518">
        <ele>1585.83203125</ele>
        <time>2015-06-04T11:15:45Z</time>
      </trkpt>
      <trkpt lat="42.91136" lon="-0.3751">
        <ele>1584.8708496094</ele>
        <time>2015-06-04T11:15:57Z</time>
      </trkpt>
      <trkpt lat="42.91137" lon="-0.37502">
        <ele>1582.9479980469</ele>
        <time>2015-06-04T11:16:05Z</time>
      </trkpt>
      <trkpt lat="42.91137" lon="-0.37498">
        <ele>1583.4287109375</ele>
        <time>2015-06-04T11:16:07Z</time>
      </trkpt>
      <trkpt lat="42.91138" lon="-0.37481">
        <ele>1582.9479980469</ele>
        <time>2015-06-04T11:16:23Z</time>
      </trkpt>
      <trkpt lat="42.91137" lon="-0.37479">
        <ele>1582.4675292969</ele>
        <time>2015-06-04T11:16:25Z</time>
      </trkpt>
      <trkpt lat="42.91135" lon="-0.37463">
        <ele>1582.4675292969</ele>
        <time>2015-06-04T11:16:38Z</time>
      </trkpt>
      <trkpt lat="42.91136" lon="-0.37458">
        <ele>1582.9479980469</ele>
        <time>2015-06-04T11:16:58Z</time>
      </trkpt>
      <trkpt lat="42.91135" lon="-0.37447">
        <ele>1581.9868164062</ele>
        <time>2015-06-04T11:17:07Z</time>
      </trkpt>
      <trkpt lat="42.91135" lon="-0.37436">
        <ele>1581.0256347656</ele>
        <time>2015-06-04T11:17:15Z</time>
      </trkpt>
      <trkpt lat="42.91132" lon="-0.3743">
        <ele>1580.544921875</ele>
        <time>2015-06-04T11:17:19Z</time>
      </trkpt>
      <trkpt lat="42.91134" lon="-0.37417">
        <ele>1580.0642089844</ele>
        <time>2015-06-04T11:17:27Z</time>
      </trkpt>
      <trkpt lat="42.91132" lon="-0.3741">
        <ele>1579.5832519531</ele>
        <time>2015-06-04T11:17:32Z</time>
      </trkpt>
      <trkpt lat="42.91126" lon="-0.37391">
        <ele>1577.1801757812</ele>
        <time>2015-06-04T11:17:50Z</time>
      </trkpt>
      <trkpt lat="42.91125" lon="-0.37384">
        <ele>1576.21875</ele>
        <time>2015-06-04T11:18:17Z</time>
      </trkpt>
      <trkpt lat="42.91126" lon="-0.3738">
        <ele>1576.6994628906</ele>
        <time>2015-06-04T11:18:27Z</time>
      </trkpt>
      <trkpt lat="42.91124" lon="-0.37369">
        <ele>1576.21875</ele>
        <time>2015-06-04T11:18:35Z</time>
      </trkpt>
      <trkpt lat="42.91122" lon="-0.37351">
        <ele>1575.7380371094</ele>
        <time>2015-06-04T11:18:50Z</time>
      </trkpt>
      <trkpt lat="42.91122" lon="-0.37349">
        <ele>1574.2961425781</ele>
        <time>2015-06-04T11:18:54Z</time>
      </trkpt>
      <trkpt lat="42.91119" lon="-0.37344">
        <ele>1572.3735351562</ele>
        <time>2015-06-04T11:19:03Z</time>
      </trkpt>
      <trkpt lat="42.9112" lon="-0.37334">
        <ele>1570.4509277344</ele>
        <time>2015-06-04T11:19:13Z</time>
      </trkpt>
      <trkpt lat="42.91121" lon="-0.37319">
        <ele>1568.5283203125</ele>
        <time>2015-06-04T11:19:27Z</time>
      </trkpt>
      <trkpt lat="42.9112" lon="-0.3731">
        <ele>1566.6057128906</ele>
        <time>2015-06-04T11:19:36Z</time>
      </trkpt>
      <trkpt lat="42.91113" lon="-0.37283">
        <ele>1565.1638183594</ele>
        <time>2015-06-04T11:19:52Z</time>
      </trkpt>
      <trkpt lat="42.91111" lon="-0.37256">
        <ele>1565.1638183594</ele>
        <time>2015-06-04T11:20:08Z</time>
      </trkpt>
      <trkpt lat="42.91113" lon="-0.37243">
        <ele>1563.7214355469</ele>
        <time>2015-06-04T11:20:21Z</time>
      </trkpt>
      <trkpt lat="42.9111" lon="-0.37229">
        <ele>1562.7602539062</ele>
        <time>2015-06-04T11:20:35Z</time>
      </trkpt>
      <trkpt lat="42.91108" lon="-0.37226">
        <ele>1561.7990722656</ele>
        <time>2015-06-04T11:20:37Z</time>
      </trkpt>
      <trkpt lat="42.91103" lon="-0.37213">
        <ele>1560.8376464844</ele>
        <time>2015-06-04T11:20:49Z</time>
      </trkpt>
      <trkpt lat="42.91103" lon="-0.3721">
        <ele>1560.3569335938</ele>
        <time>2015-06-04T11:20:52Z</time>
      </trkpt>
      <trkpt lat="42.91103" lon="-0.3719">
        <ele>1557.9538574219</ele>
        <time>2015-06-04T11:21:10Z</time>
      </trkpt>
      <trkpt lat="42.91101" lon="-0.37177">
        <ele>1556.51171875</ele>
        <time>2015-06-04T11:21:20Z</time>
      </trkpt>
      <trkpt lat="42.91102" lon="-0.37169">
        <ele>1554.5891113281</ele>
        <time>2015-06-04T11:21:36Z</time>
      </trkpt>
      <trkpt lat="42.91099" lon="-0.37152">
        <ele>1552.1857910156</ele>
        <time>2015-06-04T11:21:58Z</time>
      </trkpt>
      <trkpt lat="42.91098" lon="-0.37151">
        <ele>1550.7438964844</ele>
        <time>2015-06-04T11:22:21Z</time>
      </trkpt>
      <trkpt lat="42.91088" lon="-0.37134">
        <ele>1551.224609375</ele>
        <time>2015-06-04T11:22:44Z</time>
      </trkpt>
      <trkpt lat="42.91083" lon="-0.37126">
        <ele>1551.224609375</ele>
        <time>2015-06-04T11:22:54Z</time>
      </trkpt>
      <trkpt lat="42.91079" lon="-0.37123">
        <ele>1550.2634277344</ele>
        <time>2015-06-04T11:23:00Z</time>
      </trkpt>
      <trkpt lat="42.91072" lon="-0.37116">
        <ele>1549.3020019531</ele>
        <time>2015-06-04T11:23:09Z</time>
      </trkpt>
      <trkpt lat="42.91069" lon="-0.37106">
        <ele>1546.8984375</ele>
        <time>2015-06-04T11:23:20Z</time>
      </trkpt>
      <trkpt lat="42.91065" lon="-0.37095">
        <ele>1544.9758300781</ele>
        <time>2015-06-04T11:23:35Z</time>
      </trkpt>
      <trkpt lat="42.9106" lon="-0.37086">
        <ele>1543.5339355469</ele>
        <time>2015-06-04T11:23:45Z</time>
      </trkpt>
      <trkpt lat="42.91056" lon="-0.37081">
        <ele>1541.611328125</ele>
        <time>2015-06-04T11:23:55Z</time>
      </trkpt>
      <trkpt lat="42.91055" lon="-0.37095">
        <ele>1541.611328125</ele>
        <time>2015-06-04T11:24:11Z</time>
      </trkpt>
      <trkpt lat="42.91055" lon="-0.37099">
        <ele>1539.6887207031</ele>
        <time>2015-06-04T11:24:15Z</time>
      </trkpt>
      <trkpt lat="42.9105" lon="-0.37098">
        <ele>1536.32421875</ele>
        <time>2015-06-04T11:24:29Z</time>
      </trkpt>
      <trkpt lat="42.91042" lon="-0.37093">
        <ele>1534.8823242188</ele>
        <time>2015-06-04T11:24:40Z</time>
      </trkpt>
      <trkpt lat="42.91037" lon="-0.37092">
        <ele>1532.9594726562</ele>
        <time>2015-06-04T11:24:45Z</time>
      </trkpt>
      <trkpt lat="42.91033" lon="-0.37089">
        <ele>1530.5561523438</ele>
        <time>2015-06-04T11:24:52Z</time>
      </trkpt>
      <trkpt lat="42.91016" lon="-0.37088">
        <ele>1527.1916503906</ele>
        <time>2015-06-04T11:25:11Z</time>
      </trkpt>
      <trkpt lat="42.91014" lon="-0.37079">
        <ele>1523.8269042969</ele>
        <time>2015-06-04T11:25:23Z</time>
      </trkpt>
      <trkpt lat="42.91003" lon="-0.37079">
        <ele>1520.9431152344</ele>
        <time>2015-06-04T11:25:36Z</time>
      </trkpt>
      <trkpt lat="42.90999" lon="-0.37074">
        <ele>1518.0590820312</ele>
        <time>2015-06-04T11:25:46Z</time>
      </trkpt>
      <trkpt lat="42.90992" lon="-0.3707">
        <ele>1516.1364746094</ele>
        <time>2015-06-04T11:25:59Z</time>
      </trkpt>
      <trkpt lat="42.90984" lon="-0.37059">
        <ele>1514.6943359375</ele>
        <time>2015-06-04T11:26:12Z</time>
      </trkpt>
      <trkpt lat="42.90983" lon="-0.37058">
        <ele>1514.2136230469</ele>
        <time>2015-06-04T11:26:14Z</time>
      </trkpt>
      <trkpt lat="42.90979" lon="-0.37048">
        <ele>1512.291015625</ele>
        <time>2015-06-04T11:26:24Z</time>
      </trkpt>
      <trkpt lat="42.90975" lon="-0.37047">
        <ele>1510.8491210938</ele>
        <time>2015-06-04T11:26:27Z</time>
      </trkpt>
      <trkpt lat="42.90967" lon="-0.37044">
        <ele>1508.4458007812</ele>
        <time>2015-06-04T11:26:39Z</time>
      </trkpt>
      <trkpt lat="42.90965" lon="-0.37043">
        <ele>1506.5231933594</ele>
        <time>2015-06-04T11:26:41Z</time>
      </trkpt>
      <trkpt lat="42.90959" lon="-0.37038">
        <ele>1504.6005859375</ele>
        <time>2015-06-04T11:26:57Z</time>
      </trkpt>
      <trkpt lat="42.90949" lon="-0.37035">
        <ele>1501.2360839844</ele>
        <time>2015-06-04T11:27:14Z</time>
      </trkpt>
      <trkpt lat="42.90941" lon="-0.37033">
        <ele>1499.7939453125</ele>
        <time>2015-06-04T11:27:28Z</time>
      </trkpt>
      <trkpt lat="42.90935" lon="-0.3703">
        <ele>1496.9099121094</ele>
        <time>2015-06-04T11:27:37Z</time>
      </trkpt>
      <trkpt lat="42.90929" lon="-0.37023">
        <ele>1494.5065917969</ele>
        <time>2015-06-04T11:27:48Z</time>
      </trkpt>
      <trkpt lat="42.90926" lon="-0.37013">
        <ele>1492.103515625</ele>
        <time>2015-06-04T11:27:58Z</time>
      </trkpt>
      <trkpt lat="42.90925" lon="-0.3701">
        <ele>1491.6228027344</ele>
        <time>2015-06-04T11:28:03Z</time>
      </trkpt>
      <trkpt lat="42.90921" lon="-0.37001">
        <ele>1489.2194824219</ele>
        <time>2015-06-04T11:28:15Z</time>
      </trkpt>
      <trkpt lat="42.90913" lon="-0.37">
        <ele>1487.7775878906</ele>
        <time>2015-06-04T11:28:27Z</time>
      </trkpt>
      <trkpt lat="42.9091" lon="-0.36994">
        <ele>1485.3742675781</ele>
        <time>2015-06-04T11:28:37Z</time>
      </trkpt>
      <trkpt lat="42.909" lon="-0.36974">
        <ele>1482.970703125</ele>
        <time>2015-06-04T11:28:57Z</time>
      </trkpt>
      <trkpt lat="42.90894" lon="-0.36974">
        <ele>1481.5288085938</ele>
        <time>2015-06-04T11:29:18Z</time>
      </trkpt>
      <trkpt lat="42.9089" lon="-0.36962">
        <ele>1479.1254882812</ele>
        <time>2015-06-04T11:30:10Z</time>
      </trkpt>
      <trkpt lat="42.90884" lon="-0.36941">
        <ele>1477.203125</ele>
        <time>2015-06-04T11:30:26Z</time>
      </trkpt>
      <trkpt lat="42.90879" lon="-0.36922">
        <ele>1474.3190917969</ele>
        <time>2015-06-04T11:30:44Z</time>
      </trkpt>
      <trkpt lat="42.90881" lon="-0.36907">
        <ele>1471.4350585938</ele>
        <time>2015-06-04T11:31:01Z</time>
      </trkpt>
      <trkpt lat="42.90877" lon="-0.36893">
        <ele>1470.9545898438</ele>
        <time>2015-06-04T11:31:13Z</time>
      </trkpt>
      <trkpt lat="42.90867" lon="-0.36871">
        <ele>1470.4738769531</ele>
        <time>2015-06-04T11:31:30Z</time>
      </trkpt>
      <trkpt lat="42.90865" lon="-0.36865">
        <ele>1469.5126953125</ele>
        <time>2015-06-04T11:31:34Z</time>
      </trkpt>
      <trkpt lat="42.90861" lon="-0.36841">
        <ele>1466.6284179688</ele>
        <time>2015-06-04T11:31:52Z</time>
      </trkpt>
      <trkpt lat="42.90859" lon="-0.36819">
        <ele>1465.6672363281</ele>
        <time>2015-06-04T11:32:09Z</time>
      </trkpt>
      <trkpt lat="42.90856" lon="-0.36798">
        <ele>1462.783203125</ele>
        <time>2015-06-04T11:32:25Z</time>
      </trkpt>
      <trkpt lat="42.90854" lon="-0.36796">
        <ele>1461.8220214844</ele>
        <time>2015-06-04T11:32:46Z</time>
      </trkpt>
      <trkpt lat="42.90854" lon="-0.36788">
        <ele>1461.8220214844</ele>
        <time>2015-06-04T11:33:01Z</time>
      </trkpt>
      <trkpt lat="42.90856" lon="-0.36786">
        <ele>1461.3413085938</ele>
        <time>2015-06-04T11:33:11Z</time>
      </trkpt>
      <trkpt lat="42.90852" lon="-0.36798">
        <ele>1460.3798828125</ele>
        <time>2015-06-04T11:33:24Z</time>
      </trkpt>
      <trkpt lat="42.90848" lon="-0.36808">
        <ele>1459.4187011719</ele>
        <time>2015-06-04T11:33:40Z</time>
      </trkpt>
      <trkpt lat="42.90848" lon="-0.36809">
        <ele>1459.8991699219</ele>
        <time>2015-06-04T11:33:41Z</time>
      </trkpt>
      <trkpt lat="42.90847" lon="-0.3682">
        <ele>1457.49609375</ele>
        <time>2015-06-04T11:33:49Z</time>
      </trkpt>
      <trkpt lat="42.90843" lon="-0.36841">
        <ele>1456.0539550781</ele>
        <time>2015-06-04T11:34:06Z</time>
      </trkpt>
      <trkpt lat="42.9084" lon="-0.36854">
        <ele>1454.1315917969</ele>
        <time>2015-06-04T11:34:17Z</time>
      </trkpt>
      <trkpt lat="42.90829" lon="-0.36871">
        <ele>1451.2473144531</ele>
        <time>2015-06-04T11:34:33Z</time>
      </trkpt>
      <trkpt lat="42.90826" lon="-0.36877">
        <ele>1451.2473144531</ele>
        <time>2015-06-04T11:34:39Z</time>
      </trkpt>
      <trkpt lat="42.90823" lon="-0.36898">
        <ele>1449.3247070312</ele>
        <time>2015-06-04T11:34:57Z</time>
      </trkpt>
      <trkpt lat="42.9082" lon="-0.36924">
        <ele>1447.8828125</ele>
        <time>2015-06-04T11:35:16Z</time>
      </trkpt>
      <trkpt lat="42.90813" lon="-0.36945">
        <ele>1444.5180664062</ele>
        <time>2015-06-04T11:35:32Z</time>
      </trkpt>
      <trkpt lat="42.90807" lon="-0.36973">
        <ele>1443.5568847656</ele>
        <time>2015-06-04T11:35:52Z</time>
      </trkpt>
      <trkpt lat="42.9081" lon="-0.36988">
        <ele>1442.595703125</ele>
        <time>2015-06-04T11:36:08Z</time>
      </trkpt>
      <trkpt lat="42.90817" lon="-0.37017">
        <ele>1440.6728515625</ele>
        <time>2015-06-04T11:36:29Z</time>
      </trkpt>
      <trkpt lat="42.90823" lon="-0.37048">
        <ele>1438.2697753906</ele>
        <time>2015-06-04T11:36:50Z</time>
      </trkpt>
      <trkpt lat="42.90829" lon="-0.37073">
        <ele>1436.8276367188</ele>
        <time>2015-06-04T11:37:09Z</time>
      </trkpt>
      <trkpt lat="42.9083" lon="-0.37099">
        <ele>1437.3083496094</ele>
        <time>2015-06-04T11:37:29Z</time>
      </trkpt>
      <trkpt lat="42.90831" lon="-0.37109">
        <ele>1436.3471679688</ele>
        <time>2015-06-04T11:37:39Z</time>
      </trkpt>
      <trkpt lat="42.90832" lon="-0.37117">
        <ele>1435.8662109375</ele>
        <time>2015-06-04T11:37:45Z</time>
      </trkpt>
      <trkpt lat="42.90835" lon="-0.3713">
        <ele>1435.8662109375</ele>
        <time>2015-06-04T11:37:56Z</time>
      </trkpt>
      <trkpt lat="42.90842" lon="-0.37157">
        <ele>1433.9436035156</ele>
        <time>2015-06-04T11:38:15Z</time>
      </trkpt>
      <trkpt lat="42.90848" lon="-0.37183">
        <ele>1433.462890625</ele>
        <time>2015-06-04T11:38:33Z</time>
      </trkpt>
      <trkpt lat="42.90854" lon="-0.37216">
        <ele>1432.0209960938</ele>
        <time>2015-06-04T11:38:54Z</time>
      </trkpt>
      <trkpt lat="42.90856" lon="-0.3724">
        <ele>1430.0983886719</ele>
        <time>2015-06-04T11:39:12Z</time>
      </trkpt>
      <trkpt lat="42.90857" lon="-0.37249">
        <ele>1430.0983886719</ele>
        <time>2015-06-04T11:39:23Z</time>
      </trkpt>
      <trkpt lat="42.90858" lon="-0.3726">
        <ele>1431.0598144531</ele>
        <time>2015-06-04T11:39:36Z</time>
      </trkpt>
      <trkpt lat="42.90858" lon="-0.37267">
        <ele>1429.6176757812</ele>
        <time>2015-06-04T11:39:42Z</time>
      </trkpt>
      <trkpt lat="42.90861" lon="-0.37274">
        <ele>1430.0983886719</ele>
        <time>2015-06-04T11:39:48Z</time>
      </trkpt>
      <trkpt lat="42.90859" lon="-0.37282">
        <ele>1429.1369628906</ele>
        <time>2015-06-04T11:39:54Z</time>
      </trkpt>
      <trkpt lat="42.90862" lon="-0.37309">
        <ele>1429.6176757812</ele>
        <time>2015-06-04T11:40:13Z</time>
      </trkpt>
      <trkpt lat="42.90862" lon="-0.37313">
        <ele>1428.17578125</ele>
        <time>2015-06-04T11:40:16Z</time>
      </trkpt>
      <trkpt lat="42.90864" lon="-0.37324">
        <ele>1428.17578125</ele>
        <time>2015-06-04T11:40:25Z</time>
      </trkpt>
      <trkpt lat="42.90865" lon="-0.37347">
        <ele>1425.7724609375</ele>
        <time>2015-06-04T11:40:42Z</time>
      </trkpt>
      <trkpt lat="42.90867" lon="-0.37366">
        <ele>1425.2917480469</ele>
        <time>2015-06-04T11:40:56Z</time>
      </trkpt>
      <trkpt lat="42.90873" lon="-0.37387">
        <ele>1425.2917480469</ele>
        <time>2015-06-04T11:41:13Z</time>
      </trkpt>
      <trkpt lat="42.90874" lon="-0.37389">
        <ele>1425.2917480469</ele>
        <time>2015-06-04T11:41:16Z</time>
      </trkpt>
      <trkpt lat="42.90871" lon="-0.37406">
        <ele>1423.8498535156</ele>
        <time>2015-06-04T11:41:32Z</time>
      </trkpt>
      <trkpt lat="42.90876" lon="-0.37414">
        <ele>1423.8498535156</ele>
        <time>2015-06-04T11:41:45Z</time>
      </trkpt>
      <trkpt lat="42.90878" lon="-0.37426">
        <ele>1424.3305664062</ele>
        <time>2015-06-04T11:42:00Z</time>
      </trkpt>
      <trkpt lat="42.90886" lon="-0.37442">
        <ele>1425.2917480469</ele>
        <time>2015-06-04T11:42:16Z</time>
      </trkpt>
      <trkpt lat="42.90887" lon="-0.37456">
        <ele>1424.3305664062</ele>
        <time>2015-06-04T11:42:29Z</time>
      </trkpt>
      <trkpt lat="42.90885" lon="-0.37486">
        <ele>1424.8112792969</ele>
        <time>2015-06-04T11:42:49Z</time>
      </trkpt>
      <trkpt lat="42.90883" lon="-0.3752">
        <ele>1425.7724609375</ele>
        <time>2015-06-04T11:43:11Z</time>
      </trkpt>
      <trkpt lat="42.90884" lon="-0.37554">
        <ele>1425.7724609375</ele>
        <time>2015-06-04T11:43:33Z</time>
      </trkpt>
      <trkpt lat="42.90886" lon="-0.37587">
        <ele>1426.7338867188</ele>
        <time>2015-06-04T11:43:54Z</time>
      </trkpt>
      <trkpt lat="42.90888" lon="-0.37615">
        <ele>1425.7724609375</ele>
        <time>2015-06-04T11:44:13Z</time>
      </trkpt>
      <trkpt lat="42.90893" lon="-0.37638">
        <ele>1426.2531738281</ele>
        <time>2015-06-04T11:44:29Z</time>
      </trkpt>
      <trkpt lat="42.90898" lon="-0.37654">
        <ele>1426.7338867188</ele>
        <time>2015-06-04T11:44:41Z</time>
      </trkpt>
      <trkpt lat="42.90899" lon="-0.3766">
        <ele>1424.8112792969</ele>
        <time>2015-06-04T11:44:45Z</time>
      </trkpt>
      <trkpt lat="42.90902" lon="-0.37684">
        <ele>1426.7338867188</ele>
        <time>2015-06-04T11:45:02Z</time>
      </trkpt>
      <trkpt lat="42.90905" lon="-0.37697">
        <ele>1427.6950683594</ele>
        <time>2015-06-04T11:45:12Z</time>
      </trkpt>
      <trkpt lat="42.90905" lon="-0.37703">
        <ele>1428.17578125</ele>
        <time>2015-06-04T11:45:17Z</time>
      </trkpt>
      <trkpt lat="42.90905" lon="-0.37706">
        <ele>1427.6950683594</ele>
        <time>2015-06-04T11:45:19Z</time>
      </trkpt>
      <trkpt lat="42.90911" lon="-0.37726">
        <ele>1427.2145996094</ele>
        <time>2015-06-04T11:45:37Z</time>
      </trkpt>
      <trkpt lat="42.90919" lon="-0.3774">
        <ele>1427.6950683594</ele>
        <time>2015-06-04T11:45:54Z</time>
      </trkpt>
      <trkpt lat="42.90922" lon="-0.37745">
        <ele>1427.2145996094</ele>
        <time>2015-06-04T11:46:08Z</time>
      </trkpt>
      <trkpt lat="42.90927" lon="-0.37757">
        <ele>1425.2917480469</ele>
        <time>2015-06-04T11:46:21Z</time>
      </trkpt>
      <trkpt lat="42.90935" lon="-0.37774">
        <ele>1426.7338867188</ele>
        <time>2015-06-04T11:46:38Z</time>
      </trkpt>
      <trkpt lat="42.90933" lon="-0.37778">
        <ele>1426.7338867188</ele>
        <time>2015-06-04T11:47:19Z</time>
      </trkpt>
      <trkpt lat="42.9094" lon="-0.37789">
        <ele>1427.6950683594</ele>
        <time>2015-06-04T11:47:34Z</time>
      </trkpt>
      <trkpt lat="42.90945" lon="-0.378">
        <ele>1427.2145996094</ele>
        <time>2015-06-04T11:47:44Z</time>
      </trkpt>
      <trkpt lat="42.90946" lon="-0.37804">
        <ele>1427.6950683594</ele>
        <time>2015-06-04T11:47:47Z</time>
      </trkpt>
      <trkpt lat="42.90961" lon="-0.37822">
        <ele>1427.2145996094</ele>
        <time>2015-06-04T11:48:06Z</time>
      </trkpt>
      <trkpt lat="42.90972" lon="-0.37839">
        <ele>1426.7338867188</ele>
        <time>2015-06-04T11:48:23Z</time>
      </trkpt>
      <trkpt lat="42.90977" lon="-0.37846">
        <ele>1428.17578125</ele>
        <time>2015-06-04T11:48:39Z</time>
      </trkpt>
      <trkpt lat="42.90984" lon="-0.37852">
        <ele>1427.6950683594</ele>
        <time>2015-06-04T11:49:05Z</time>
      </trkpt>
      <trkpt lat="42.90989" lon="-0.3786">
        <ele>1429.1369628906</ele>
        <time>2015-06-04T11:49:13Z</time>
      </trkpt>
      <trkpt lat="42.90992" lon="-0.37865">
        <ele>1428.6564941406</ele>
        <time>2015-06-04T11:49:18Z</time>
      </trkpt>
      <trkpt lat="42.90999" lon="-0.3789">
        <ele>1425.7724609375</ele>
        <time>2015-06-04T11:49:37Z</time>
      </trkpt>
      <trkpt lat="42.91" lon="-0.37894">
        <ele>1426.2531738281</ele>
        <time>2015-06-04T11:49:40Z</time>
      </trkpt>
      <trkpt lat="42.91001" lon="-0.379">
        <ele>1426.2531738281</ele>
        <time>2015-06-04T11:49:45Z</time>
      </trkpt>
      <trkpt lat="42.91008" lon="-0.37912">
        <ele>1426.7338867188</ele>
        <time>2015-06-04T11:50:00Z</time>
      </trkpt>
      <trkpt lat="42.9102" lon="-0.37928">
        <ele>1428.6564941406</ele>
        <time>2015-06-04T11:50:16Z</time>
      </trkpt>
      <trkpt lat="42.91031" lon="-0.37935">
        <ele>1430.0983886719</ele>
        <time>2015-06-04T11:50:30Z</time>
      </trkpt>
      <trkpt lat="42.91033" lon="-0.37939">
        <ele>1430.0983886719</ele>
        <time>2015-06-04T11:50:47Z</time>
      </trkpt>
      <trkpt lat="42.91032" lon="-0.3795">
        <ele>1429.6176757812</ele>
        <time>2015-06-04T11:51:04Z</time>
      </trkpt>
      <trkpt lat="42.91031" lon="-0.37961">
        <ele>1431.0598144531</ele>
        <time>2015-06-04T11:51:25Z</time>
      </trkpt>
      <trkpt lat="42.91036" lon="-0.37971">
        <ele>1429.1369628906</ele>
        <time>2015-06-04T11:51:45Z</time>
      </trkpt>
      <trkpt lat="42.9104" lon="-0.37978">
        <ele>1430.0983886719</ele>
        <time>2015-06-04T11:51:52Z</time>
      </trkpt>
      <trkpt lat="42.9105" lon="-0.37995">
        <ele>1430.0983886719</ele>
        <time>2015-06-04T11:52:10Z</time>
      </trkpt>
      <trkpt lat="42.91051" lon="-0.37998">
        <ele>1431.5402832031</ele>
        <time>2015-06-04T11:52:13Z</time>
      </trkpt>
      <trkpt lat="42.91053" lon="-0.38007">
        <ele>1430.5791015625</ele>
        <time>2015-06-04T11:52:21Z</time>
      </trkpt>
      <trkpt lat="42.91056" lon="-0.3802">
        <ele>1430.5791015625</ele>
        <time>2015-06-04T11:52:37Z</time>
      </trkpt>
      <trkpt lat="42.91059" lon="-0.38032">
        <ele>1430.0983886719</ele>
        <time>2015-06-04T11:52:48Z</time>
      </trkpt>
      <trkpt lat="42.91062" lon="-0.38042">
        <ele>1428.6564941406</ele>
        <time>2015-06-04T11:52:58Z</time>
      </trkpt>
      <trkpt lat="42.91061" lon="-0.38054">
        <ele>1428.6564941406</ele>
        <time>2015-06-04T11:53:09Z</time>
      </trkpt>
      <trkpt lat="42.9106" lon="-0.38068">
        <ele>1428.17578125</ele>
        <time>2015-06-04T11:53:21Z</time>
      </trkpt>
      <trkpt lat="42.91061" lon="-0.38077">
        <ele>1429.1369628906</ele>
        <time>2015-06-04T11:53:28Z</time>
      </trkpt>
      <trkpt lat="42.91065" lon="-0.38087">
        <ele>1431.5402832031</ele>
        <time>2015-06-04T11:53:36Z</time>
      </trkpt>
      <trkpt lat="42.91064" lon="-0.38095">
        <ele>1430.5791015625</ele>
        <time>2015-06-04T11:53:51Z</time>
      </trkpt>
      <trkpt lat="42.91063" lon="-0.38096">
        <ele>1432.0209960938</ele>
        <time>2015-06-04T11:53:54Z</time>
      </trkpt>
      <trkpt lat="42.91071" lon="-0.38103">
        <ele>1432.5017089844</ele>
        <time>2015-06-04T11:54:20Z</time>
      </trkpt>
      <trkpt lat="42.91072" lon="-0.38104">
        <ele>1432.9821777344</ele>
        <time>2015-06-04T11:54:21Z</time>
      </trkpt>
      <trkpt lat="42.91075" lon="-0.3811">
        <ele>1433.462890625</ele>
        <time>2015-06-04T11:54:27Z</time>
      </trkpt>
      <trkpt lat="42.91078" lon="-0.3812">
        <ele>1432.9821777344</ele>
        <time>2015-06-04T11:54:34Z</time>
      </trkpt>
      <trkpt lat="42.91087" lon="-0.38134">
        <ele>1432.9821777344</ele>
        <time>2015-06-04T11:54:47Z</time>
      </trkpt>
      <trkpt lat="42.91084" lon="-0.38145">
        <ele>1433.462890625</ele>
        <time>2015-06-04T11:54:58Z</time>
      </trkpt>
      <trkpt lat="42.91092" lon="-0.38159">
        <ele>1435.3854980469</ele>
        <time>2015-06-04T11:55:11Z</time>
      </trkpt>
      <trkpt lat="42.91092" lon="-0.38165">
        <ele>1435.8662109375</ele>
        <time>2015-06-04T11:55:19Z</time>
      </trkpt>
      <trkpt lat="42.91093" lon="-0.38187">
        <ele>1436.3471679688</ele>
        <time>2015-06-04T11:55:35Z</time>
      </trkpt>
      <trkpt lat="42.91091" lon="-0.38202">
        <ele>1438.2697753906</ele>
        <time>2015-06-04T11:55:48Z</time>
      </trkpt>
      <trkpt lat="42.91093" lon="-0.38212">
        <ele>1440.1923828125</ele>
        <time>2015-06-04T11:55:57Z</time>
      </trkpt>
      <trkpt lat="42.91098" lon="-0.38224">
        <ele>1439.7116699219</ele>
        <time>2015-06-04T11:56:11Z</time>
      </trkpt>
      <trkpt lat="42.91098" lon="-0.38225">
        <ele>1439.2309570312</ele>
        <time>2015-06-04T11:56:13Z</time>
      </trkpt>
      <trkpt lat="42.91105" lon="-0.38233">
        <ele>1436.3471679688</ele>
        <time>2015-06-04T11:56:26Z</time>
      </trkpt>
      <trkpt lat="42.91107" lon="-0.38245">
        <ele>1434.4243164062</ele>
        <time>2015-06-04T11:56:41Z</time>
      </trkpt>
      <trkpt lat="42.91106" lon="-0.38259">
        <ele>1431.5402832031</ele>
        <time>2015-06-04T11:56:59Z</time>
      </trkpt>
      <trkpt lat="42.91104" lon="-0.38265">
        <ele>1429.6176757812</ele>
        <time>2015-06-04T11:57:09Z</time>
      </trkpt>
      <trkpt lat="42.91111" lon="-0.38286">
        <ele>1428.17578125</ele>
        <time>2015-06-04T11:57:41Z</time>
      </trkpt>
      <trkpt lat="42.91106" lon="-0.38307">
        <ele>1427.2145996094</ele>
        <time>2015-06-04T11:57:57Z</time>
      </trkpt>
      <trkpt lat="42.91108" lon="-0.38325">
        <ele>1426.2531738281</ele>
        <time>2015-06-04T11:58:08Z</time>
      </trkpt>
      <trkpt lat="42.91111" lon="-0.38345">
        <ele>1425.2917480469</ele>
        <time>2015-06-04T11:58:25Z</time>
      </trkpt>
      <trkpt lat="42.91114" lon="-0.38357">
        <ele>1424.8112792969</ele>
        <time>2015-06-04T11:58:38Z</time>
      </trkpt>
      <trkpt lat="42.91118" lon="-0.3836">
        <ele>1424.3305664062</ele>
        <time>2015-06-04T11:59:00Z</time>
      </trkpt>
      <trkpt lat="42.91115" lon="-0.38371">
        <ele>1423.8498535156</ele>
        <time>2015-06-04T11:59:14Z</time>
      </trkpt>
      <trkpt lat="42.91099" lon="-0.3838">
        <ele>1423.3693847656</ele>
        <time>2015-06-04T11:59:27Z</time>
      </trkpt>
      <trkpt lat="42.91099" lon="-0.38392">
        <ele>1422.888671875</ele>
        <time>2015-06-04T11:59:46Z</time>
      </trkpt>
      <trkpt lat="42.91094" lon="-0.38396">
        <ele>1422.888671875</ele>
        <time>2015-06-04T11:59:59Z</time>
      </trkpt>
      <trkpt lat="42.91104" lon="-0.38409">
        <ele>1422.4079589844</ele>
        <time>2015-06-04T12:00:13Z</time>
      </trkpt>
      <trkpt lat="42.91105" lon="-0.38416">
        <ele>1420.4853515625</ele>
        <time>2015-06-04T12:00:34Z</time>
      </trkpt>
      <trkpt lat="42.91105" lon="-0.38428">
        <ele>1418.5625</ele>
        <time>2015-06-04T12:00:47Z</time>
      </trkpt>
      <trkpt lat="42.91097" lon="-0.38437">
        <ele>1416.1591796875</ele>
        <time>2015-06-04T12:00:54Z</time>
      </trkpt>
      <trkpt lat="42.91091" lon="-0.38448">
        <ele>1413.755859375</ele>
        <time>2015-06-04T12:01:04Z</time>
      </trkpt>
      <trkpt lat="42.91094" lon="-0.38454">
        <ele>1412.3139648438</ele>
        <time>2015-06-04T12:01:11Z</time>
      </trkpt>
      <trkpt lat="42.91092" lon="-0.38464">
        <ele>1412.3139648438</ele>
        <time>2015-06-04T12:01:23Z</time>
      </trkpt>
      <trkpt lat="42.91093" lon="-0.38469">
        <ele>1411.3527832031</ele>
        <time>2015-06-04T12:01:34Z</time>
      </trkpt>
      <trkpt lat="42.9109" lon="-0.38481">
        <ele>1408.46875</ele>
        <time>2015-06-04T12:01:47Z</time>
      </trkpt>
      <trkpt lat="42.91089" lon="-0.38484">
        <ele>1408.46875</ele>
        <time>2015-06-04T12:01:49Z</time>
      </trkpt>
      <trkpt lat="42.91079" lon="-0.38488">
        <ele>1407.0268554688</ele>
        <time>2015-06-04T12:02:04Z</time>
      </trkpt>
      <trkpt lat="42.91085" lon="-0.38498">
        <ele>1406.5461425781</ele>
        <time>2015-06-04T12:02:13Z</time>
      </trkpt>
      <trkpt lat="42.91071" lon="-0.3851">
        <ele>1403.662109375</ele>
        <time>2015-06-04T12:02:27Z</time>
      </trkpt>
      <trkpt lat="42.91066" lon="-0.38516">
        <ele>1403.662109375</ele>
        <time>2015-06-04T12:02:31Z</time>
      </trkpt>
      <trkpt lat="42.91062" lon="-0.3852">
        <ele>1403.1813964844</ele>
        <time>2015-06-04T12:02:33Z</time>
      </trkpt>
      <trkpt lat="42.91045" lon="-0.38533">
        <ele>1402.7006835938</ele>
        <time>2015-06-04T12:02:44Z</time>
      </trkpt>
      <trkpt lat="42.91044" lon="-0.38536">
        <ele>1401.7395019531</ele>
        <time>2015-06-04T12:02:49Z</time>
      </trkpt>
      <trkpt lat="42.91026" lon="-0.38542">
        <ele>1400.2976074219</ele>
        <time>2015-06-04T12:03:02Z</time>
      </trkpt>
      <trkpt lat="42.9101" lon="-0.38549">
        <ele>1398.85546875</ele>
        <time>2015-06-04T12:03:18Z</time>
      </trkpt>
      <trkpt lat="42.91002" lon="-0.38554">
        <ele>1398.3747558594</ele>
        <time>2015-06-04T12:03:24Z</time>
      </trkpt>
      <trkpt lat="42.90998" lon="-0.38559">
        <ele>1398.3747558594</ele>
        <time>2015-06-04T12:03:36Z</time>
      </trkpt>
      <trkpt lat="42.91007" lon="-0.38571">
        <ele>1396.4523925781</ele>
        <time>2015-06-04T12:04:06Z</time>
      </trkpt>
      <trkpt lat="42.91005" lon="-0.38564">
        <ele>1395.9716796875</ele>
        <time>2015-06-04T12:04:33Z</time>
      </trkpt>
      <trkpt lat="42.91052" lon="-0.38552">
        <ele>1396.9328613281</ele>
        <time>2015-06-04T12:05:27Z</time>
      </trkpt>
      <trkpt lat="42.91027" lon="-0.38559">
        <ele>1397.4135742188</ele>
        <time>2015-06-04T12:05:45Z</time>
      </trkpt>
      <trkpt lat="42.91031" lon="-0.38553">
        <ele>1397.4135742188</ele>
        <time>2015-06-04T12:05:54Z</time>
      </trkpt>
      <trkpt lat="42.91025" lon="-0.38559">
        <ele>1397.4135742188</ele>
        <time>2015-06-04T12:06:06Z</time>
      </trkpt>
      <trkpt lat="42.91022" lon="-0.38563">
        <ele>1396.9328613281</ele>
        <time>2015-06-04T12:06:08Z</time>
      </trkpt>
      <trkpt lat="42.91012" lon="-0.38583">
        <ele>1396.9328613281</ele>
        <time>2015-06-04T12:06:19Z</time>
      </trkpt>
      <trkpt lat="42.91005" lon="-0.38589">
        <ele>1396.9328613281</ele>
        <time>2015-06-04T12:06:23Z</time>
      </trkpt>
      <trkpt lat="42.9099" lon="-0.38602">
        <ele>1396.9328613281</ele>
        <time>2015-06-04T12:06:33Z</time>
      </trkpt>
      <trkpt lat="42.90992" lon="-0.38613">
        <ele>1396.9328613281</ele>
        <time>2015-06-04T12:06:43Z</time>
      </trkpt>
      <trkpt lat="42.90985" lon="-0.38615">
        <ele>1393.568359375</ele>
        <time>2015-06-04T12:07:01Z</time>
      </trkpt>
      <trkpt lat="42.90967" lon="-0.38639">
        <ele>1392.6071777344</ele>
        <time>2015-06-04T12:07:23Z</time>
      </trkpt>
      <trkpt lat="42.90963" lon="-0.38648">
        <ele>1389.7231445312</ele>
        <time>2015-06-04T12:07:40Z</time>
      </trkpt>
      <trkpt lat="42.90957" lon="-0.3865">
        <ele>1389.2424316406</ele>
        <time>2015-06-04T12:07:43Z</time>
      </trkpt>
      <trkpt lat="42.90956" lon="-0.38658">
        <ele>1386.3583984375</ele>
        <time>2015-06-04T12:08:04Z</time>
      </trkpt>
      <trkpt lat="42.90944" lon="-0.38671">
        <ele>1382.9936523438</ele>
        <time>2015-06-04T12:08:21Z</time>
      </trkpt>
      <trkpt lat="42.90929" lon="-0.38686">
        <ele>1382.9936523438</ele>
        <time>2015-06-04T12:08:34Z</time>
      </trkpt>
      <trkpt lat="42.90925" lon="-0.38689">
        <ele>1381.5517578125</ele>
        <time>2015-06-04T12:08:38Z</time>
      </trkpt>
      <trkpt lat="42.90917" lon="-0.38699">
        <ele>1380.5905761719</ele>
        <time>2015-06-04T12:08:49Z</time>
      </trkpt>
      <trkpt lat="42.90906" lon="-0.38718">
        <ele>1379.6291503906</ele>
        <time>2015-06-04T12:09:01Z</time>
      </trkpt>
      <trkpt lat="42.90905" lon="-0.38731">
        <ele>1378.1872558594</ele>
        <time>2015-06-04T12:09:13Z</time>
      </trkpt>
      <trkpt lat="42.90904" lon="-0.38734">
        <ele>1377.7065429688</ele>
        <time>2015-06-04T12:09:15Z</time>
      </trkpt>
      <trkpt lat="42.909" lon="-0.38759">
        <ele>1379.6291503906</ele>
        <time>2015-06-04T12:09:32Z</time>
      </trkpt>
      <trkpt lat="42.90896" lon="-0.38769">
        <ele>1376.7453613281</ele>
        <time>2015-06-04T12:09:43Z</time>
      </trkpt>
      <trkpt lat="42.90891" lon="-0.38787">
        <ele>1377.2260742188</ele>
        <time>2015-06-04T12:09:56Z</time>
      </trkpt>
      <trkpt lat="42.90889" lon="-0.38798">
        <ele>1375.3032226562</ele>
        <time>2015-06-04T12:10:12Z</time>
      </trkpt>
      <trkpt lat="42.90883" lon="-0.38808">
        <ele>1375.3032226562</ele>
        <time>2015-06-04T12:10:21Z</time>
      </trkpt>
      <trkpt lat="42.90868" lon="-0.38825">
        <ele>1373.380859375</ele>
        <time>2015-06-04T12:10:33Z</time>
      </trkpt>
      <trkpt lat="42.90862" lon="-0.3884">
        <ele>1371.9384765625</ele>
        <time>2015-06-04T12:10:44Z</time>
      </trkpt>
      <trkpt lat="42.90859" lon="-0.38843">
        <ele>1371.4577636719</ele>
        <time>2015-06-04T12:10:46Z</time>
      </trkpt>
      <trkpt lat="42.90846" lon="-0.38857">
        <ele>1370.9772949219</ele>
        <time>2015-06-04T12:10:57Z</time>
      </trkpt>
      <trkpt lat="42.90848" lon="-0.38874">
        <ele>1370.9772949219</ele>
        <time>2015-06-04T12:11:11Z</time>
      </trkpt>
      <trkpt lat="42.90837" lon="-0.3889">
        <ele>1371.9384765625</ele>
        <time>2015-06-04T12:11:20Z</time>
      </trkpt>
      <trkpt lat="42.9083" lon="-0.38906">
        <ele>1370.9772949219</ele>
        <time>2015-06-04T12:11:36Z</time>
      </trkpt>
      <trkpt lat="42.90829" lon="-0.38928">
        <ele>1371.4577636719</ele>
        <time>2015-06-04T12:11:49Z</time>
      </trkpt>
      <trkpt lat="42.90823" lon="-0.38944">
        <ele>1371.4577636719</ele>
        <time>2015-06-04T12:11:59Z</time>
      </trkpt>
      <trkpt lat="42.90823" lon="-0.38947">
        <ele>1371.4577636719</ele>
        <time>2015-06-04T12:12:01Z</time>
      </trkpt>
      <trkpt lat="42.90818" lon="-0.38965">
        <ele>1370.9772949219</ele>
        <time>2015-06-04T12:12:14Z</time>
      </trkpt>
      <trkpt lat="42.90815" lon="-0.38988">
        <ele>1368.5739746094</ele>
        <time>2015-06-04T12:12:32Z</time>
      </trkpt>
      <trkpt lat="42.90817" lon="-0.39005">
        <ele>1367.1320800781</ele>
        <time>2015-06-04T12:12:45Z</time>
      </trkpt>
      <trkpt lat="42.9082" lon="-0.39025">
        <ele>1366.6513671875</ele>
        <time>2015-06-04T12:12:56Z</time>
      </trkpt>
      <trkpt lat="42.90829" lon="-0.39041">
        <ele>1367.1320800781</ele>
        <time>2015-06-04T12:13:07Z</time>
      </trkpt>
      <trkpt lat="42.90826" lon="-0.3906">
        <ele>1368.0932617188</ele>
        <time>2015-06-04T12:13:29Z</time>
      </trkpt>
      <trkpt lat="42.90831" lon="-0.39074">
        <ele>1369.5354003906</ele>
        <time>2015-06-04T12:13:45Z</time>
      </trkpt>
      <trkpt lat="42.90834" lon="-0.39083">
        <ele>1371.4577636719</ele>
        <time>2015-06-04T12:13:57Z</time>
      </trkpt>
      <trkpt lat="42.90823" lon="-0.39097">
        <ele>1372.9001464844</ele>
        <time>2015-06-04T12:14:10Z</time>
      </trkpt>
      <trkpt lat="42.90835" lon="-0.39121">
        <ele>1372.9001464844</ele>
        <time>2015-06-04T12:14:39Z</time>
      </trkpt>
      <trkpt lat="42.90839" lon="-0.39136">
        <ele>1374.3420410156</ele>
        <time>2015-06-04T12:14:52Z</time>
      </trkpt>
      <trkpt lat="42.90845" lon="-0.39157">
        <ele>1376.2646484375</ele>
        <time>2015-06-04T12:15:15Z</time>
      </trkpt>
      <trkpt lat="42.90854" lon="-0.39168">
        <ele>1376.2646484375</ele>
        <time>2015-06-04T12:15:27Z</time>
      </trkpt>
      <trkpt lat="42.90859" lon="-0.39181">
        <ele>1375.3032226562</ele>
        <time>2015-06-04T12:15:38Z</time>
      </trkpt>
      <trkpt lat="42.90869" lon="-0.39191">
        <ele>1376.2646484375</ele>
        <time>2015-06-04T12:15:48Z</time>
      </trkpt>
      <trkpt lat="42.9088" lon="-0.39198">
        <ele>1376.2646484375</ele>
        <time>2015-06-04T12:16:01Z</time>
      </trkpt>
      <trkpt lat="42.90885" lon="-0.39216">
        <ele>1378.66796875</ele>
        <time>2015-06-04T12:16:23Z</time>
      </trkpt>
      <trkpt lat="42.90887" lon="-0.3923">
        <ele>1380.1098632812</ele>
        <time>2015-06-04T12:16:32Z</time>
      </trkpt>
      <trkpt lat="42.90897" lon="-0.39242">
        <ele>1382.9936523438</ele>
        <time>2015-06-04T12:16:43Z</time>
      </trkpt>
      <trkpt lat="42.90897" lon="-0.39251">
        <ele>1383.955078125</ele>
        <time>2015-06-04T12:16:53Z</time>
      </trkpt>
      <trkpt lat="42.90893" lon="-0.39254">
        <ele>1385.3969726562</ele>
        <time>2015-06-04T12:16:56Z</time>
      </trkpt>
      <trkpt lat="42.9088" lon="-0.39266">
        <ele>1386.3583984375</ele>
        <time>2015-06-04T12:17:10Z</time>
      </trkpt>
      <trkpt lat="42.90887" lon="-0.39275">
        <ele>1389.7231445312</ele>
        <time>2015-06-04T12:17:32Z</time>
      </trkpt>
      <trkpt lat="42.90884" lon="-0.39286">
        <ele>1393.0876464844</ele>
        <time>2015-06-04T12:17:56Z</time>
      </trkpt>
      <trkpt lat="42.90883" lon="-0.39297">
        <ele>1394.5295410156</ele>
        <time>2015-06-04T12:18:12Z</time>
      </trkpt>
      <trkpt lat="42.90893" lon="-0.39312">
        <ele>1396.4523925781</ele>
        <time>2015-06-04T12:18:31Z</time>
      </trkpt>
      <trkpt lat="42.90895" lon="-0.39329">
        <ele>1399.8168945312</ele>
        <time>2015-06-04T12:18:47Z</time>
      </trkpt>
      <trkpt lat="42.90889" lon="-0.39343">
        <ele>1401.7395019531</ele>
        <time>2015-06-04T12:19:00Z</time>
      </trkpt>
      <trkpt lat="42.90892" lon="-0.39352">
        <ele>1404.1430664062</ele>
        <time>2015-06-04T12:19:11Z</time>
      </trkpt>
      <trkpt lat="42.909" lon="-0.39361">
        <ele>1407.5075683594</ele>
        <time>2015-06-04T12:19:30Z</time>
      </trkpt>
      <trkpt lat="42.90894" lon="-0.39373">
        <ele>1410.3913574219</ele>
        <time>2015-06-04T12:19:51Z</time>
      </trkpt>
      <trkpt lat="42.90887" lon="-0.39379">
        <ele>1413.275390625</ele>
        <time>2015-06-04T12:20:04Z</time>
      </trkpt>
      <trkpt lat="42.90903" lon="-0.39371">
        <ele>1416.1591796875</ele>
        <time>2015-06-04T12:20:19Z</time>
      </trkpt>
      <trkpt lat="42.90897" lon="-0.39372">
        <ele>1419.5239257812</ele>
        <time>2015-06-04T12:20:31Z</time>
      </trkpt>
      <trkpt lat="42.9088" lon="-0.39384">
        <ele>1421.4465332031</ele>
        <time>2015-06-04T12:20:49Z</time>
      </trkpt>
      <trkpt lat="42.90878" lon="-0.39385">
        <ele>1423.8498535156</ele>
        <time>2015-06-04T12:21:00Z</time>
      </trkpt>
      <trkpt lat="42.90878" lon="-0.39394">
        <ele>1426.2531738281</ele>
        <time>2015-06-04T12:21:11Z</time>
      </trkpt>
      <trkpt lat="42.90887" lon="-0.39402">
        <ele>1428.6564941406</ele>
        <time>2015-06-04T12:21:31Z</time>
      </trkpt>
      <trkpt lat="42.90891" lon="-0.39405">
        <ele>1426.2531738281</ele>
        <time>2015-06-04T12:21:43Z</time>
      </trkpt>
      <trkpt lat="42.90898" lon="-0.394">
        <ele>1425.7724609375</ele>
        <time>2015-06-04T12:23:03Z</time>
      </trkpt>
      <trkpt lat="42.90905" lon="-0.39412">
        <ele>1423.8498535156</ele>
        <time>2015-06-04T12:23:28Z</time>
      </trkpt>
      <trkpt lat="42.90901" lon="-0.39415">
        <ele>1422.888671875</ele>
        <time>2015-06-04T12:23:34Z</time>
      </trkpt>
      <trkpt lat="42.90889" lon="-0.39424">
        <ele>1419.0432128906</ele>
        <time>2015-06-04T12:23:48Z</time>
      </trkpt>
      <trkpt lat="42.90896" lon="-0.39446">
        <ele>1415.6787109375</ele>
        <time>2015-06-04T12:24:09Z</time>
      </trkpt>
      <trkpt lat="42.90902" lon="-0.39463">
        <ele>1415.1979980469</ele>
        <time>2015-06-04T12:24:37Z</time>
      </trkpt>
      <trkpt lat="42.90903" lon="-0.39475">
        <ele>1416.1591796875</ele>
        <time>2015-06-04T12:24:48Z</time>
      </trkpt>
      <trkpt lat="42.90905" lon="-0.39496">
        <ele>1412.7946777344</ele>
        <time>2015-06-04T12:25:13Z</time>
      </trkpt>
      <trkpt lat="42.909" lon="-0.39509">
        <ele>1410.8720703125</ele>
        <time>2015-06-04T12:25:30Z</time>
      </trkpt>
      <trkpt lat="42.90905" lon="-0.39516">
        <ele>1407.5075683594</ele>
        <time>2015-06-04T12:25:43Z</time>
      </trkpt>
      <trkpt lat="42.90908" lon="-0.39521">
        <ele>1407.0268554688</ele>
        <time>2015-06-04T12:25:50Z</time>
      </trkpt>
      <trkpt lat="42.90904" lon="-0.39536">
        <ele>1406.5461425781</ele>
        <time>2015-06-04T12:26:00Z</time>
      </trkpt>
      <trkpt lat="42.90894" lon="-0.39557">
        <ele>1404.6235351562</ele>
        <time>2015-06-04T12:26:13Z</time>
      </trkpt>
      <trkpt lat="42.90906" lon="-0.39565">
        <ele>1404.1430664062</ele>
        <time>2015-06-04T12:26:25Z</time>
      </trkpt>
      <trkpt lat="42.90904" lon="-0.3958">
        <ele>1403.662109375</ele>
        <time>2015-06-04T12:26:37Z</time>
      </trkpt>
      <trkpt lat="42.9091" lon="-0.39591">
        <ele>1400.2976074219</ele>
        <time>2015-06-04T12:26:52Z</time>
      </trkpt>
      <trkpt lat="42.90909" lon="-0.39594">
        <ele>1399.8168945312</ele>
        <time>2015-06-04T12:26:54Z</time>
      </trkpt>
      <trkpt lat="42.90904" lon="-0.39608">
        <ele>1400.2976074219</ele>
        <time>2015-06-04T12:27:08Z</time>
      </trkpt>
      <trkpt lat="42.90899" lon="-0.39623">
        <ele>1403.1813964844</ele>
        <time>2015-06-04T12:27:22Z</time>
      </trkpt>
      <trkpt lat="42.9091" lon="-0.3963">
        <ele>1405.5849609375</ele>
        <time>2015-06-04T12:27:32Z</time>
      </trkpt>
      <trkpt lat="42.90914" lon="-0.39633">
        <ele>1405.5849609375</ele>
        <time>2015-06-04T12:27:35Z</time>
      </trkpt>
      <trkpt lat="42.90923" lon="-0.39648">
        <ele>1407.98828125</ele>
        <time>2015-06-04T12:27:49Z</time>
      </trkpt>
      <trkpt lat="42.90935" lon="-0.39667">
        <ele>1410.8720703125</ele>
        <time>2015-06-04T12:28:18Z</time>
      </trkpt>
      <trkpt lat="42.90937" lon="-0.39668">
        <ele>1410.8720703125</ele>
        <time>2015-06-04T12:28:19Z</time>
      </trkpt>
      <trkpt lat="42.90939" lon="-0.39682">
        <ele>1414.2365722656</ele>
        <time>2015-06-04T12:28:35Z</time>
      </trkpt>
      <trkpt lat="42.90929" lon="-0.39705">
        <ele>1416.1591796875</ele>
        <time>2015-06-04T12:28:56Z</time>
      </trkpt>
      <trkpt lat="42.90945" lon="-0.39722">
        <ele>1417.1206054688</ele>
        <time>2015-06-04T12:29:11Z</time>
      </trkpt>
      <trkpt lat="42.90939" lon="-0.39742">
        <ele>1416.1591796875</ele>
        <time>2015-06-04T12:29:25Z</time>
      </trkpt>
      <trkpt lat="42.90935" lon="-0.39758">
        <ele>1415.1979980469</ele>
        <time>2015-06-04T12:29:40Z</time>
      </trkpt>
      <trkpt lat="42.90949" lon="-0.39777">
        <ele>1415.6787109375</ele>
        <time>2015-06-04T12:29:56Z</time>
      </trkpt>
      <trkpt lat="42.90946" lon="-0.3979">
        <ele>1416.6398925781</ele>
        <time>2015-06-04T12:30:14Z</time>
      </trkpt>
      <trkpt lat="42.9094" lon="-0.39804">
        <ele>1417.1206054688</ele>
        <time>2015-06-04T12:30:28Z</time>
      </trkpt>
      <trkpt lat="42.90941" lon="-0.39813">
        <ele>1417.1206054688</ele>
        <time>2015-06-04T12:30:40Z</time>
      </trkpt>
      <trkpt lat="42.90941" lon="-0.39817">
        <ele>1417.6010742188</ele>
        <time>2015-06-04T12:30:56Z</time>
      </trkpt>
      <trkpt lat="42.90945" lon="-0.39818">
        <ele>1415.6787109375</ele>
        <time>2015-06-04T12:31:13Z</time>
      </trkpt>
      <trkpt lat="42.90941" lon="-0.39819">
        <ele>1412.7946777344</ele>
        <time>2015-06-04T12:31:27Z</time>
      </trkpt>
      <trkpt lat="42.9094" lon="-0.39831">
        <ele>1411.3527832031</ele>
        <time>2015-06-04T12:31:46Z</time>
      </trkpt>
      <trkpt lat="42.90935" lon="-0.39843">
        <ele>1409.9106445312</ele>
        <time>2015-06-04T12:32:07Z</time>
      </trkpt>
      <trkpt lat="42.90927" lon="-0.3986">
        <ele>1407.0268554688</ele>
        <time>2015-06-04T12:32:24Z</time>
      </trkpt>
      <trkpt lat="42.90931" lon="-0.39866">
        <ele>1404.1430664062</ele>
        <time>2015-06-04T12:32:39Z</time>
      </trkpt>
      <trkpt lat="42.90932" lon="-0.39873">
        <ele>1403.1813964844</ele>
        <time>2015-06-04T12:32:53Z</time>
      </trkpt>
      <trkpt lat="42.90928" lon="-0.39874">
        <ele>1401.2587890625</ele>
        <time>2015-06-04T12:33:07Z</time>
      </trkpt>
      <trkpt lat="42.90925" lon="-0.3988">
        <ele>1398.3747558594</ele>
        <time>2015-06-04T12:33:22Z</time>
      </trkpt>
      <trkpt lat="42.9092" lon="-0.39891">
        <ele>1395.9716796875</ele>
        <time>2015-06-04T12:33:38Z</time>
      </trkpt>
      <trkpt lat="42.90916" lon="-0.39897">
        <ele>1395.9716796875</ele>
        <time>2015-06-04T12:33:44Z</time>
      </trkpt>
      <trkpt lat="42.90913" lon="-0.39911">
        <ele>1394.0490722656</ele>
        <time>2015-06-04T12:33:57Z</time>
      </trkpt>
      <trkpt lat="42.90911" lon="-0.3992">
        <ele>1393.568359375</ele>
        <time>2015-06-04T12:34:08Z</time>
      </trkpt>
      <trkpt lat="42.90907" lon="-0.39935">
        <ele>1391.6457519531</ele>
        <time>2015-06-04T12:34:21Z</time>
      </trkpt>
      <trkpt lat="42.90907" lon="-0.39947">
        <ele>1390.6843261719</ele>
        <time>2015-06-04T12:34:34Z</time>
      </trkpt>
      <trkpt lat="42.90903" lon="-0.39961">
        <ele>1388.7619628906</ele>
        <time>2015-06-04T12:34:46Z</time>
      </trkpt>
      <trkpt lat="42.90896" lon="-0.39974">
        <ele>1387.8002929688</ele>
        <time>2015-06-04T12:34:59Z</time>
      </trkpt>
      <trkpt lat="42.90891" lon="-0.39985">
        <ele>1385.8776855469</ele>
        <time>2015-06-04T12:35:13Z</time>
      </trkpt>
      <trkpt lat="42.90891" lon="-0.40004">
        <ele>1384.9165039062</ele>
        <time>2015-06-04T12:35:26Z</time>
      </trkpt>
      <trkpt lat="42.90888" lon="-0.40016">
        <ele>1382.9936523438</ele>
        <time>2015-06-04T12:35:38Z</time>
      </trkpt>
      <trkpt lat="42.90885" lon="-0.40027">
        <ele>1380.1098632812</ele>
        <time>2015-06-04T12:35:49Z</time>
      </trkpt>
      <trkpt lat="42.90887" lon="-0.40042">
        <ele>1380.1098632812</ele>
        <time>2015-06-04T12:35:57Z</time>
      </trkpt>
      <trkpt lat="42.90888" lon="-0.40053">
        <ele>1382.0324707031</ele>
        <time>2015-06-04T12:36:05Z</time>
      </trkpt>
      <trkpt lat="42.90892" lon="-0.40073">
        <ele>1382.9936523438</ele>
        <time>2015-06-04T12:36:20Z</time>
      </trkpt>
      <trkpt lat="42.90893" lon="-0.40082">
        <ele>1384.9165039062</ele>
        <time>2015-06-04T12:36:31Z</time>
      </trkpt>
      <trkpt lat="42.90895" lon="-0.40098">
        <ele>1384.9165039062</ele>
        <time>2015-06-04T12:36:47Z</time>
      </trkpt>
      <trkpt lat="42.90892" lon="-0.40108">
        <ele>1387.3195800781</ele>
        <time>2015-06-04T12:36:59Z</time>
      </trkpt>
      <trkpt lat="42.90887" lon="-0.40118">
        <ele>1388.28125</ele>
        <time>2015-06-04T12:37:12Z</time>
      </trkpt>
      <trkpt lat="42.90883" lon="-0.40126">
        <ele>1390.6843261719</ele>
        <time>2015-06-04T12:37:25Z</time>
      </trkpt>
      <trkpt lat="42.90881" lon="-0.40136">
        <ele>1392.1264648438</ele>
        <time>2015-06-04T12:37:39Z</time>
      </trkpt>
      <trkpt lat="42.9088" lon="-0.40144">
        <ele>1394.0490722656</ele>
        <time>2015-06-04T12:37:48Z</time>
      </trkpt>
      <trkpt lat="42.90876" lon="-0.40154">
        <ele>1395.0102539062</ele>
        <time>2015-06-04T12:38:01Z</time>
      </trkpt>
      <trkpt lat="42.90875" lon="-0.40162">
        <ele>1395.4909667969</ele>
        <time>2015-06-04T12:38:10Z</time>
      </trkpt>
      <trkpt lat="42.90873" lon="-0.40175">
        <ele>1395.9716796875</ele>
        <time>2015-06-04T12:38:24Z</time>
      </trkpt>
      <trkpt lat="42.90871" lon="-0.40181">
        <ele>1396.9328613281</ele>
        <time>2015-06-04T12:38:30Z</time>
      </trkpt>
      <trkpt lat="42.90868" lon="-0.40203">
        <ele>1397.8942871094</ele>
        <time>2015-06-04T12:38:46Z</time>
      </trkpt>
      <trkpt lat="42.90865" lon="-0.40213">
        <ele>1400.7780761719</ele>
        <time>2015-06-04T12:38:58Z</time>
      </trkpt>
      <trkpt lat="42.90861" lon="-0.40228">
        <ele>1403.662109375</ele>
        <time>2015-06-04T12:39:18Z</time>
      </trkpt>
      <trkpt lat="42.90859" lon="-0.40239">
        <ele>1406.0654296875</ele>
        <time>2015-06-04T12:39:30Z</time>
      </trkpt>
      <trkpt lat="42.90858" lon="-0.40249">
        <ele>1406.5461425781</ele>
        <time>2015-06-04T12:39:41Z</time>
      </trkpt>
      <trkpt lat="42.90858" lon="-0.40262">
        <ele>1406.5461425781</ele>
        <time>2015-06-04T12:39:53Z</time>
      </trkpt>
      <trkpt lat="42.90855" lon="-0.40273">
        <ele>1404.6235351562</ele>
        <time>2015-06-04T12:40:06Z</time>
      </trkpt>
      <trkpt lat="42.90852" lon="-0.40283">
        <ele>1402.7006835938</ele>
        <time>2015-06-04T12:40:18Z</time>
      </trkpt>
      <trkpt lat="42.90856" lon="-0.40297">
        <ele>1402.2199707031</ele>
        <time>2015-06-04T12:40:28Z</time>
      </trkpt>
      <trkpt lat="42.90856" lon="-0.40317">
        <ele>1400.7780761719</ele>
        <time>2015-06-04T12:40:42Z</time>
      </trkpt>
      <trkpt lat="42.90857" lon="-0.40331">
        <ele>1399.8168945312</ele>
        <time>2015-06-04T12:40:53Z</time>
      </trkpt>
      <trkpt lat="42.90858" lon="-0.40349">
        <ele>1399.8168945312</ele>
        <time>2015-06-04T12:41:03Z</time>
      </trkpt>
      <trkpt lat="42.90863" lon="-0.40367">
        <ele>1400.2976074219</ele>
        <time>2015-06-04T12:41:13Z</time>
      </trkpt>
      <trkpt lat="42.90861" lon="-0.40377">
        <ele>1396.4523925781</ele>
        <time>2015-06-04T12:41:28Z</time>
      </trkpt>
      <trkpt lat="42.90863" lon="-0.40391">
        <ele>1395.9716796875</ele>
        <time>2015-06-04T12:41:45Z</time>
      </trkpt>
      <trkpt lat="42.90869" lon="-0.404">
        <ele>1395.0102539062</ele>
        <time>2015-06-04T12:41:58Z</time>
      </trkpt>
      <trkpt lat="42.90878" lon="-0.40408">
        <ele>1395.0102539062</ele>
        <time>2015-06-04T12:42:08Z</time>
      </trkpt>
      <trkpt lat="42.90881" lon="-0.40423">
        <ele>1394.5295410156</ele>
        <time>2015-06-04T12:42:21Z</time>
      </trkpt>
      <trkpt lat="42.90889" lon="-0.40434">
        <ele>1391.6457519531</ele>
        <time>2015-06-04T12:42:37Z</time>
      </trkpt>
      <trkpt lat="42.90889" lon="-0.40435">
        <ele>1392.6071777344</ele>
        <time>2015-06-04T12:42:38Z</time>
      </trkpt>
      <trkpt lat="42.90898" lon="-0.40453">
        <ele>1392.1264648438</ele>
        <time>2015-06-04T12:42:54Z</time>
      </trkpt>
      <trkpt lat="42.90905" lon="-0.40455">
        <ele>1391.1650390625</ele>
        <time>2015-06-04T12:43:01Z</time>
      </trkpt>
      <trkpt lat="42.90914" lon="-0.40458">
        <ele>1391.1650390625</ele>
        <time>2015-06-04T12:43:13Z</time>
      </trkpt>
      <trkpt lat="42.9093" lon="-0.40463">
        <ele>1387.8002929688</ele>
        <time>2015-06-04T12:43:31Z</time>
      </trkpt>
      <trkpt lat="42.90948" lon="-0.40471">
        <ele>1384.4357910156</ele>
        <time>2015-06-04T12:44:05Z</time>
      </trkpt>
      <trkpt lat="42.90942" lon="-0.40482">
        <ele>1381.0712890625</ele>
        <time>2015-06-04T12:44:23Z</time>
      </trkpt>
      <trkpt lat="42.90939" lon="-0.40496">
        <ele>1377.7065429688</ele>
        <time>2015-06-04T12:45:00Z</time>
      </trkpt>
      <trkpt lat="42.90932" lon="-0.4049">
        <ele>1375.3032226562</ele>
        <time>2015-06-04T12:45:13Z</time>
      </trkpt>
      <trkpt lat="42.90923" lon="-0.40477">
        <ele>1371.9384765625</ele>
        <time>2015-06-04T12:45:36Z</time>
      </trkpt>
      <trkpt lat="42.9092" lon="-0.40499">
        <ele>1368.5739746094</ele>
        <time>2015-06-04T12:46:03Z</time>
      </trkpt>
      <trkpt lat="42.90918" lon="-0.40522">
        <ele>1364.7287597656</ele>
        <time>2015-06-04T12:46:25Z</time>
      </trkpt>
      <trkpt lat="42.90929" lon="-0.40529">
        <ele>1362.8061523438</ele>
        <time>2015-06-04T12:46:45Z</time>
      </trkpt>
      <trkpt lat="42.90937" lon="-0.40533">
        <ele>1359.9221191406</ele>
        <time>2015-06-04T12:47:02Z</time>
      </trkpt>
      <trkpt lat="42.9094" lon="-0.40545">
        <ele>1356.5576171875</ele>
        <time>2015-06-04T12:47:18Z</time>
      </trkpt>
      <trkpt lat="42.9094" lon="-0.40557">
        <ele>1353.1928710938</ele>
        <time>2015-06-04T12:47:36Z</time>
      </trkpt>
      <trkpt lat="42.90938" lon="-0.4056">
        <ele>1352.2314453125</ele>
        <time>2015-06-04T12:47:41Z</time>
      </trkpt>
      <trkpt lat="42.9093" lon="-0.40563">
        <ele>1349.34765625</ele>
        <time>2015-06-04T12:47:59Z</time>
      </trkpt>
      <trkpt lat="42.90927" lon="-0.40568">
        <ele>1345.9831542969</ele>
        <time>2015-06-04T12:48:20Z</time>
      </trkpt>
      <trkpt lat="42.90926" lon="-0.40578">
        <ele>1342.6186523438</ele>
        <time>2015-06-04T12:48:50Z</time>
      </trkpt>
      <trkpt lat="42.9092" lon="-0.40588">
        <ele>1339.2536621094</ele>
        <time>2015-06-04T12:49:08Z</time>
      </trkpt>
      <trkpt lat="42.90914" lon="-0.40589">
        <ele>1335.8891601562</ele>
        <time>2015-06-04T12:49:25Z</time>
      </trkpt>
      <trkpt lat="42.90923" lon="-0.40617">
        <ele>1333.0051269531</ele>
        <time>2015-06-04T12:49:49Z</time>
      </trkpt>
      <trkpt lat="42.9092" lon="-0.40628">
        <ele>1329.640625</ele>
        <time>2015-06-04T12:50:11Z</time>
      </trkpt>
      <trkpt lat="42.90912" lon="-0.4063">
        <ele>1326.2761230469</ele>
        <time>2015-06-04T12:50:30Z</time>
      </trkpt>
      <trkpt lat="42.90908" lon="-0.40639">
        <ele>1322.9113769531</ele>
        <time>2015-06-04T12:50:49Z</time>
      </trkpt>
      <trkpt lat="42.90911" lon="-0.40652">
        <ele>1319.546875</ele>
        <time>2015-06-04T12:51:07Z</time>
      </trkpt>
      <trkpt lat="42.90909" lon="-0.40665">
        <ele>1318.5854492188</ele>
        <time>2015-06-04T12:51:17Z</time>
      </trkpt>
      <trkpt lat="42.90906" lon="-0.40678">
        <ele>1317.1435546875</ele>
        <time>2015-06-04T12:51:29Z</time>
      </trkpt>
      <trkpt lat="42.90916" lon="-0.40695">
        <ele>1316.6628417969</ele>
        <time>2015-06-04T12:51:49Z</time>
      </trkpt>
      <trkpt lat="42.90917" lon="-0.40699">
        <ele>1315.7016601562</ele>
        <time>2015-06-04T12:51:56Z</time>
      </trkpt>
      <trkpt lat="42.90917" lon="-0.40716">
        <ele>1314.2595214844</ele>
        <time>2015-06-04T12:52:12Z</time>
      </trkpt>
      <trkpt lat="42.90914" lon="-0.40733">
        <ele>1315.2209472656</ele>
        <time>2015-06-04T12:52:34Z</time>
      </trkpt>
      <trkpt lat="42.90921" lon="-0.40754">
        <ele>1313.2983398438</ele>
        <time>2015-06-04T12:52:50Z</time>
      </trkpt>
      <trkpt lat="42.90921" lon="-0.40756">
        <ele>1311.8564453125</ele>
        <time>2015-06-04T12:52:53Z</time>
      </trkpt>
      <trkpt lat="42.90923" lon="-0.40769">
        <ele>1311.8564453125</ele>
        <time>2015-06-04T12:53:04Z</time>
      </trkpt>
      <trkpt lat="42.90927" lon="-0.40781">
        <ele>1309.453125</ele>
        <time>2015-06-04T12:53:18Z</time>
      </trkpt>
      <trkpt lat="42.90931" lon="-0.40793">
        <ele>1306.5688476562</ele>
        <time>2015-06-04T12:53:32Z</time>
      </trkpt>
      <trkpt lat="42.90933" lon="-0.40809">
        <ele>1304.6462402344</ele>
        <time>2015-06-04T12:53:54Z</time>
      </trkpt>
      <trkpt lat="42.90932" lon="-0.40812">
        <ele>1303.2043457031</ele>
        <time>2015-06-04T12:53:57Z</time>
      </trkpt>
      <trkpt lat="42.90932" lon="-0.40825">
        <ele>1299.83984375</ele>
        <time>2015-06-04T12:54:15Z</time>
      </trkpt>
      <trkpt lat="42.90926" lon="-0.4084">
        <ele>1296.4753417969</ele>
        <time>2015-06-04T12:54:30Z</time>
      </trkpt>
      <trkpt lat="42.90934" lon="-0.40858">
        <ele>1292.6301269531</ele>
        <time>2015-06-04T12:54:58Z</time>
      </trkpt>
      <trkpt lat="42.90941" lon="-0.4086">
        <ele>1291.1877441406</ele>
        <time>2015-06-04T12:55:10Z</time>
      </trkpt>
      <trkpt lat="42.9093" lon="-0.40863">
        <ele>1287.8232421875</ele>
        <time>2015-06-04T12:55:30Z</time>
      </trkpt>
      <trkpt lat="42.90948" lon="-0.40884">
        <ele>1286.3813476562</ele>
        <time>2015-06-04T12:55:54Z</time>
      </trkpt>
      <trkpt lat="42.90947" lon="-0.40887">
        <ele>1283.4973144531</ele>
        <time>2015-06-04T12:56:06Z</time>
      </trkpt>
      <trkpt lat="42.90946" lon="-0.40887">
        <ele>1283.4973144531</ele>
        <time>2015-06-04T12:56:07Z</time>
      </trkpt>
      <trkpt lat="42.90946" lon="-0.40896">
        <ele>1279.6520996094</ele>
        <time>2015-06-04T12:56:21Z</time>
      </trkpt>
      <trkpt lat="42.90955" lon="-0.40916">
        <ele>1277.2490234375</ele>
        <time>2015-06-04T12:56:50Z</time>
      </trkpt>
      <trkpt lat="42.90955" lon="-0.40929">
        <ele>1275.3259277344</ele>
        <time>2015-06-04T12:57:04Z</time>
      </trkpt>
      <trkpt lat="42.9096" lon="-0.40937">
        <ele>1273.4035644531</ele>
        <time>2015-06-04T12:57:23Z</time>
      </trkpt>
      <trkpt lat="42.9095" lon="-0.4094">
        <ele>1270.0388183594</ele>
        <time>2015-06-04T12:57:48Z</time>
      </trkpt>
      <trkpt lat="42.90952" lon="-0.40963">
        <ele>1267.1550292969</ele>
        <time>2015-06-04T12:58:16Z</time>
      </trkpt>
      <trkpt lat="42.90954" lon="-0.40978">
        <ele>1264.2709960938</ele>
        <time>2015-06-04T12:58:40Z</time>
      </trkpt>
      <trkpt lat="42.90943" lon="-0.40979">
        <ele>1262.3483886719</ele>
        <time>2015-06-04T12:59:01Z</time>
      </trkpt>
      <trkpt lat="42.90935" lon="-0.40978">
        <ele>1261.8679199219</ele>
        <time>2015-06-04T12:59:16Z</time>
      </trkpt>
      <trkpt lat="42.90946" lon="-0.40989">
        <ele>1258.0224609375</ele>
        <time>2015-06-04T12:59:39Z</time>
      </trkpt>
      <trkpt lat="42.90942" lon="-0.40994">
        <ele>1255.619140625</ele>
        <time>2015-06-04T12:59:52Z</time>
      </trkpt>
      <trkpt lat="42.90938" lon="-0.40999">
        <ele>1253.6965332031</ele>
        <time>2015-06-04T13:00:06Z</time>
      </trkpt>
      <trkpt lat="42.9094" lon="-0.41014">
        <ele>1252.2543945312</ele>
        <time>2015-06-04T13:00:20Z</time>
      </trkpt>
      <trkpt lat="42.90934" lon="-0.41022">
        <ele>1250.8125</ele>
        <time>2015-06-04T13:00:32Z</time>
      </trkpt>
      <trkpt lat="42.90934" lon="-0.4102">
        <ele>1251.7739257812</ele>
        <time>2015-06-04T13:00:45Z</time>
      </trkpt>
      <trkpt lat="42.90935" lon="-0.41013">
        <ele>1251.2932128906</ele>
        <time>2015-06-04T13:00:59Z</time>
      </trkpt>
      <trkpt lat="42.90939" lon="-0.41023">
        <ele>1252.2543945312</ele>
        <time>2015-06-04T13:01:10Z</time>
      </trkpt>
      <trkpt lat="42.90953" lon="-0.41039">
        <ele>1251.2932128906</ele>
        <time>2015-06-04T13:01:46Z</time>
      </trkpt>
      <trkpt lat="42.90941" lon="-0.41035">
        <ele>1251.7739257812</ele>
        <time>2015-06-04T13:02:21Z</time>
      </trkpt>
      <trkpt lat="42.90942" lon="-0.41035">
        <ele>1250.33203125</ele>
        <time>2015-06-04T13:02:46Z</time>
      </trkpt>
      <trkpt lat="42.90938" lon="-0.41034">
        <ele>1250.33203125</ele>
        <time>2015-06-04T13:03:24Z</time>
      </trkpt>
      <trkpt lat="42.9094" lon="-0.41032">
        <ele>1249.8513183594</ele>
        <time>2015-06-04T13:03:44Z</time>
      </trkpt>
      <trkpt lat="42.90954" lon="-0.41024">
        <ele>1248.8898925781</ele>
        <time>2015-06-04T13:04:01Z</time>
      </trkpt>
      <trkpt lat="42.90942" lon="-0.41034">
        <ele>1246.9672851562</ele>
        <time>2015-06-04T13:04:14Z</time>
      </trkpt>
      <trkpt lat="42.90945" lon="-0.41044">
        <ele>1244.0834960938</ele>
        <time>2015-06-04T13:04:27Z</time>
      </trkpt>
      <trkpt lat="42.90948" lon="-0.41035">
        <ele>1243.6025390625</ele>
        <time>2015-06-04T13:04:44Z</time>
      </trkpt>
      <trkpt lat="42.90955" lon="-0.41039">
        <ele>1241.6799316406</ele>
        <time>2015-06-04T13:05:08Z</time>
      </trkpt>
      <trkpt lat="42.9095" lon="-0.41045">
        <ele>1238.3154296875</ele>
        <time>2015-06-04T13:05:22Z</time>
      </trkpt>
      <trkpt lat="42.90946" lon="-0.41052">
        <ele>1235.912109375</ele>
        <time>2015-06-04T13:05:36Z</time>
      </trkpt>
      <trkpt lat="42.90948" lon="-0.41063">
        <ele>1233.5087890625</ele>
        <time>2015-06-04T13:05:50Z</time>
      </trkpt>
      <trkpt lat="42.90945" lon="-0.41066">
        <ele>1232.0668945312</ele>
        <time>2015-06-04T13:06:06Z</time>
      </trkpt>
      <trkpt lat="42.90948" lon="-0.41076">
        <ele>1228.7023925781</ele>
        <time>2015-06-04T13:06:19Z</time>
      </trkpt>
      <trkpt lat="42.90944" lon="-0.41071">
        <ele>1225.8181152344</ele>
        <time>2015-06-04T13:06:30Z</time>
      </trkpt>
      <trkpt lat="42.90943" lon="-0.41083">
        <ele>1222.4536132812</ele>
        <time>2015-06-04T13:06:52Z</time>
      </trkpt>
      <trkpt lat="42.90937" lon="-0.41081">
        <ele>1219.5698242188</ele>
        <time>2015-06-04T13:07:15Z</time>
      </trkpt>
      <trkpt lat="42.90937" lon="-0.41086">
        <ele>1217.1665039062</ele>
        <time>2015-06-04T13:07:23Z</time>
      </trkpt>
      <trkpt lat="42.90942" lon="-0.41107">
        <ele>1214.7631835938</ele>
        <time>2015-06-04T13:07:48Z</time>
      </trkpt>
      <trkpt lat="42.90938" lon="-0.41098">
        <ele>1211.8791503906</ele>
        <time>2015-06-04T13:08:14Z</time>
      </trkpt>
      <trkpt lat="42.90938" lon="-0.41114">
        <ele>1210.9177246094</ele>
        <time>2015-06-04T13:08:33Z</time>
      </trkpt>
      <trkpt lat="42.90943" lon="-0.4114">
        <ele>1208.0339355469</ele>
        <time>2015-06-04T13:08:57Z</time>
      </trkpt>
      <trkpt lat="42.90942" lon="-0.41146">
        <ele>1207.5532226562</ele>
        <time>2015-06-04T13:09:02Z</time>
      </trkpt>
      <trkpt lat="42.90943" lon="-0.4115">
        <ele>1207.0725097656</ele>
        <time>2015-06-04T13:09:17Z</time>
      </trkpt>
      <trkpt lat="42.90941" lon="-0.41157">
        <ele>1203.2272949219</ele>
        <time>2015-06-04T13:09:37Z</time>
      </trkpt>
      <trkpt lat="42.90942" lon="-0.41157">
        <ele>1203.2272949219</ele>
        <time>2015-06-04T13:09:38Z</time>
      </trkpt>
      <trkpt lat="42.90946" lon="-0.41169">
        <ele>1202.2658691406</ele>
        <time>2015-06-04T13:09:58Z</time>
      </trkpt>
      <trkpt lat="42.90945" lon="-0.41173">
        <ele>1198.9013671875</ele>
        <time>2015-06-04T13:10:16Z</time>
      </trkpt>
      <trkpt lat="42.90943" lon="-0.41169">
        <ele>1196.017578125</ele>
        <time>2015-06-04T13:10:38Z</time>
      </trkpt>
      <trkpt lat="42.90934" lon="-0.41174">
        <ele>1192.6528320312</ele>
        <time>2015-06-04T13:10:58Z</time>
      </trkpt>
      <trkpt lat="42.90931" lon="-0.41188">
        <ele>1190.2495117188</ele>
        <time>2015-06-04T13:11:20Z</time>
      </trkpt>
      <trkpt lat="42.90925" lon="-0.41191">
        <ele>1188.8076171875</ele>
        <time>2015-06-04T13:11:33Z</time>
      </trkpt>
      <trkpt lat="42.90921" lon="-0.41201">
        <ele>1185.9235839844</ele>
        <time>2015-06-04T13:11:47Z</time>
      </trkpt>
      <trkpt lat="42.9093" lon="-0.41217">
        <ele>1185.4428710938</ele>
        <time>2015-06-04T13:12:02Z</time>
      </trkpt>
      <trkpt lat="42.90936" lon="-0.41237">
        <ele>1183.5202636719</ele>
        <time>2015-06-04T13:12:19Z</time>
      </trkpt>
      <trkpt lat="42.90944" lon="-0.41246">
        <ele>1181.1171875</ele>
        <time>2015-06-04T13:12:37Z</time>
      </trkpt>
      <trkpt lat="42.9095" lon="-0.41251">
        <ele>1179.1940917969</ele>
        <time>2015-06-04T13:12:54Z</time>
      </trkpt>
      <trkpt lat="42.90957" lon="-0.41254">
        <ele>1178.2329101562</ele>
        <time>2015-06-04T13:13:07Z</time>
      </trkpt>
      <trkpt lat="42.90952" lon="-0.4125">
        <ele>1174.8684082031</ele>
        <time>2015-06-04T13:13:33Z</time>
      </trkpt>
      <trkpt lat="42.90944" lon="-0.41248">
        <ele>1172.9458007812</ele>
        <time>2015-06-04T13:13:48Z</time>
      </trkpt>
      <trkpt lat="42.90931" lon="-0.41255">
        <ele>1171.0231933594</ele>
        <time>2015-06-04T13:14:09Z</time>
      </trkpt>
      <trkpt lat="42.90919" lon="-0.41267">
        <ele>1170.0617675781</ele>
        <time>2015-06-04T13:14:27Z</time>
      </trkpt>
      <trkpt lat="42.90905" lon="-0.4128">
        <ele>1169.1005859375</ele>
        <time>2015-06-04T13:14:43Z</time>
      </trkpt>
      <trkpt lat="42.90903" lon="-0.41286">
        <ele>1168.6198730469</ele>
        <time>2015-06-04T13:14:48Z</time>
      </trkpt>
      <trkpt lat="42.90894" lon="-0.4131">
        <ele>1167.1779785156</ele>
        <time>2015-06-04T13:15:03Z</time>
      </trkpt>
      <trkpt lat="42.90882" lon="-0.41322">
        <ele>1167.1779785156</ele>
        <time>2015-06-04T13:15:18Z</time>
      </trkpt>
      <trkpt lat="42.90872" lon="-0.41324">
        <ele>1166.2165527344</ele>
        <time>2015-06-04T13:15:30Z</time>
      </trkpt>
      <trkpt lat="42.90862" lon="-0.41332">
        <ele>1164.7746582031</ele>
        <time>2015-06-04T13:15:41Z</time>
      </trkpt>
      <trkpt lat="42.90852" lon="-0.41347">
        <ele>1164.2939453125</ele>
        <time>2015-06-04T13:15:54Z</time>
      </trkpt>
      <trkpt lat="42.90845" lon="-0.41352">
        <ele>1162.37109375</ele>
        <time>2015-06-04T13:16:05Z</time>
      </trkpt>
      <trkpt lat="42.9083" lon="-0.41367">
        <ele>1161.890625</ele>
        <time>2015-06-04T13:16:22Z</time>
      </trkpt>
      <trkpt lat="42.90819" lon="-0.41386">
        <ele>1161.890625</ele>
        <time>2015-06-04T13:16:37Z</time>
      </trkpt>
      <trkpt lat="42.90809" lon="-0.41408">
        <ele>1161.890625</ele>
        <time>2015-06-04T13:16:53Z</time>
      </trkpt>
      <trkpt lat="42.90796" lon="-0.41423">
        <ele>1160.4484863281</ele>
        <time>2015-06-04T13:17:10Z</time>
      </trkpt>
      <trkpt lat="42.90788" lon="-0.41433">
        <ele>1158.0454101562</ele>
        <time>2015-06-04T13:17:24Z</time>
      </trkpt>
      <trkpt lat="42.90782" lon="-0.41441">
        <ele>1155.6420898438</ele>
        <time>2015-06-04T13:17:36Z</time>
      </trkpt>
      <trkpt lat="42.9077" lon="-0.41449">
        <ele>1152.27734375</ele>
        <time>2015-06-04T13:17:52Z</time>
      </trkpt>
      <trkpt lat="42.90759" lon="-0.4145">
        <ele>1149.8742675781</ele>
        <time>2015-06-04T13:18:04Z</time>
      </trkpt>
      <trkpt lat="42.9075" lon="-0.41453">
        <ele>1148.9128417969</ele>
        <time>2015-06-04T13:18:15Z</time>
      </trkpt>
      <trkpt lat="42.90744" lon="-0.41452">
        <ele>1148.9128417969</ele>
        <time>2015-06-04T13:18:25Z</time>
      </trkpt>
      <trkpt lat="42.90729" lon="-0.41443">
        <ele>1147.9514160156</ele>
        <time>2015-06-04T13:18:40Z</time>
      </trkpt>
      <trkpt lat="42.90717" lon="-0.41437">
        <ele>1147.470703125</ele>
        <time>2015-06-04T13:18:53Z</time>
      </trkpt>
      <trkpt lat="42.90702" lon="-0.41435">
        <ele>1146.5095214844</ele>
        <time>2015-06-04T13:19:05Z</time>
      </trkpt>
      <trkpt lat="42.90702" lon="-0.41425">
        <ele>1146.9899902344</ele>
        <time>2015-06-04T13:19:19Z</time>
      </trkpt>
      <trkpt lat="42.90702" lon="-0.41414">
        <ele>1146.9899902344</ele>
        <time>2015-06-04T13:19:28Z</time>
      </trkpt>
      <trkpt lat="42.90707" lon="-0.41397">
        <ele>1147.470703125</ele>
        <time>2015-06-04T13:19:42Z</time>
      </trkpt>
      <trkpt lat="42.90704" lon="-0.41382">
        <ele>1147.470703125</ele>
        <time>2015-06-04T13:19:55Z</time>
      </trkpt>
      <trkpt lat="42.9069" lon="-0.41366">
        <ele>1148.4321289062</ele>
        <time>2015-06-04T13:20:11Z</time>
      </trkpt>
      <trkpt lat="42.90688" lon="-0.41365">
        <ele>1147.9514160156</ele>
        <time>2015-06-04T13:20:13Z</time>
      </trkpt>
      <trkpt lat="42.90684" lon="-0.41355">
        <ele>1149.3935546875</ele>
        <time>2015-06-04T13:20:25Z</time>
      </trkpt>
      <trkpt lat="42.90682" lon="-0.41344">
        <ele>1150.8354492188</ele>
        <time>2015-06-04T13:20:37Z</time>
      </trkpt>
      <trkpt lat="42.90671" lon="-0.41318">
        <ele>1152.27734375</ele>
        <time>2015-06-04T13:20:57Z</time>
      </trkpt>
      <trkpt lat="42.90665" lon="-0.41306">
        <ele>1153.2387695312</ele>
        <time>2015-06-04T13:21:08Z</time>
      </trkpt>
      <trkpt lat="42.90656" lon="-0.41292">
        <ele>1153.7194824219</ele>
        <time>2015-06-04T13:21:21Z</time>
      </trkpt>
      <trkpt lat="42.90639" lon="-0.41278">
        <ele>1153.7194824219</ele>
        <time>2015-06-04T13:21:39Z</time>
      </trkpt>
      <trkpt lat="42.90627" lon="-0.41266">
        <ele>1153.7194824219</ele>
        <time>2015-06-04T13:21:50Z</time>
      </trkpt>
      <trkpt lat="42.90615" lon="-0.4126">
        <ele>1152.27734375</ele>
        <time>2015-06-04T13:22:02Z</time>
      </trkpt>
      <trkpt lat="42.90598" lon="-0.41252">
        <ele>1150.8354492188</ele>
        <time>2015-06-04T13:22:20Z</time>
      </trkpt>
      <trkpt lat="42.9058" lon="-0.41246">
        <ele>1149.3935546875</ele>
        <time>2015-06-04T13:22:38Z</time>
      </trkpt>
      <trkpt lat="42.90561" lon="-0.41249">
        <ele>1146.5095214844</ele>
        <time>2015-06-04T13:22:56Z</time>
      </trkpt>
      <trkpt lat="42.90552" lon="-0.41252">
        <ele>1146.5095214844</ele>
        <time>2015-06-04T13:23:05Z</time>
      </trkpt>
      <trkpt lat="42.9054" lon="-0.41253">
        <ele>1145.5480957031</ele>
        <time>2015-06-04T13:23:14Z</time>
      </trkpt>
      <trkpt lat="42.9053" lon="-0.41261">
        <ele>1145.5480957031</ele>
        <time>2015-06-04T13:23:26Z</time>
      </trkpt>
      <trkpt lat="42.90515" lon="-0.41279">
        <ele>1144.5866699219</ele>
        <time>2015-06-04T13:23:42Z</time>
      </trkpt>
      <trkpt lat="42.90508" lon="-0.4129">
        <ele>1145.0673828125</ele>
        <time>2015-06-04T13:23:54Z</time>
      </trkpt>
      <trkpt lat="42.90502" lon="-0.41292">
        <ele>1148.9128417969</ele>
        <time>2015-06-04T13:24:04Z</time>
      </trkpt>
      <trkpt lat="42.90495" lon="-0.41298">
        <ele>1149.8742675781</ele>
        <time>2015-06-04T13:24:14Z</time>
      </trkpt>
      <trkpt lat="42.90484" lon="-0.413">
        <ele>1151.3161621094</ele>
        <time>2015-06-04T13:24:24Z</time>
      </trkpt>
      <trkpt lat="42.90475" lon="-0.41301">
        <ele>1150.3549804688</ele>
        <time>2015-06-04T13:24:34Z</time>
      </trkpt>
      <trkpt lat="42.90467" lon="-0.41308">
        <ele>1147.9514160156</ele>
        <time>2015-06-04T13:24:45Z</time>
      </trkpt>
      <trkpt lat="42.9046" lon="-0.41312">
        <ele>1146.0288085938</ele>
        <time>2015-06-04T13:24:53Z</time>
      </trkpt>
      <trkpt lat="42.90449" lon="-0.41315">
        <ele>1144.1062011719</ele>
        <time>2015-06-04T13:25:06Z</time>
      </trkpt>
      <trkpt lat="42.90441" lon="-0.41324">
        <ele>1142.6643066406</ele>
        <time>2015-06-04T13:25:22Z</time>
      </trkpt>
      <trkpt lat="42.90425" lon="-0.4133">
        <ele>1139.2995605469</ele>
        <time>2015-06-04T13:25:42Z</time>
      </trkpt>
      <trkpt lat="42.90423" lon="-0.4133">
        <ele>1138.8190917969</ele>
        <time>2015-06-04T13:25:54Z</time>
      </trkpt>
      <trkpt lat="42.90415" lon="-0.41332">
        <ele>1138.8190917969</ele>
        <time>2015-06-04T13:26:04Z</time>
      </trkpt>
      <trkpt lat="42.9041" lon="-0.41326">
        <ele>1139.2995605469</ele>
        <time>2015-06-04T13:26:18Z</time>
      </trkpt>
      <trkpt lat="42.90408" lon="-0.41322">
        <ele>1138.8190917969</ele>
        <time>2015-06-04T13:26:33Z</time>
      </trkpt>
      <trkpt lat="42.90402" lon="-0.41324">
        <ele>1138.8190917969</ele>
        <time>2015-06-04T13:26:55Z</time>
      </trkpt>
      <trkpt lat="42.90403" lon="-0.41316">
        <ele>1138.3383789062</ele>
        <time>2015-06-04T13:27:19Z</time>
      </trkpt>
      <trkpt lat="42.90386" lon="-0.41328">
        <ele>1139.7802734375</ele>
        <time>2015-06-04T13:27:41Z</time>
      </trkpt>
      <trkpt lat="42.90382" lon="-0.41347">
        <ele>1143.1447753906</ele>
        <time>2015-06-04T13:28:08Z</time>
      </trkpt>
      <trkpt lat="42.90386" lon="-0.41362">
        <ele>1143.6254882812</ele>
        <time>2015-06-04T13:28:35Z</time>
      </trkpt>
      <trkpt lat="42.90379" lon="-0.41371">
        <ele>1144.1062011719</ele>
        <time>2015-06-04T13:29:03Z</time>
      </trkpt>
      <trkpt lat="42.90385" lon="-0.41393">
        <ele>1146.0288085938</ele>
        <time>2015-06-04T13:29:34Z</time>
      </trkpt>
      <trkpt lat="42.90388" lon="-0.41402">
        <ele>1146.0288085938</ele>
        <time>2015-06-04T13:29:47Z</time>
      </trkpt>
      <trkpt lat="42.90393" lon="-0.4142">
        <ele>1145.0673828125</ele>
        <time>2015-06-04T13:30:06Z</time>
      </trkpt>
      <trkpt lat="42.90402" lon="-0.41437">
        <ele>1144.5866699219</ele>
        <time>2015-06-04T13:30:27Z</time>
      </trkpt>
      <trkpt lat="42.90412" lon="-0.41433">
        <ele>1144.5866699219</ele>
        <time>2015-06-04T13:30:42Z</time>
      </trkpt>
      <trkpt lat="42.90419" lon="-0.4144">
        <ele>1143.6254882812</ele>
        <time>2015-06-04T13:30:52Z</time>
      </trkpt>
      <trkpt lat="42.90429" lon="-0.41454">
        <ele>1144.1062011719</ele>
        <time>2015-06-04T13:31:02Z</time>
      </trkpt>
      <trkpt lat="42.90439" lon="-0.41463">
        <ele>1144.5866699219</ele>
        <time>2015-06-04T13:31:12Z</time>
      </trkpt>
      <trkpt lat="42.9044" lon="-0.41466">
        <ele>1145.0673828125</ele>
        <time>2015-06-04T13:31:14Z</time>
      </trkpt>
      <trkpt lat="42.90447" lon="-0.41477">
        <ele>1147.470703125</ele>
        <time>2015-06-04T13:31:26Z</time>
      </trkpt>
      <trkpt lat="42.90448" lon="-0.41478">
        <ele>1148.9128417969</ele>
        <time>2015-06-04T13:31:29Z</time>
      </trkpt>
      <trkpt lat="42.90456" lon="-0.41487">
        <ele>1151.796875</ele>
        <time>2015-06-04T13:31:44Z</time>
      </trkpt>
      <trkpt lat="42.90469" lon="-0.41496">
        <ele>1154.2001953125</ele>
        <time>2015-06-04T13:31:56Z</time>
      </trkpt>
      <trkpt lat="42.90475" lon="-0.41504">
        <ele>1154.2001953125</ele>
        <time>2015-06-04T13:32:06Z</time>
      </trkpt>
      <trkpt lat="42.90479" lon="-0.41517">
        <ele>1153.2387695312</ele>
        <time>2015-06-04T13:32:17Z</time>
      </trkpt>
      <trkpt lat="42.90482" lon="-0.41524">
        <ele>1151.796875</ele>
        <time>2015-06-04T13:32:32Z</time>
      </trkpt>
      <trkpt lat="42.90484" lon="-0.41536">
        <ele>1148.4321289062</ele>
        <time>2015-06-04T13:32:47Z</time>
      </trkpt>
      <trkpt lat="42.90489" lon="-0.41546">
        <ele>1146.0288085938</ele>
        <time>2015-06-04T13:32:58Z</time>
      </trkpt>
      <trkpt lat="42.90497" lon="-0.41559">
        <ele>1143.6254882812</ele>
        <time>2015-06-04T13:33:14Z</time>
      </trkpt>
      <trkpt lat="42.90503" lon="-0.41567">
        <ele>1141.2221679688</ele>
        <time>2015-06-04T13:33:28Z</time>
      </trkpt>
      <trkpt lat="42.90509" lon="-0.41577">
        <ele>1139.7802734375</ele>
        <time>2015-06-04T13:33:41Z</time>
      </trkpt>
      <trkpt lat="42.90511" lon="-0.41583">
        <ele>1138.3383789062</ele>
        <time>2015-06-04T13:33:54Z</time>
      </trkpt>
      <trkpt lat="42.90523" lon="-0.41596">
        <ele>1138.3383789062</ele>
        <time>2015-06-04T13:34:12Z</time>
      </trkpt>
      <trkpt lat="42.90531" lon="-0.4161">
        <ele>1138.3383789062</ele>
        <time>2015-06-04T13:34:37Z</time>
      </trkpt>
      <trkpt lat="42.90541" lon="-0.41622">
        <ele>1137.8576660156</ele>
        <time>2015-06-04T13:34:51Z</time>
      </trkpt>
      <trkpt lat="42.90545" lon="-0.41631">
        <ele>1137.8576660156</ele>
        <time>2015-06-04T13:35:02Z</time>
      </trkpt>
      <trkpt lat="42.90555" lon="-0.41654">
        <ele>1135.9350585938</ele>
        <time>2015-06-04T13:35:34Z</time>
      </trkpt>
      <trkpt lat="42.90552" lon="-0.41664">
        <ele>1135.9350585938</ele>
        <time>2015-06-04T13:35:49Z</time>
      </trkpt>
      <trkpt lat="42.90562" lon="-0.41675">
        <ele>1135.4543457031</ele>
        <time>2015-06-04T13:36:04Z</time>
      </trkpt>
      <trkpt lat="42.90568" lon="-0.41673">
        <ele>1135.9350585938</ele>
        <time>2015-06-04T13:36:12Z</time>
      </trkpt>
      <trkpt lat="42.90575" lon="-0.41679">
        <ele>1135.9350585938</ele>
        <time>2015-06-04T13:36:27Z</time>
      </trkpt>
      <trkpt lat="42.90581" lon="-0.41701">
        <ele>1138.8190917969</ele>
        <time>2015-06-04T13:37:01Z</time>
      </trkpt>
      <trkpt lat="42.90592" lon="-0.41726">
        <ele>1140.7414550781</ele>
        <time>2015-06-04T13:37:26Z</time>
      </trkpt>
      <trkpt lat="42.90596" lon="-0.41734">
        <ele>1141.7028808594</ele>
        <time>2015-06-04T13:37:37Z</time>
      </trkpt>
      <trkpt lat="42.906" lon="-0.4174">
        <ele>1141.7028808594</ele>
        <time>2015-06-04T13:37:52Z</time>
      </trkpt>
      <trkpt lat="42.906" lon="-0.41748">
        <ele>1142.18359375</ele>
        <time>2015-06-04T13:38:15Z</time>
      </trkpt>
      <trkpt lat="42.90606" lon="-0.41746">
        <ele>1142.6643066406</ele>
        <time>2015-06-04T13:38:28Z</time>
      </trkpt>
      <trkpt lat="42.90616" lon="-0.4177">
        <ele>1143.6254882812</ele>
        <time>2015-06-04T13:38:47Z</time>
      </trkpt>
      <trkpt lat="42.9062" lon="-0.41785">
        <ele>1143.1447753906</ele>
        <time>2015-06-04T13:38:59Z</time>
      </trkpt>
      <trkpt lat="42.90617" lon="-0.41797">
        <ele>1144.1062011719</ele>
        <time>2015-06-04T13:39:14Z</time>
      </trkpt>
      <trkpt lat="42.90623" lon="-0.41815">
        <ele>1144.1062011719</ele>
        <time>2015-06-04T13:39:57Z</time>
      </trkpt>
      <trkpt lat="42.9062" lon="-0.41814">
        <ele>1143.1447753906</ele>
        <time>2015-06-04T13:41:06Z</time>
      </trkpt>
      <trkpt lat="42.90622" lon="-0.41805">
        <ele>1143.1447753906</ele>
        <time>2015-06-04T13:41:18Z</time>
      </trkpt>
      <trkpt lat="42.90614" lon="-0.41817">
        <ele>1144.1062011719</ele>
        <time>2015-06-04T13:41:45Z</time>
      </trkpt>
      <trkpt lat="42.90619" lon="-0.41816">
        <ele>1142.6643066406</ele>
        <time>2015-06-04T13:41:58Z</time>
      </trkpt>
      <trkpt lat="42.90615" lon="-0.41818">
        <ele>1140.7414550781</ele>
        <time>2015-06-04T13:42:03Z</time>
      </trkpt>
      <trkpt lat="42.90622" lon="-0.41818">
        <ele>1137.8576660156</ele>
        <time>2015-06-04T13:42:14Z</time>
      </trkpt>
      <trkpt lat="42.90634" lon="-0.41823">
        <ele>1136.4157714844</ele>
        <time>2015-06-04T13:42:31Z</time>
      </trkpt>
      <trkpt lat="42.90649" lon="-0.41843">
        <ele>1133.5317382812</ele>
        <time>2015-06-04T13:42:48Z</time>
      </trkpt>
      <trkpt lat="42.9065" lon="-0.41848">
        <ele>1132.5705566406</ele>
        <time>2015-06-04T13:42:51Z</time>
      </trkpt>
      <trkpt lat="42.90632" lon="-0.4187">
        <ele>1131.6088867188</ele>
        <time>2015-06-04T13:43:06Z</time>
      </trkpt>
      <trkpt lat="42.9066" lon="-0.41877">
        <ele>1130.6477050781</ele>
        <time>2015-06-04T13:43:17Z</time>
      </trkpt>
      <trkpt lat="42.90662" lon="-0.41892">
        <ele>1132.08984375</ele>
        <time>2015-06-04T13:43:34Z</time>
      </trkpt>
      <trkpt lat="42.90658" lon="-0.41901">
        <ele>1133.0510253906</ele>
        <time>2015-06-04T13:43:45Z</time>
      </trkpt>
      <trkpt lat="42.90656" lon="-0.41913">
        <ele>1134.9738769531</ele>
        <time>2015-06-04T13:43:57Z</time>
      </trkpt>
      <trkpt lat="42.90648" lon="-0.41923">
        <ele>1136.4157714844</ele>
        <time>2015-06-04T13:44:16Z</time>
      </trkpt>
      <trkpt lat="42.90639" lon="-0.41928">
        <ele>1133.0510253906</ele>
        <time>2015-06-04T13:44:38Z</time>
      </trkpt>
      <trkpt lat="42.90635" lon="-0.41944">
        <ele>1131.6088867188</ele>
        <time>2015-06-04T13:44:49Z</time>
      </trkpt>
      <trkpt lat="42.90624" lon="-0.41956">
        <ele>1129.6862792969</ele>
        <time>2015-06-04T13:45:05Z</time>
      </trkpt>
      <trkpt lat="42.90617" lon="-0.41966">
        <ele>1129.6862792969</ele>
        <time>2015-06-04T13:45:17Z</time>
      </trkpt>
      <trkpt lat="42.90613" lon="-0.41984">
        <ele>1127.763671875</ele>
        <time>2015-06-04T13:45:31Z</time>
      </trkpt>
      <trkpt lat="42.90606" lon="-0.42002">
        <ele>1124.3991699219</ele>
        <time>2015-06-04T13:45:56Z</time>
      </trkpt>
      <trkpt lat="42.90606" lon="-0.42014">
        <ele>1121.5151367188</ele>
        <time>2015-06-04T13:46:08Z</time>
      </trkpt>
      <trkpt lat="42.90606" lon="-0.42039">
        <ele>1120.0732421875</ele>
        <time>2015-06-04T13:46:34Z</time>
      </trkpt>
      <trkpt lat="42.90603" lon="-0.42052">
        <ele>1119.5927734375</ele>
        <time>2015-06-04T13:46:50Z</time>
      </trkpt>
      <trkpt lat="42.90602" lon="-0.42062">
        <ele>1118.6313476562</ele>
        <time>2015-06-04T13:47:03Z</time>
      </trkpt>
      <trkpt lat="42.906" lon="-0.42079">
        <ele>1118.1506347656</ele>
        <time>2015-06-04T13:47:15Z</time>
      </trkpt>
      <trkpt lat="42.90595" lon="-0.42099">
        <ele>1115.7473144531</ele>
        <time>2015-06-04T13:47:31Z</time>
      </trkpt>
      <trkpt lat="42.90597" lon="-0.42125">
        <ele>1113.3439941406</ele>
        <time>2015-06-04T13:48:01Z</time>
      </trkpt>
      <trkpt lat="42.90601" lon="-0.42145">
        <ele>1113.3439941406</ele>
        <time>2015-06-04T13:48:17Z</time>
      </trkpt>
      <trkpt lat="42.90597" lon="-0.42166">
        <ele>1112.86328125</ele>
        <time>2015-06-04T13:48:30Z</time>
      </trkpt>
      <trkpt lat="42.90594" lon="-0.42186">
        <ele>1113.3439941406</ele>
        <time>2015-06-04T13:48:44Z</time>
      </trkpt>
      <trkpt lat="42.9059" lon="-0.42202">
        <ele>1115.2666015625</ele>
        <time>2015-06-04T13:48:56Z</time>
      </trkpt>
      <trkpt lat="42.90587" lon="-0.42205">
        <ele>1114.7858886719</ele>
        <time>2015-06-04T13:48:59Z</time>
      </trkpt>
      <trkpt lat="42.90579" lon="-0.42214">
        <ele>1115.7473144531</ele>
        <time>2015-06-04T13:49:08Z</time>
      </trkpt>
      <trkpt lat="42.90571" lon="-0.42227">
        <ele>1116.2280273438</ele>
        <time>2015-06-04T13:49:19Z</time>
      </trkpt>
      <trkpt lat="42.90562" lon="-0.42244">
        <ele>1117.189453125</ele>
        <time>2015-06-04T13:49:32Z</time>
      </trkpt>
      <trkpt lat="42.90554" lon="-0.42263">
        <ele>1114.3051757812</ele>
        <time>2015-06-04T13:49:51Z</time>
      </trkpt>
      <trkpt lat="42.9055" lon="-0.42256">
        <ele>1113.3439941406</ele>
        <time>2015-06-04T13:50:17Z</time>
      </trkpt>
      <trkpt lat="42.90564" lon="-0.42257">
        <ele>1113.3439941406</ele>
        <time>2015-06-04T13:50:30Z</time>
      </trkpt>
      <trkpt lat="42.9058" lon="-0.42252">
        <ele>1110.9406738281</ele>
        <time>2015-06-04T13:50:43Z</time>
      </trkpt>
      <trkpt lat="42.90596" lon="-0.4224">
        <ele>1109.4987792969</ele>
        <time>2015-06-04T13:50:58Z</time>
      </trkpt>
      <trkpt lat="42.90605" lon="-0.42231">
        <ele>1108.0568847656</ele>
        <time>2015-06-04T13:51:06Z</time>
      </trkpt>
      <trkpt lat="42.9061" lon="-0.4222">
        <ele>1108.0568847656</ele>
        <time>2015-06-04T13:51:12Z</time>
      </trkpt>
      <trkpt lat="42.9061" lon="-0.42214">
        <ele>1107.576171875</ele>
        <time>2015-06-04T13:51:15Z</time>
      </trkpt>
      <trkpt lat="42.90615" lon="-0.42186">
        <ele>1104.2116699219</ele>
        <time>2015-06-04T13:51:31Z</time>
      </trkpt>
      <trkpt lat="42.90619" lon="-0.42165">
        <ele>1102.2888183594</ele>
        <time>2015-06-04T13:51:44Z</time>
      </trkpt>
      <trkpt lat="42.90625" lon="-0.42146">
        <ele>1101.3276367188</ele>
        <time>2015-06-04T13:51:58Z</time>
      </trkpt>
      <trkpt lat="42.90628" lon="-0.42128">
        <ele>1099.4047851562</ele>
        <time>2015-06-04T13:52:10Z</time>
      </trkpt>
      <trkpt lat="42.90629" lon="-0.42117">
        <ele>1098.9240722656</ele>
        <time>2015-06-04T13:52:16Z</time>
      </trkpt>
      <trkpt lat="42.90629" lon="-0.42111">
        <ele>1098.443359375</ele>
        <time>2015-06-04T13:52:20Z</time>
      </trkpt>
      <trkpt lat="42.90636" lon="-0.42094">
        <ele>1097.0014648438</ele>
        <time>2015-06-04T13:52:32Z</time>
      </trkpt>
      <trkpt lat="42.90636" lon="-0.42088">
        <ele>1096.5209960938</ele>
        <time>2015-06-04T13:52:36Z</time>
      </trkpt>
      <trkpt lat="42.9064" lon="-0.42062">
        <ele>1094.5981445312</ele>
        <time>2015-06-04T13:52:53Z</time>
      </trkpt>
      <trkpt lat="42.90644" lon="-0.42045">
        <ele>1094.1176757812</ele>
        <time>2015-06-04T13:53:03Z</time>
      </trkpt>
      <trkpt lat="42.90649" lon="-0.42026">
        <ele>1093.15625</ele>
        <time>2015-06-04T13:53:16Z</time>
      </trkpt>
      <trkpt lat="42.9066" lon="-0.42028">
        <ele>1092.67578125</ele>
        <time>2015-06-04T13:53:31Z</time>
      </trkpt>
      <trkpt lat="42.90656" lon="-0.42039">
        <ele>1092.1950683594</ele>
        <time>2015-06-04T13:53:40Z</time>
      </trkpt>
      <trkpt lat="42.90653" lon="-0.42043">
        <ele>1092.67578125</ele>
        <time>2015-06-04T13:53:44Z</time>
      </trkpt>
      <trkpt lat="42.90648" lon="-0.42054">
        <ele>1091.7143554688</ele>
        <time>2015-06-04T13:53:52Z</time>
      </trkpt>
      <trkpt lat="42.90646" lon="-0.42061">
        <ele>1091.2336425781</ele>
        <time>2015-06-04T13:53:56Z</time>
      </trkpt>
      <trkpt lat="42.90645" lon="-0.42082">
        <ele>1089.7917480469</ele>
        <time>2015-06-04T13:54:11Z</time>
      </trkpt>
      <trkpt lat="42.90648" lon="-0.42101">
        <ele>1087.869140625</ele>
        <time>2015-06-04T13:54:22Z</time>
      </trkpt>
      <trkpt lat="42.90652" lon="-0.42126">
        <ele>1085.4658203125</ele>
        <time>2015-06-04T13:54:38Z</time>
      </trkpt>
      <trkpt lat="42.90658" lon="-0.42141">
        <ele>1084.0239257812</ele>
        <time>2015-06-04T13:54:47Z</time>
      </trkpt>
      <trkpt lat="42.90662" lon="-0.42166">
        <ele>1083.0622558594</ele>
        <time>2015-06-04T13:55:02Z</time>
      </trkpt>
      <trkpt lat="42.90666" lon="-0.42184">
        <ele>1081.1398925781</ele>
        <time>2015-06-04T13:55:16Z</time>
      </trkpt>
      <trkpt lat="42.90666" lon="-0.42203">
        <ele>1079.2170410156</ele>
        <time>2015-06-04T13:55:28Z</time>
      </trkpt>
      <trkpt lat="42.90675" lon="-0.4222">
        <ele>1077.7751464844</ele>
        <time>2015-06-04T13:55:41Z</time>
      </trkpt>
      <trkpt lat="42.90679" lon="-0.42229">
        <ele>1075.8525390625</ele>
        <time>2015-06-04T13:55:48Z</time>
      </trkpt>
      <trkpt lat="42.90687" lon="-0.42249">
        <ele>1073.9299316406</ele>
        <time>2015-06-04T13:56:01Z</time>
      </trkpt>
      <trkpt lat="42.90691" lon="-0.42267">
        <ele>1072.4880371094</ele>
        <time>2015-06-04T13:56:13Z</time>
      </trkpt>
      <trkpt lat="42.90698" lon="-0.42286">
        <ele>1072.0073242188</ele>
        <time>2015-06-04T13:56:27Z</time>
      </trkpt>
      <trkpt lat="42.90702" lon="-0.423">
        <ele>1070.5654296875</ele>
        <time>2015-06-04T13:56:38Z</time>
      </trkpt>
      <trkpt lat="42.90712" lon="-0.42316">
        <ele>1069.1235351562</ele>
        <time>2015-06-04T13:56:53Z</time>
      </trkpt>
      <trkpt lat="42.9072" lon="-0.42334">
        <ele>1066.2392578125</ele>
        <time>2015-06-04T13:57:06Z</time>
      </trkpt>
      <trkpt lat="42.90723" lon="-0.4234">
        <ele>1065.7587890625</ele>
        <time>2015-06-04T13:57:10Z</time>
      </trkpt>
      <trkpt lat="42.90732" lon="-0.42367">
        <ele>1062.8747558594</ele>
        <time>2015-06-04T13:57:26Z</time>
      </trkpt>
      <trkpt lat="42.90746" lon="-0.42379">
        <ele>1059.9907226562</ele>
        <time>2015-06-04T13:57:42Z</time>
      </trkpt>
      <trkpt lat="42.90756" lon="-0.4239">
        <ele>1059.0295410156</ele>
        <time>2015-06-04T13:57:56Z</time>
      </trkpt>
      <trkpt lat="42.90766" lon="-0.42401">
        <ele>1058.068359375</ele>
        <time>2015-06-04T13:58:10Z</time>
      </trkpt>
      <trkpt lat="42.90771" lon="-0.42417">
        <ele>1056.1455078125</ele>
        <time>2015-06-04T13:58:24Z</time>
      </trkpt>
      <trkpt lat="42.90778" lon="-0.42424">
        <ele>1055.1843261719</ele>
        <time>2015-06-04T13:58:30Z</time>
      </trkpt>
      <trkpt lat="42.9079" lon="-0.42439">
        <ele>1052.3002929688</ele>
        <time>2015-06-04T13:58:42Z</time>
      </trkpt>
      <trkpt lat="42.90801" lon="-0.42453">
        <ele>1050.3776855469</ele>
        <time>2015-06-04T13:58:56Z</time>
      </trkpt>
      <trkpt lat="42.9081" lon="-0.42471">
        <ele>1048.935546875</ele>
        <time>2015-06-04T13:59:12Z</time>
      </trkpt>
      <trkpt lat="42.90809" lon="-0.42478">
        <ele>1047.9743652344</ele>
        <time>2015-06-04T13:59:19Z</time>
      </trkpt>
      <trkpt lat="42.90803" lon="-0.42493">
        <ele>1046.5324707031</ele>
        <time>2015-06-04T13:59:32Z</time>
      </trkpt>
      <trkpt lat="42.90802" lon="-0.42514">
        <ele>1045.5710449219</ele>
        <time>2015-06-04T13:59:47Z</time>
      </trkpt>
      <trkpt lat="42.90804" lon="-0.42529">
        <ele>1044.6096191406</ele>
        <time>2015-06-04T13:59:54Z</time>
      </trkpt>
      <trkpt lat="42.90819" lon="-0.42553">
        <ele>1042.6872558594</ele>
        <time>2015-06-04T14:00:11Z</time>
      </trkpt>
      <trkpt lat="42.90829" lon="-0.42566">
        <ele>1041.2451171875</ele>
        <time>2015-06-04T14:00:22Z</time>
      </trkpt>
      <trkpt lat="42.90848" lon="-0.4257">
        <ele>1038.361328125</ele>
        <time>2015-06-04T14:00:38Z</time>
      </trkpt>
      <trkpt lat="42.90864" lon="-0.42569">
        <ele>1037.8806152344</ele>
        <time>2015-06-04T14:00:49Z</time>
      </trkpt>
      <trkpt lat="42.90882" lon="-0.42556">
        <ele>1035.9577636719</ele>
        <time>2015-06-04T14:01:04Z</time>
      </trkpt>
      <trkpt lat="42.90891" lon="-0.42539">
        <ele>1035.9577636719</ele>
        <time>2015-06-04T14:01:15Z</time>
      </trkpt>
      <trkpt lat="42.90892" lon="-0.42531">
        <ele>1034.9965820312</ele>
        <time>2015-06-04T14:01:20Z</time>
      </trkpt>
      <trkpt lat="42.90892" lon="-0.42523">
        <ele>1034.9965820312</ele>
        <time>2015-06-04T14:01:25Z</time>
      </trkpt>
      <trkpt lat="42.90889" lon="-0.425">
        <ele>1032.5932617188</ele>
        <time>2015-06-04T14:01:36Z</time>
      </trkpt>
      <trkpt lat="42.90878" lon="-0.42469">
        <ele>1031.6318359375</ele>
        <time>2015-06-04T14:01:49Z</time>
      </trkpt>
      <trkpt lat="42.90874" lon="-0.42458">
        <ele>1030.1899414062</ele>
        <time>2015-06-04T14:02:01Z</time>
      </trkpt>
      <trkpt lat="42.90871" lon="-0.42444">
        <ele>1028.2673339844</ele>
        <time>2015-06-04T14:02:15Z</time>
      </trkpt>
      <trkpt lat="42.90872" lon="-0.42416">
        <ele>1026.8254394531</ele>
        <time>2015-06-04T14:02:32Z</time>
      </trkpt>
      <trkpt lat="42.90871" lon="-0.42407">
        <ele>1025.8640136719</ele>
        <time>2015-06-04T14:02:38Z</time>
      </trkpt>
      <trkpt lat="42.90863" lon="-0.42387">
        <ele>1023.94140625</ele>
        <time>2015-06-04T14:02:55Z</time>
      </trkpt>
      <trkpt lat="42.90851" lon="-0.42365">
        <ele>1022.0187988281</ele>
        <time>2015-06-04T14:03:12Z</time>
      </trkpt>
      <trkpt lat="42.90842" lon="-0.42353">
        <ele>1021.5380859375</ele>
        <time>2015-06-04T14:03:21Z</time>
      </trkpt>
      <trkpt lat="42.90831" lon="-0.42334">
        <ele>1020.5769042969</ele>
        <time>2015-06-04T14:03:35Z</time>
      </trkpt>
      <trkpt lat="42.90831" lon="-0.42315">
        <ele>1018.1733398438</ele>
        <time>2015-06-04T14:03:49Z</time>
      </trkpt>
      <trkpt lat="42.90833" lon="-0.42292">
        <ele>1016.7314453125</ele>
        <time>2015-06-04T14:04:05Z</time>
      </trkpt>
      <trkpt lat="42.90834" lon="-0.42285">
        <ele>1015.7702636719</ele>
        <time>2015-06-04T14:04:10Z</time>
      </trkpt>
      <trkpt lat="42.9085" lon="-0.42257">
        <ele>1013.8474121094</ele>
        <time>2015-06-04T14:04:27Z</time>
      </trkpt>
      <trkpt lat="42.90851" lon="-0.42246">
        <ele>1012.8862304688</ele>
        <time>2015-06-04T14:04:35Z</time>
      </trkpt>
      <trkpt lat="42.90851" lon="-0.42218">
        <ele>1010.9636230469</ele>
        <time>2015-06-04T14:04:50Z</time>
      </trkpt>
      <trkpt lat="42.9086" lon="-0.42197">
        <ele>1009.5217285156</ele>
        <time>2015-06-04T14:05:01Z</time>
      </trkpt>
      <trkpt lat="42.90864" lon="-0.42185">
        <ele>1008.0798339844</ele>
        <time>2015-06-04T14:05:11Z</time>
      </trkpt>
      <trkpt lat="42.90863" lon="-0.42173">
        <ele>1006.6376953125</ele>
        <time>2015-06-04T14:05:24Z</time>
      </trkpt>
      <trkpt lat="42.90863" lon="-0.4217">
        <ele>1005.6765136719</ele>
        <time>2015-06-04T14:05:27Z</time>
      </trkpt>
      <trkpt lat="42.90873" lon="-0.42149">
        <ele>1003.2729492188</ele>
        <time>2015-06-04T14:05:46Z</time>
      </trkpt>
      <trkpt lat="42.90883" lon="-0.42134">
        <ele>1002.7922363281</ele>
        <time>2015-06-04T14:06:00Z</time>
      </trkpt>
      <trkpt lat="42.90899" lon="-0.42114">
        <ele>1000.8696289062</ele>
        <time>2015-06-04T14:06:17Z</time>
      </trkpt>
      <trkpt lat="42.90895" lon="-0.42085">
        <ele>998.46630859375</ele>
        <time>2015-06-04T14:06:34Z</time>
      </trkpt>
      <trkpt lat="42.9089" lon="-0.42064">
        <ele>995.58251953125</ele>
        <time>2015-06-04T14:06:50Z</time>
      </trkpt>
      <trkpt lat="42.9089" lon="-0.42058">
        <ele>994.140625</ele>
        <time>2015-06-04T14:06:55Z</time>
      </trkpt>
      <trkpt lat="42.90895" lon="-0.42049">
        <ele>994.140625</ele>
        <time>2015-06-04T14:07:00Z</time>
      </trkpt>
      <trkpt lat="42.90895" lon="-0.42044">
        <ele>993.65991210938</ele>
        <time>2015-06-04T14:07:04Z</time>
      </trkpt>
      <trkpt lat="42.909" lon="-0.42035">
        <ele>993.65991210938</ele>
        <time>2015-06-04T14:07:16Z</time>
      </trkpt>
      <trkpt lat="42.909" lon="-0.42023">
        <ele>992.69873046875</ele>
        <time>2015-06-04T14:07:25Z</time>
      </trkpt>
      <trkpt lat="42.90897" lon="-0.41994">
        <ele>991.25659179688</ele>
        <time>2015-06-04T14:07:43Z</time>
      </trkpt>
      <trkpt lat="42.90907" lon="-0.41969">
        <ele>990.29541015625</ele>
        <time>2015-06-04T14:08:00Z</time>
      </trkpt>
      <trkpt lat="42.90905" lon="-0.41968">
        <ele>989.333984375</ele>
        <time>2015-06-04T14:08:16Z</time>
      </trkpt>
      <trkpt lat="42.90905" lon="-0.41964">
        <ele>987.4111328125</ele>
        <time>2015-06-04T14:08:33Z</time>
      </trkpt>
      <trkpt lat="42.90899" lon="-0.41967">
        <ele>986.93041992188</ele>
        <time>2015-06-04T14:08:47Z</time>
      </trkpt>
      <trkpt lat="42.90904" lon="-0.41969">
        <ele>986.93041992188</ele>
        <time>2015-06-04T14:08:50Z</time>
      </trkpt>
      <trkpt lat="42.90916" lon="-0.4196">
        <ele>986.44995117188</ele>
        <time>2015-06-04T14:09:05Z</time>
      </trkpt>
      <trkpt lat="42.90904" lon="-0.41941">
        <ele>985.96923828125</ele>
        <time>2015-06-04T14:09:29Z</time>
      </trkpt>
      <trkpt lat="42.90922" lon="-0.41955">
        <ele>985.96923828125</ele>
        <time>2015-06-04T14:09:44Z</time>
      </trkpt>
      <trkpt lat="42.90934" lon="-0.41968">
        <ele>984.52734375</ele>
        <time>2015-06-04T14:09:57Z</time>
      </trkpt>
      <trkpt lat="42.9094" lon="-0.41987">
        <ele>981.16284179688</ele>
        <time>2015-06-04T14:10:15Z</time>
      </trkpt>
      <trkpt lat="42.90942" lon="-0.41993">
        <ele>980.68212890625</ele>
        <time>2015-06-04T14:10:18Z</time>
      </trkpt>
      <trkpt lat="42.90943" lon="-0.41996">
        <ele>980.68212890625</ele>
        <time>2015-06-04T14:10:20Z</time>
      </trkpt>
      <trkpt lat="42.90957" lon="-0.41997">
        <ele>980.20141601562</ele>
        <time>2015-06-04T14:10:33Z</time>
      </trkpt>
      <trkpt lat="42.90955" lon="-0.42009">
        <ele>978.75952148438</ele>
        <time>2015-06-04T14:10:46Z</time>
      </trkpt>
      <trkpt lat="42.90952" lon="-0.42013">
        <ele>978.75952148438</ele>
        <time>2015-06-04T14:10:49Z</time>
      </trkpt>
      <trkpt lat="42.9094" lon="-0.42029">
        <ele>978.27880859375</ele>
        <time>2015-06-04T14:11:03Z</time>
      </trkpt>
      <trkpt lat="42.9094" lon="-0.42027">
        <ele>978.75952148438</ele>
        <time>2015-06-04T14:11:14Z</time>
      </trkpt>
      <trkpt lat="42.90942" lon="-0.42031">
        <ele>977.79809570312</ele>
        <time>2015-06-04T14:11:31Z</time>
      </trkpt>
    </trkseg>
  </trk>
</gpx>